PWSweather.com
Personal Weather Stations
Station Observations
KCOFALCO8
Falcon Hills, Falcon, CO 80831

Falcon HillsFalcon, CO 80831

Lat: 38.979792, Lon: -104.61195

Elevation: 7170

Station Type: AcuRite Pro 5-in-1

http://wx.frazierhome.net/

High Low Average
Temperature 72.5°F22.5°C 43.6°F6.4°C 54.8°F12.7°C
Dew Point 51.8°F11.0°C 39.9°F4.4°C 46.1°F7.8°C
Winds 27.0 mph 43.5 kmh 2.0 mph 3.2 kmh 11.0 mph SE17.7 kmh SE
Wind Gusts -- -- --
Humidity 98% 45% 75%
Pressure 30.09 in1019.0 mb 29.88 in1011.9 mb -
Precipitation 0.00 in0.0 mm - -
Hour Temp Dew Point Humidity Winds Wind Gusts Pressure Precip Precip Rate Daily Precip Total
12:00 AM 55.9°F13.3°C 45.4°F7.4°C 68% 6.0 mph NNW9.7 kmh NNW -- 29.89 in1012.2 mb 0.00 in0.0 mm 0.00 in0.0 mm 0.00 in0.0 mm
12:01 AM 55.9°F13.3°C 45.4°F7.4°C 68% 7.0 mph NNW11.3 kmh NNW -- 29.89 in1012.2 mb 0.00 in0.0 mm 0.00 in0.0 mm 0.00 in0.0 mm
12:02 AM 55.9°F13.3°C 45.4°F7.4°C 68% 6.0 mph NNW9.7 kmh NNW -- 29.89 in1012.2 mb 0.00 in0.0 mm 0.00 in0.0 mm 0.00 in0.0 mm
12:03 AM 55.9°F13.3°C 45.4°F7.4°C 68% 7.0 mph NNW11.3 kmh NNW -- 29.89 in1012.2 mb 0.00 in0.0 mm 0.00 in0.0 mm 0.00 in0.0 mm
12:04 AM 56.0°F13.3°C 45.4°F7.4°C 68% 4.0 mph 6.4 kmh -- 29.89 in1012.2 mb 0.00 in0.0 mm 0.00 in0.0 mm 0.00 in0.0 mm
12:05 AM 56.0°F13.3°C 45.4°F7.4°C 68% 5.0 mph NW8.0 kmh NW -- 29.89 in1012.2 mb 0.00 in0.0 mm 0.00 in0.0 mm 0.00 in0.0 mm
12:06 AM 56.0°F13.3°C 44.6°F7.0°C 66% 6.0 mph 9.7 kmh -- 29.89 in1012.2 mb 0.00 in0.0 mm 0.00 in0.0 mm 0.00 in0.0 mm
12:07 AM 56.0°F13.3°C 44.6°F7.0°C 66% 4.0 mph NW6.4 kmh NW -- 29.89 in1012.2 mb 0.00 in0.0 mm 0.00 in0.0 mm 0.00 in0.0 mm
12:08 AM 56.0°F13.3°C 44.6°F7.0°C 66% 5.0 mph NW8.0 kmh NW -- 29.88 in1011.9 mb 0.00 in0.0 mm 0.00 in0.0 mm 0.00 in0.0 mm
12:09 AM 56.0°F13.3°C 44.6°F7.0°C 66% 5.0 mph 8.0 kmh -- 29.89 in1012.2 mb 0.00 in0.0 mm 0.00 in0.0 mm 0.00 in0.0 mm
12:10 AM 56.0°F13.3°C 44.6°F7.0°C 66% 4.0 mph W6.4 kmh W -- 29.89 in1012.2 mb 0.00 in0.0 mm 0.00 in0.0 mm 0.00 in0.0 mm
12:11 AM 56.0°F13.3°C 44.6°F7.0°C 66% 5.0 mph NNW8.0 kmh NNW -- 29.89 in1012.2 mb 0.00 in0.0 mm 0.00 in0.0 mm 0.00 in0.0 mm
12:12 AM 56.0°F13.3°C 44.6°F7.0°C 66% 5.0 mph 8.0 kmh -- 29.89 in1012.2 mb 0.00 in0.0 mm 0.00 in0.0 mm 0.00 in0.0 mm
12:13 AM 56.0°F13.3°C 44.6°F7.0°C 66% 5.0 mph NNW8.0 kmh NNW -- 29.89 in1012.2 mb 0.00 in0.0 mm 0.00 in0.0 mm 0.00 in0.0 mm
12:14 AM 56.0°F13.3°C 44.6°F7.0°C 66% 4.0 mph NW6.4 kmh NW -- 29.89 in1012.2 mb 0.00 in0.0 mm 0.00 in0.0 mm 0.00 in0.0 mm
12:15 AM 56.3°F13.5°C 45.0°F7.2°C 66% 4.0 mph NW6.4 kmh NW -- 29.89 in1012.2 mb 0.00 in0.0 mm 0.00 in0.0 mm 0.00 in0.0 mm
12:16 AM 56.3°F13.5°C 45.0°F7.2°C 66% 5.0 mph 8.0 kmh -- 29.88 in1011.9 mb 0.00 in0.0 mm 0.00 in0.0 mm 0.00 in0.0 mm
12:17 AM 56.3°F13.5°C 45.0°F7.2°C 66% 4.0 mph WNW6.4 kmh WNW -- 29.89 in1012.2 mb 0.00 in0.0 mm 0.00 in0.0 mm 0.00 in0.0 mm
12:18 AM 56.3°F13.5°C 45.0°F7.2°C 66% 6.0 mph NNW9.7 kmh NNW -- 29.89 in1012.2 mb 0.00 in0.0 mm 0.00 in0.0 mm 0.00 in0.0 mm
12:19 AM 56.3°F13.5°C 45.0°F7.2°C 66% 4.0 mph NNW6.4 kmh NNW -- 29.89 in1012.2 mb 0.00 in0.0 mm 0.00 in0.0 mm 0.00 in0.0 mm
12:20 AM 56.0°F13.3°C 44.6°F7.0°C 66% 5.0 mph 8.0 kmh -- 29.88 in1011.9 mb 0.00 in0.0 mm 0.00 in0.0 mm 0.00 in0.0 mm
12:21 AM 56.0°F13.3°C 44.6°F7.0°C 66% 4.0 mph NW6.4 kmh NW -- 29.89 in1012.2 mb 0.00 in0.0 mm 0.00 in0.0 mm 0.00 in0.0 mm
12:22 AM 56.0°F13.3°C 44.6°F7.0°C 66% 5.0 mph NNW8.0 kmh NNW -- 29.89 in1012.2 mb 0.00 in0.0 mm 0.00 in0.0 mm 0.00 in0.0 mm
12:23 AM 56.0°F13.3°C 44.6°F7.0°C 66% 5.0 mph NW8.0 kmh NW -- 29.89 in1012.2 mb 0.00 in0.0 mm 0.00 in0.0 mm 0.00 in0.0 mm
12:24 AM 56.0°F13.3°C 44.6°F7.0°C 66% 4.0 mph 6.4 kmh -- 29.88 in1011.9 mb 0.00 in0.0 mm 0.00 in0.0 mm 0.00 in0.0 mm
12:25 AM 56.0°F13.3°C 44.6°F7.0°C 66% 6.0 mph 9.7 kmh -- 29.89 in1012.2 mb 0.00 in0.0 mm 0.00 in0.0 mm 0.00 in0.0 mm
12:26 AM 56.0°F13.3°C 44.6°F7.0°C 66% 4.0 mph NNW6.4 kmh NNW -- 29.89 in1012.2 mb 0.00 in0.0 mm 0.00 in0.0 mm 0.00 in0.0 mm
12:27 AM 56.0°F13.3°C 44.6°F7.0°C 66% 6.0 mph NNW9.7 kmh NNW -- 29.89 in1012.2 mb 0.00 in0.0 mm 0.00 in0.0 mm 0.00 in0.0 mm
12:28 AM 56.3°F13.5°C 45.0°F7.2°C 66% 6.0 mph NNW9.7 kmh NNW -- 29.89 in1012.2 mb 0.00 in0.0 mm 0.00 in0.0 mm 0.00 in0.0 mm
12:29 AM 56.3°F13.5°C 45.0°F7.2°C 66% 5.0 mph 8.0 kmh -- 29.89 in1012.2 mb 0.00 in0.0 mm 0.00 in0.0 mm 0.00 in0.0 mm
12:30 AM 56.3°F13.5°C 45.0°F7.2°C 66% 7.0 mph NW11.3 kmh NW -- 29.89 in1012.2 mb 0.00 in0.0 mm 0.00 in0.0 mm 0.00 in0.0 mm
12:31 AM 56.3°F13.5°C 44.6°F7.0°C 65% 4.0 mph NNE6.4 kmh NNE -- 29.88 in1011.9 mb 0.00 in0.0 mm 0.00 in0.0 mm 0.00 in0.0 mm
12:32 AM 56.3°F13.5°C 44.6°F7.0°C 65% 3.0 mph NW4.8 kmh NW -- 29.88 in1011.9 mb 0.00 in0.0 mm 0.00 in0.0 mm 0.00 in0.0 mm
12:33 AM 56.3°F13.5°C 44.6°F7.0°C 65% 6.0 mph NW9.7 kmh NW -- 29.89 in1012.2 mb 0.00 in0.0 mm 0.00 in0.0 mm 0.00 in0.0 mm
12:34 AM 56.0°F13.3°C 44.2°F6.8°C 65% 4.0 mph NW6.4 kmh NW -- 29.89 in1012.2 mb 0.00 in0.0 mm 0.00 in0.0 mm 0.00 in0.0 mm
12:35 AM 56.0°F13.3°C 44.6°F7.0°C 66% 4.0 mph NW6.4 kmh NW -- 29.89 in1012.2 mb 0.00 in0.0 mm 0.00 in0.0 mm 0.00 in0.0 mm
12:36 AM 55.9°F13.3°C 44.6°F7.0°C 66% 4.0 mph NW6.4 kmh NW -- 29.88 in1011.9 mb 0.00 in0.0 mm 0.00 in0.0 mm 0.00 in0.0 mm
12:37 AM 55.7°F13.2°C 44.5°F6.9°C 66% 4.0 mph NNW6.4 kmh NNW -- 29.89 in1012.2 mb 0.00 in0.0 mm 0.00 in0.0 mm 0.00 in0.0 mm
12:39 AM 55.7°F13.2°C 44.5°F6.9°C 66% 4.0 mph 6.4 kmh -- 29.89 in1012.2 mb 0.00 in0.0 mm 0.00 in0.0 mm 0.00 in0.0 mm
12:40 AM 55.7°F13.2°C 44.5°F6.9°C 66% 3.0 mph NNE4.8 kmh NNE -- 29.89 in1012.2 mb 0.00 in0.0 mm 0.00 in0.0 mm 0.00 in0.0 mm
12:41 AM 55.7°F13.2°C 44.5°F6.9°C 66% 4.0 mph NW6.4 kmh NW -- 29.89 in1012.2 mb 0.00 in0.0 mm 0.00 in0.0 mm 0.00 in0.0 mm
12:42 AM 55.5°F13.1°C 45.1°F7.3°C 68% 3.0 mph NW4.8 kmh NW -- 29.89 in1012.2 mb 0.00 in0.0 mm 0.00 in0.0 mm 0.00 in0.0 mm
12:43 AM 55.3°F12.9°C 44.7°F7.1°C 68% 6.0 mph 9.7 kmh -- 29.88 in1011.9 mb 0.00 in0.0 mm 0.00 in0.0 mm 0.00 in0.0 mm
12:44 AM 55.3°F12.9°C 44.7°F7.1°C 68% 3.0 mph NNW4.8 kmh NNW -- 29.88 in1011.9 mb 0.00 in0.0 mm 0.00 in0.0 mm 0.00 in0.0 mm
12:45 AM 55.3°F12.9°C 44.7°F7.1°C 68% 4.0 mph NNW6.4 kmh NNW -- 29.88 in1011.9 mb 0.00 in0.0 mm 0.00 in0.0 mm 0.00 in0.0 mm
12:47 AM 55.1°F12.8°C 44.6°F7.0°C 68% 5.0 mph NW8.0 kmh NW -- 29.88 in1011.9 mb 0.00 in0.0 mm 0.00 in0.0 mm 0.00 in0.0 mm
12:48 AM 55.1°F12.8°C 44.6°F7.0°C 68% 5.0 mph NNW8.0 kmh NNW -- 29.88 in1011.9 mb 0.00 in0.0 mm 0.00 in0.0 mm 0.00 in0.0 mm
12:49 AM 55.1°F12.8°C 44.6°F7.0°C 68% 4.0 mph NNW6.4 kmh NNW -- 29.88 in1011.9 mb 0.00 in0.0 mm 0.00 in0.0 mm 0.00 in0.0 mm
12:50 AM 55.5°F13.1°C 44.3°F6.8°C 66% 8.0 mph WNW12.9 kmh WNW -- 29.88 in1011.9 mb 0.00 in0.0 mm 0.00 in0.0 mm 0.00 in0.0 mm
12:51 AM 55.7°F13.2°C 44.5°F6.9°C 66% 6.0 mph NNW9.7 kmh NNW -- 29.88 in1011.9 mb 0.00 in0.0 mm 0.00 in0.0 mm 0.00 in0.0 mm
12:52 AM 55.7°F13.2°C 44.5°F6.9°C 66% 5.0 mph NNW8.0 kmh NNW -- 29.88 in1011.9 mb 0.00 in0.0 mm 0.00 in0.0 mm 0.00 in0.0 mm
12:53 AM 55.7°F13.2°C 44.5°F6.9°C 66% 5.0 mph NW8.0 kmh NW -- 29.88 in1011.9 mb 0.00 in0.0 mm 0.00 in0.0 mm 0.00 in0.0 mm
12:54 AM 55.7°F13.2°C 44.5°F6.9°C 66% 6.0 mph 9.7 kmh -- 29.88 in1011.9 mb 0.00 in0.0 mm 0.00 in0.0 mm 0.00 in0.0 mm
12:55 AM 55.7°F13.2°C 44.5°F6.9°C 66% 5.0 mph NNW8.0 kmh NNW -- 29.88 in1011.9 mb 0.00 in0.0 mm 0.00 in0.0 mm 0.00 in0.0 mm
12:56 AM 55.7°F13.2°C 44.5°F6.9°C 66% 5.0 mph 8.0 kmh -- 29.88 in1011.9 mb 0.00 in0.0 mm 0.00 in0.0 mm 0.00 in0.0 mm
12:57 AM 55.7°F13.2°C 44.5°F6.9°C 66% 3.0 mph NNW4.8 kmh NNW -- 29.88 in1011.9 mb 0.00 in0.0 mm 0.00 in0.0 mm 0.00 in0.0 mm
12:58 AM 55.7°F13.2°C 44.5°F6.9°C 66% 6.0 mph W9.7 kmh W -- 29.88 in1011.9 mb 0.00 in0.0 mm 0.00 in0.0 mm 0.00 in0.0 mm
12:59 AM 55.5°F13.1°C 44.3°F6.8°C 66% 5.0 mph NW8.0 kmh NW -- 29.88 in1011.9 mb 0.00 in0.0 mm 0.00 in0.0 mm 0.00 in0.0 mm
01:01 AM 55.5°F13.1°C 44.3°F6.8°C 66% 4.0 mph NNW6.4 kmh NNW -- 29.88 in1011.9 mb 0.00 in0.0 mm 0.00 in0.0 mm 0.00 in0.0 mm
01:02 AM 55.5°F13.1°C 44.3°F6.8°C 66% 6.0 mph NW9.7 kmh NW -- 29.88 in1011.9 mb 0.00 in0.0 mm 0.00 in0.0 mm 0.00 in0.0 mm
01:03 AM 55.5°F13.1°C 44.3°F6.8°C 66% 4.0 mph NNW6.4 kmh NNW -- 29.88 in1011.9 mb 0.00 in0.0 mm 0.00 in0.0 mm 0.00 in0.0 mm
01:04 AM 55.5°F13.1°C 44.3°F6.8°C 66% 5.0 mph NW8.0 kmh NW -- 29.88 in1011.9 mb 0.00 in0.0 mm 0.00 in0.0 mm 0.00 in0.0 mm
01:06 AM 55.5°F13.1°C 44.3°F6.8°C 66% 5.0 mph NNW8.0 kmh NNW -- 29.88 in1011.9 mb 0.00 in0.0 mm 0.00 in0.0 mm 0.00 in0.0 mm
01:08 AM 55.5°F13.1°C 44.3°F6.8°C 66% 7.0 mph NNW11.3 kmh NNW -- 29.88 in1011.9 mb 0.00 in0.0 mm 0.00 in0.0 mm 0.00 in0.0 mm
01:09 AM 55.7°F13.2°C 44.5°F6.9°C 66% 8.0 mph NNW12.9 kmh NNW -- 29.88 in1011.9 mb 0.00 in0.0 mm 0.00 in0.0 mm 0.00 in0.0 mm
01:10 AM 55.9°F13.3°C 44.2°F6.8°C 65% 6.0 mph 9.7 kmh -- 29.88 in1011.9 mb 0.00 in0.0 mm 0.00 in0.0 mm 0.00 in0.0 mm
01:11 AM 55.9°F13.3°C 44.2°F6.8°C 65% 7.0 mph W11.3 kmh W -- 29.88 in1011.9 mb 0.00 in0.0 mm 0.00 in0.0 mm 0.00 in0.0 mm
01:12 AM 55.9°F13.3°C 44.2°F6.8°C 65% 5.0 mph WNW8.0 kmh WNW -- 29.88 in1011.9 mb 0.00 in0.0 mm 0.00 in0.0 mm 0.00 in0.0 mm
01:13 AM 55.9°F13.3°C 44.2°F6.8°C 65% 6.0 mph 9.7 kmh -- 29.88 in1011.9 mb 0.00 in0.0 mm 0.00 in0.0 mm 0.00 in0.0 mm
01:14 AM 55.7°F13.2°C 44.1°F6.7°C 65% 5.0 mph W8.0 kmh W -- 29.88 in1011.9 mb 0.00 in0.0 mm 0.00 in0.0 mm 0.00 in0.0 mm
01:15 AM 55.7°F13.2°C 44.1°F6.7°C 65% 6.0 mph NNW9.7 kmh NNW -- 29.88 in1011.9 mb 0.00 in0.0 mm 0.00 in0.0 mm 0.00 in0.0 mm
01:16 AM 55.7°F13.2°C 44.1°F6.7°C 65% 5.0 mph 8.0 kmh -- 29.88 in1011.9 mb 0.00 in0.0 mm 0.00 in0.0 mm 0.00 in0.0 mm
01:17 AM 55.7°F13.2°C 44.1°F6.7°C 65% 6.0 mph NNE9.7 kmh NNE -- 29.88 in1011.9 mb 0.00 in0.0 mm 0.00 in0.0 mm 0.00 in0.0 mm
01:18 AM 55.7°F13.2°C 44.1°F6.7°C 65% 6.0 mph 9.7 kmh -- 29.88 in1011.9 mb 0.00 in0.0 mm 0.00 in0.0 mm 0.00 in0.0 mm
01:19 AM 55.9°F13.3°C 44.2°F6.8°C 65% 5.0 mph NNW8.0 kmh NNW -- 29.88 in1011.9 mb 0.00 in0.0 mm 0.00 in0.0 mm 0.00 in0.0 mm
01:20 AM 55.9°F13.3°C 44.2°F6.8°C 65% 6.0 mph NNW9.7 kmh NNW -- 29.88 in1011.9 mb 0.00 in0.0 mm 0.00 in0.0 mm 0.00 in0.0 mm
01:21 AM 55.9°F13.3°C 44.2°F6.8°C 65% 5.0 mph NW8.0 kmh NW -- 29.88 in1011.9 mb 0.00 in0.0 mm 0.00 in0.0 mm 0.00 in0.0 mm
01:22 AM 55.9°F13.3°C 44.2°F6.8°C 65% 6.0 mph NW9.7 kmh NW -- 29.88 in1011.9 mb 0.00 in0.0 mm 0.00 in0.0 mm 0.00 in0.0 mm
01:23 AM 55.9°F13.3°C 44.2°F6.8°C 65% 5.0 mph NNE8.0 kmh NNE -- 29.88 in1011.9 mb 0.00 in0.0 mm 0.00 in0.0 mm 0.00 in0.0 mm
01:24 AM 55.9°F13.3°C 44.2°F6.8°C 65% 6.0 mph NNW9.7 kmh NNW -- 29.88 in1011.9 mb 0.00 in0.0 mm 0.00 in0.0 mm 0.00 in0.0 mm
01:25 AM 56.0°F13.3°C 44.2°F6.8°C 65% 5.0 mph NNW8.0 kmh NNW -- 29.88 in1011.9 mb 0.00 in0.0 mm 0.00 in0.0 mm 0.00 in0.0 mm
01:26 AM 56.0°F13.3°C 44.2°F6.8°C 65% 4.0 mph WNW6.4 kmh WNW -- 29.88 in1011.9 mb 0.00 in0.0 mm 0.00 in0.0 mm 0.00 in0.0 mm
01:27 AM 56.0°F13.3°C 44.2°F6.8°C 65% 5.0 mph NNE8.0 kmh NNE -- 29.88 in1011.9 mb 0.00 in0.0 mm 0.00 in0.0 mm 0.00 in0.0 mm
01:28 AM 55.9°F13.3°C 44.2°F6.8°C 65% 7.0 mph 11.3 kmh -- 29.88 in1011.9 mb 0.00 in0.0 mm 0.00 in0.0 mm 0.00 in0.0 mm
01:29 AM 55.9°F13.3°C 44.2°F6.8°C 65% 3.0 mph WNW4.8 kmh WNW -- 29.88 in1011.9 mb 0.00 in0.0 mm 0.00 in0.0 mm 0.00 in0.0 mm
01:30 AM 55.9°F13.3°C 44.2°F6.8°C 65% 5.0 mph NNW8.0 kmh NNW -- 29.88 in1011.9 mb 0.00 in0.0 mm 0.00 in0.0 mm 0.00 in0.0 mm
01:31 AM 55.7°F13.2°C 44.1°F6.7°C 65% 4.0 mph NW6.4 kmh NW -- 29.88 in1011.9 mb 0.00 in0.0 mm 0.00 in0.0 mm 0.00 in0.0 mm
01:32 AM 55.5°F13.1°C 44.3°F6.8°C 66% 4.0 mph WNW6.4 kmh WNW -- 29.88 in1011.9 mb 0.00 in0.0 mm 0.00 in0.0 mm 0.00 in0.0 mm
01:33 AM 55.5°F13.1°C 44.3°F6.8°C 66% 5.0 mph NNW8.0 kmh NNW -- 29.89 in1012.2 mb 0.00 in0.0 mm 0.00 in0.0 mm 0.00 in0.0 mm
01:35 AM 55.5°F13.1°C 44.3°F6.8°C 66% 7.0 mph NNW11.3 kmh NNW -- 29.88 in1011.9 mb 0.00 in0.0 mm 0.00 in0.0 mm 0.00 in0.0 mm
01:36 AM 55.5°F13.1°C 44.3°F6.8°C 66% 5.0 mph NW8.0 kmh NW -- 29.88 in1011.9 mb 0.00 in0.0 mm 0.00 in0.0 mm 0.00 in0.0 mm
01:37 AM 55.5°F13.1°C 44.3°F6.8°C 66% 8.0 mph NW12.9 kmh NW -- 29.88 in1011.9 mb 0.00 in0.0 mm 0.00 in0.0 mm 0.00 in0.0 mm
01:38 AM 55.7°F13.2°C 44.1°F6.7°C 65% 8.0 mph NNW12.9 kmh NNW -- 29.88 in1011.9 mb 0.00 in0.0 mm 0.00 in0.0 mm 0.00 in0.0 mm
01:39 AM 56.0°F13.3°C 44.2°F6.8°C 65% 5.0 mph NW8.0 kmh NW -- 29.88 in1011.9 mb 0.00 in0.0 mm 0.00 in0.0 mm 0.00 in0.0 mm
01:40 AM 56.0°F13.3°C 44.2°F6.8°C 65% 4.0 mph NNW6.4 kmh NNW -- 29.88 in1011.9 mb 0.00 in0.0 mm 0.00 in0.0 mm 0.00 in0.0 mm
01:41 AM 56.0°F13.3°C 44.2°F6.8°C 65% 6.0 mph NNW9.7 kmh NNW -- 29.88 in1011.9 mb 0.00 in0.0 mm 0.00 in0.0 mm 0.00 in0.0 mm
01:42 AM 56.0°F13.3°C 44.2°F6.8°C 65% 6.0 mph NW9.7 kmh NW -- 29.88 in1011.9 mb 0.00 in0.0 mm 0.00 in0.0 mm 0.00 in0.0 mm
01:43 AM 56.0°F13.3°C 44.2°F6.8°C 65% 5.0 mph NNW8.0 kmh NNW -- 29.88 in1011.9 mb 0.00 in0.0 mm 0.00 in0.0 mm 0.00 in0.0 mm
01:44 AM 56.3°F13.5°C 44.6°F7.0°C 65% 7.0 mph NNW11.3 kmh NNW -- 29.88 in1011.9 mb 0.00 in0.0 mm 0.00 in0.0 mm 0.00 in0.0 mm
01:45 AM 56.3°F13.5°C 44.6°F7.0°C 65% 8.0 mph 12.9 kmh -- 29.88 in1011.9 mb 0.00 in0.0 mm 0.00 in0.0 mm 0.00 in0.0 mm
01:46 AM 56.5°F13.6°C 44.8°F7.1°C 65% 8.0 mph 12.9 kmh -- 29.88 in1011.9 mb 0.00 in0.0 mm 0.00 in0.0 mm 0.00 in0.0 mm
01:47 AM 56.7°F13.7°C 44.9°F7.2°C 65% 8.0 mph NNW12.9 kmh NNW -- 29.88 in1011.9 mb 0.00 in0.0 mm 0.00 in0.0 mm 0.00 in0.0 mm
01:48 AM 56.7°F13.7°C 44.9°F7.2°C 65% 6.0 mph NW9.7 kmh NW -- 29.88 in1011.9 mb 0.00 in0.0 mm 0.00 in0.0 mm 0.00 in0.0 mm
01:49 AM 56.7°F13.7°C 44.9°F7.2°C 65% 7.0 mph NNW11.3 kmh NNW -- 29.88 in1011.9 mb 0.00 in0.0 mm 0.00 in0.0 mm 0.00 in0.0 mm
01:50 AM 56.7°F13.7°C 44.9°F7.2°C 65% 9.0 mph 14.5 kmh -- 29.88 in1011.9 mb 0.00 in0.0 mm 0.00 in0.0 mm 0.00 in0.0 mm
01:51 AM 56.7°F13.7°C 44.9°F7.2°C 65% 8.0 mph NW12.9 kmh NW -- 29.88 in1011.9 mb 0.00 in0.0 mm 0.00 in0.0 mm 0.00 in0.0 mm
01:52 AM 56.7°F13.7°C 44.9°F7.2°C 65% 8.0 mph NNW12.9 kmh NNW -- 29.88 in1011.9 mb 0.00 in0.0 mm 0.00 in0.0 mm 0.00 in0.0 mm
01:53 AM 56.7°F13.7°C 44.9°F7.2°C 65% 8.0 mph NNW12.9 kmh NNW -- 29.89 in1012.2 mb 0.00 in0.0 mm 0.00 in0.0 mm 0.00 in0.0 mm
01:54 AM 56.9°F13.8°C 45.1°F7.3°C 65% 11.0 mph WNW17.7 kmh WNW -- 29.88 in1011.9 mb 0.00 in0.0 mm 0.00 in0.0 mm 0.00 in0.0 mm
01:55 AM 57.2°F14.0°C 45.4°F7.4°C 65% 9.0 mph NNW14.5 kmh NNW -- 29.88 in1011.9 mb 0.00 in0.0 mm 0.00 in0.0 mm 0.00 in0.0 mm
01:56 AM 57.3°F14.1°C 44.8°F7.1°C 63% 8.0 mph NNW12.9 kmh NNW -- 29.88 in1011.9 mb 0.00 in0.0 mm 0.00 in0.0 mm 0.00 in0.0 mm
01:57 AM 57.3°F14.1°C 44.8°F7.1°C 63% 8.0 mph NW12.9 kmh NW -- 29.88 in1011.9 mb 0.00 in0.0 mm 0.00 in0.0 mm 0.00 in0.0 mm
01:58 AM 57.3°F14.1°C 44.8°F7.1°C 63% 9.0 mph 14.5 kmh -- 29.88 in1011.9 mb 0.00 in0.0 mm 0.00 in0.0 mm 0.00 in0.0 mm
01:59 AM 57.3°F14.1°C 44.8°F7.1°C 63% 8.0 mph NNW12.9 kmh NNW -- 29.89 in1012.2 mb 0.00 in0.0 mm 0.00 in0.0 mm 0.00 in0.0 mm
02:00 AM 57.3°F14.1°C 44.8°F7.1°C 63% 7.0 mph 11.3 kmh -- 29.89 in1012.2 mb 0.00 in0.0 mm 0.00 in0.0 mm 0.00 in0.0 mm
02:01 AM 57.3°F14.1°C 45.6°F7.6°C 65% 9.0 mph NNW14.5 kmh NNW -- 29.89 in1012.2 mb 0.00 in0.0 mm 0.00 in0.0 mm 0.00 in0.0 mm
02:03 AM 57.3°F14.1°C 45.6°F7.6°C 65% 8.0 mph 12.9 kmh -- 29.89 in1012.2 mb 0.00 in0.0 mm 0.00 in0.0 mm 0.00 in0.0 mm
02:04 AM 57.5°F14.2°C 45.8°F7.7°C 65% 8.0 mph NNE12.9 kmh NNE -- 29.89 in1012.2 mb 0.00 in0.0 mm 0.00 in0.0 mm 0.00 in0.0 mm
02:05 AM 57.5°F14.2°C 45.8°F7.7°C 65% 10.0 mph 16.1 kmh -- 29.89 in1012.2 mb 0.00 in0.0 mm 0.00 in0.0 mm 0.00 in0.0 mm
02:06 AM 57.5°F14.2°C 45.8°F7.7°C 65% 9.0 mph 14.5 kmh -- 29.89 in1012.2 mb 0.00 in0.0 mm 0.00 in0.0 mm 0.00 in0.0 mm
02:07 AM 57.5°F14.2°C 45.8°F7.7°C 65% 8.0 mph NNE12.9 kmh NNE -- 29.89 in1012.2 mb 0.00 in0.0 mm 0.00 in0.0 mm 0.00 in0.0 mm
02:08 AM 57.5°F14.2°C 45.8°F7.7°C 65% 8.0 mph NNW12.9 kmh NNW -- 29.89 in1012.2 mb 0.00 in0.0 mm 0.00 in0.0 mm 0.00 in0.0 mm
02:09 AM 57.5°F14.2°C 45.8°F7.7°C 65% 7.0 mph 11.3 kmh -- 29.89 in1012.2 mb 0.00 in0.0 mm 0.00 in0.0 mm 0.00 in0.0 mm
02:10 AM 57.5°F14.2°C 45.8°F7.7°C 65% 9.0 mph NW14.5 kmh NW -- 29.89 in1012.2 mb 0.00 in0.0 mm 0.00 in0.0 mm 0.00 in0.0 mm
02:11 AM 57.5°F14.2°C 45.8°F7.7°C 65% 9.0 mph 14.5 kmh -- 29.89 in1012.2 mb 0.00 in0.0 mm 0.00 in0.0 mm 0.00 in0.0 mm
02:12 AM 57.5°F14.2°C 45.8°F7.7°C 65% 8.0 mph NNW12.9 kmh NNW -- 29.89 in1012.2 mb 0.00 in0.0 mm 0.00 in0.0 mm 0.00 in0.0 mm
02:13 AM 57.3°F14.1°C 45.6°F7.6°C 65% 9.0 mph 14.5 kmh -- 29.89 in1012.2 mb 0.00 in0.0 mm 0.00 in0.0 mm 0.00 in0.0 mm
02:14 AM 57.2°F14.0°C 45.4°F7.4°C 65% 10.0 mph 16.1 kmh -- 29.89 in1012.2 mb 0.00 in0.0 mm 0.00 in0.0 mm 0.00 in0.0 mm
02:15 AM 57.2°F14.0°C 45.8°F7.7°C 66% 7.0 mph 11.3 kmh -- 29.89 in1012.2 mb 0.00 in0.0 mm 0.00 in0.0 mm 0.00 in0.0 mm
02:16 AM 56.9°F13.8°C 45.5°F7.5°C 66% 10.0 mph 16.1 kmh -- 29.89 in1012.2 mb 0.00 in0.0 mm 0.00 in0.0 mm 0.00 in0.0 mm
02:17 AM 56.9°F13.8°C 45.5°F7.5°C 66% 8.0 mph NNW12.9 kmh NNW -- 29.89 in1012.2 mb 0.00 in0.0 mm 0.00 in0.0 mm 0.00 in0.0 mm
02:19 AM 56.9°F13.8°C 46.3°F7.9°C 68% 7.0 mph 11.3 kmh -- 29.89 in1012.2 mb 0.00 in0.0 mm 0.00 in0.0 mm 0.00 in0.0 mm
02:20 AM 56.9°F13.8°C 46.3°F7.9°C 68% 5.0 mph WNW8.0 kmh WNW -- 29.89 in1012.2 mb 0.00 in0.0 mm 0.00 in0.0 mm 0.00 in0.0 mm
02:21 AM 56.7°F13.7°C 46.5°F8.1°C 69% 6.0 mph NNW9.7 kmh NNW -- 29.89 in1012.2 mb 0.00 in0.0 mm 0.00 in0.0 mm 0.00 in0.0 mm
02:22 AM 56.7°F13.7°C 46.5°F8.1°C 69% 5.0 mph NW8.0 kmh NW -- 29.89 in1012.2 mb 0.00 in0.0 mm 0.00 in0.0 mm 0.00 in0.0 mm
02:23 AM 56.5°F13.6°C 46.7°F8.2°C 70% 8.0 mph NNW12.9 kmh NNW -- 29.88 in1011.9 mb 0.00 in0.0 mm 0.00 in0.0 mm 0.00 in0.0 mm
02:25 AM 56.5°F13.6°C 46.7°F8.2°C 70% 6.0 mph NNE9.7 kmh NNE -- 29.89 in1012.2 mb 0.00 in0.0 mm 0.00 in0.0 mm 0.00 in0.0 mm
02:26 AM 56.3°F13.5°C 46.6°F8.1°C 70% 7.0 mph W11.3 kmh W -- 29.88 in1011.9 mb 0.00 in0.0 mm 0.00 in0.0 mm 0.00 in0.0 mm
02:27 AM 56.0°F13.3°C 46.2°F7.9°C 70% 8.0 mph NNE12.9 kmh NNE -- 29.89 in1012.2 mb 0.00 in0.0 mm 0.00 in0.0 mm 0.00 in0.0 mm
02:28 AM 56.0°F13.3°C 46.2°F7.9°C 70% 9.0 mph NNW14.5 kmh NNW -- 29.89 in1012.2 mb 0.00 in0.0 mm 0.00 in0.0 mm 0.00 in0.0 mm
02:29 AM 56.0°F13.3°C 46.2°F7.9°C 70% 9.0 mph NW14.5 kmh NW -- 29.89 in1012.2 mb 0.00 in0.0 mm 0.00 in0.0 mm 0.00 in0.0 mm
02:30 AM 56.0°F13.3°C 46.2°F7.9°C 70% 8.0 mph NNE12.9 kmh NNE -- 29.89 in1012.2 mb 0.00 in0.0 mm 0.00 in0.0 mm 0.00 in0.0 mm
02:31 AM 56.0°F13.3°C 46.2°F7.9°C 70% 10.0 mph NNW16.1 kmh NNW -- 29.89 in1012.2 mb 0.00 in0.0 mm 0.00 in0.0 mm 0.00 in0.0 mm
02:32 AM 56.0°F13.3°C 46.2°F7.9°C 70% 8.0 mph NW12.9 kmh NW -- 29.89 in1012.2 mb 0.00 in0.0 mm 0.00 in0.0 mm 0.00 in0.0 mm
02:33 AM 56.0°F13.3°C 46.2°F7.9°C 70% 11.0 mph NNW17.7 kmh NNW -- 29.89 in1012.2 mb 0.00 in0.0 mm 0.00 in0.0 mm 0.00 in0.0 mm
02:34 AM 56.0°F13.3°C 46.2°F7.9°C 70% 15.0 mph NNW24.1 kmh NNW -- 29.89 in1012.2 mb 0.00 in0.0 mm 0.00 in0.0 mm 0.00 in0.0 mm
02:35 AM 56.0°F13.3°C 46.2°F7.9°C 70% 9.0 mph NNW14.5 kmh NNW -- 29.89 in1012.2 mb 0.00 in0.0 mm 0.00 in0.0 mm 0.00 in0.0 mm
02:36 AM 56.0°F13.3°C 46.2°F7.9°C 70% 7.0 mph NW11.3 kmh NW -- 29.89 in1012.2 mb 0.00 in0.0 mm 0.00 in0.0 mm 0.00 in0.0 mm
02:37 AM 56.0°F13.3°C 46.2°F7.9°C 70% 8.0 mph NW12.9 kmh NW -- 29.89 in1012.2 mb 0.00 in0.0 mm 0.00 in0.0 mm 0.00 in0.0 mm
02:38 AM 55.9°F13.3°C 46.2°F7.9°C 70% 7.0 mph NNW11.3 kmh NNW -- 29.89 in1012.2 mb 0.00 in0.0 mm 0.00 in0.0 mm 0.00 in0.0 mm
02:39 AM 55.9°F13.3°C 46.2°F7.9°C 70% 10.0 mph NNW16.1 kmh NNW -- 29.89 in1012.2 mb 0.00 in0.0 mm 0.00 in0.0 mm 0.00 in0.0 mm
02:40 AM 55.9°F13.3°C 46.6°F8.1°C 71% 11.0 mph NE17.7 kmh NE -- 29.89 in1012.2 mb 0.00 in0.0 mm 0.00 in0.0 mm 0.00 in0.0 mm
02:41 AM 55.9°F13.3°C 46.6°F8.1°C 71% 10.0 mph NNW16.1 kmh NNW -- 29.89 in1012.2 mb 0.00 in0.0 mm 0.00 in0.0 mm 0.00 in0.0 mm
02:42 AM 55.9°F13.3°C 46.6°F8.1°C 71% 10.0 mph 16.1 kmh -- 29.89 in1012.2 mb 0.00 in0.0 mm 0.00 in0.0 mm 0.00 in0.0 mm
02:43 AM 55.9°F13.3°C 46.6°F8.1°C 71% 10.0 mph NNW16.1 kmh NNW -- 29.89 in1012.2 mb 0.00 in0.0 mm 0.00 in0.0 mm 0.00 in0.0 mm
02:45 AM 55.9°F13.3°C 46.6°F8.1°C 71% 8.0 mph WNW12.9 kmh WNW -- 29.89 in1012.2 mb 0.00 in0.0 mm 0.00 in0.0 mm 0.00 in0.0 mm
02:46 AM 55.7°F13.2°C 47.2°F8.4°C 73% 8.0 mph NW12.9 kmh NW -- 29.89 in1012.2 mb 0.00 in0.0 mm 0.00 in0.0 mm 0.00 in0.0 mm
02:47 AM 55.7°F13.2°C 47.2°F8.4°C 73% 7.0 mph NNW11.3 kmh NNW -- 29.89 in1012.2 mb 0.00 in0.0 mm 0.00 in0.0 mm 0.00 in0.0 mm
02:48 AM 55.5°F13.1°C 47.0°F8.3°C 73% 11.0 mph NNW17.7 kmh NNW -- 29.89 in1012.2 mb 0.00 in0.0 mm 0.00 in0.0 mm 0.00 in0.0 mm
02:49 AM 55.5°F13.1°C 47.0°F8.3°C 73% 10.0 mph NNW16.1 kmh NNW -- 29.89 in1012.2 mb 0.00 in0.0 mm 0.00 in0.0 mm 0.00 in0.0 mm
02:50 AM 55.5°F13.1°C 47.0°F8.3°C 73% 9.0 mph NW14.5 kmh NW -- 29.89 in1012.2 mb 0.00 in0.0 mm 0.00 in0.0 mm 0.00 in0.0 mm
02:51 AM 55.5°F13.1°C 47.0°F8.3°C 73% 9.0 mph WNW14.5 kmh WNW -- 29.89 in1012.2 mb 0.00 in0.0 mm 0.00 in0.0 mm 0.00 in0.0 mm
02:52 AM 55.5°F13.1°C 47.0°F8.3°C 73% 15.0 mph NW24.1 kmh NW -- 29.89 in1012.2 mb 0.00 in0.0 mm 0.00 in0.0 mm 0.00 in0.0 mm
02:53 AM 55.5°F13.1°C 47.0°F8.3°C 73% 11.0 mph NNW17.7 kmh NNW -- 29.89 in1012.2 mb 0.00 in0.0 mm 0.00 in0.0 mm 0.00 in0.0 mm
02:54 AM 55.5°F13.1°C 47.0°F8.3°C 73% 14.0 mph NNW22.5 kmh NNW -- 29.89 in1012.2 mb 0.00 in0.0 mm 0.00 in0.0 mm 0.00 in0.0 mm
02:55 AM 55.7°F13.2°C 46.4°F8.0°C 71% 13.0 mph NNE20.9 kmh NNE -- 29.89 in1012.2 mb 0.00 in0.0 mm 0.00 in0.0 mm 0.00 in0.0 mm
02:56 AM 55.7°F13.2°C 46.4°F8.0°C 71% 12.0 mph NW19.3 kmh NW -- 29.89 in1012.2 mb 0.00 in0.0 mm 0.00 in0.0 mm 0.00 in0.0 mm
02:57 AM 55.7°F13.2°C 46.4°F8.0°C 71% 18.0 mph NNE29.0 kmh NNE -- 29.89 in1012.2 mb 0.00 in0.0 mm 0.00 in0.0 mm 0.00 in0.0 mm
02:58 AM 55.9°F13.3°C 46.6°F8.1°C 71% 15.0 mph NW24.1 kmh NW -- 29.89 in1012.2 mb 0.00 in0.0 mm 0.00 in0.0 mm 0.00 in0.0 mm
02:59 AM 55.9°F13.3°C 46.6°F8.1°C 71% 17.0 mph NNW27.4 kmh NNW -- 29.89 in1012.2 mb 0.00 in0.0 mm 0.00 in0.0 mm 0.00 in0.0 mm
03:00 AM 55.9°F13.3°C 46.6°F8.1°C 71% 11.0 mph 17.7 kmh -- 29.89 in1012.2 mb 0.00 in0.0 mm 0.00 in0.0 mm 0.00 in0.0 mm
03:01 AM 55.9°F13.3°C 46.6°F8.1°C 71% 14.0 mph NW22.5 kmh NW -- 29.89 in1012.2 mb 0.00 in0.0 mm 0.00 in0.0 mm 0.00 in0.0 mm
03:02 AM 55.9°F13.3°C 46.6°F8.1°C 71% 10.0 mph NNW16.1 kmh NNW -- 29.89 in1012.2 mb 0.00 in0.0 mm 0.00 in0.0 mm 0.00 in0.0 mm
03:03 AM 55.9°F13.3°C 46.6°F8.1°C 71% 10.0 mph 16.1 kmh -- 29.89 in1012.2 mb 0.00 in0.0 mm 0.00 in0.0 mm 0.00 in0.0 mm
03:04 AM 55.7°F13.2°C 46.4°F8.0°C 71% 16.0 mph NNE25.7 kmh NNE -- 29.89 in1012.2 mb 0.00 in0.0 mm 0.00 in0.0 mm 0.00 in0.0 mm
03:05 AM 55.7°F13.2°C 46.4°F8.0°C 71% 17.0 mph 27.4 kmh -- 29.89 in1012.2 mb 0.00 in0.0 mm 0.00 in0.0 mm 0.00 in0.0 mm
03:06 AM 55.7°F13.2°C 46.4°F8.0°C 71% 10.0 mph WNW16.1 kmh WNW -- 29.89 in1012.2 mb 0.00 in0.0 mm 0.00 in0.0 mm 0.00 in0.0 mm
03:07 AM 55.7°F13.2°C 46.4°F8.0°C 71% 15.0 mph NNE24.1 kmh NNE -- 29.89 in1012.2 mb 0.00 in0.0 mm 0.00 in0.0 mm 0.00 in0.0 mm
03:08 AM 55.7°F13.2°C 46.4°F8.0°C 71% 11.0 mph NNW17.7 kmh NNW -- 29.89 in1012.2 mb 0.00 in0.0 mm 0.00 in0.0 mm 0.00 in0.0 mm
03:09 AM 55.7°F13.2°C 46.4°F8.0°C 71% 10.0 mph NNW16.1 kmh NNW -- 29.89 in1012.2 mb 0.00 in0.0 mm 0.00 in0.0 mm 0.00 in0.0 mm
03:10 AM 55.5°F13.1°C 46.2°F7.9°C 71% 13.0 mph 20.9 kmh -- 29.89 in1012.2 mb 0.00 in0.0 mm 0.00 in0.0 mm 0.00 in0.0 mm
03:11 AM 55.5°F13.1°C 46.2°F7.9°C 71% 17.0 mph NNE27.4 kmh NNE -- 29.89 in1012.2 mb 0.00 in0.0 mm 0.00 in0.0 mm 0.00 in0.0 mm
03:12 AM 55.5°F13.1°C 46.2°F7.9°C 71% 17.0 mph NNW27.4 kmh NNW -- 29.89 in1012.2 mb 0.00 in0.0 mm 0.00 in0.0 mm 0.00 in0.0 mm
03:13 AM 55.5°F13.1°C 46.2°F7.9°C 71% 12.0 mph NNW19.3 kmh NNW -- 29.89 in1012.2 mb 0.00 in0.0 mm 0.00 in0.0 mm 0.00 in0.0 mm
03:14 AM 55.5°F13.1°C 46.2°F7.9°C 71% 15.0 mph NNW24.1 kmh NNW -- 29.89 in1012.2 mb 0.00 in0.0 mm 0.00 in0.0 mm 0.00 in0.0 mm
03:15 AM 55.5°F13.1°C 46.2°F7.9°C 71% 18.0 mph 29.0 kmh -- 29.89 in1012.2 mb 0.00 in0.0 mm 0.00 in0.0 mm 0.00 in0.0 mm
03:16 AM 55.3°F12.9°C 46.6°F8.1°C 73% 16.0 mph NNW25.7 kmh NNW -- 29.89 in1012.2 mb 0.00 in0.0 mm 0.00 in0.0 mm 0.00 in0.0 mm
03:17 AM 55.1°F12.8°C 46.8°F8.2°C 74% 17.0 mph NNW27.4 kmh NNW -- 29.89 in1012.2 mb 0.00 in0.0 mm 0.00 in0.0 mm 0.00 in0.0 mm
03:19 AM 54.9°F12.7°C 47.0°F8.3°C 75% 15.0 mph WNW24.1 kmh WNW -- 29.90 in1012.5 mb 0.00 in0.0 mm 0.00 in0.0 mm 0.00 in0.0 mm
03:20 AM 54.7°F12.6°C 46.8°F8.2°C 75% 11.0 mph NNW17.7 kmh NNW -- 29.89 in1012.2 mb 0.00 in0.0 mm 0.00 in0.0 mm 0.00 in0.0 mm
03:21 AM 54.4°F12.4°C 46.5°F8.1°C 75% 18.0 mph NW29.0 kmh NW -- 29.90 in1012.5 mb 0.00 in0.0 mm 0.00 in0.0 mm 0.00 in0.0 mm
03:22 AM 54.2°F12.3°C 46.7°F8.2°C 76% 18.0 mph NNE29.0 kmh NNE -- 29.90 in1012.5 mb 0.00 in0.0 mm 0.00 in0.0 mm 0.00 in0.0 mm
03:23 AM 54.0°F12.2°C 47.2°F8.4°C 78% 18.0 mph NNW29.0 kmh NNW -- 29.90 in1012.5 mb 0.00 in0.0 mm 0.00 in0.0 mm 0.00 in0.0 mm
03:24 AM 54.0°F12.2°C 47.2°F8.4°C 78% 20.0 mph NNW32.2 kmh NNW -- 29.90 in1012.5 mb 0.00 in0.0 mm 0.00 in0.0 mm 0.00 in0.0 mm
03:25 AM 54.0°F12.2°C 47.9°F8.8°C 80% 13.0 mph WNW20.9 kmh WNW -- 29.90 in1012.5 mb 0.00 in0.0 mm 0.00 in0.0 mm 0.00 in0.0 mm
03:26 AM 53.8°F12.1°C 48.0°F8.9°C 81% 20.0 mph NNW32.2 kmh NNW -- 29.90 in1012.5 mb 0.00 in0.0 mm 0.00 in0.0 mm 0.00 in0.0 mm
03:27 AM 53.4°F11.9°C 48.3°F9.1°C 83% 21.0 mph NNW33.8 kmh NNW -- 29.90 in1012.5 mb 0.00 in0.0 mm 0.00 in0.0 mm 0.00 in0.0 mm
03:28 AM 53.2°F11.8°C 48.8°F9.3°C 85% 16.0 mph NNW25.7 kmh NNW -- 29.89 in1012.2 mb 0.00 in0.0 mm 0.00 in0.0 mm 0.00 in0.0 mm
03:29 AM 53.1°F11.7°C 48.9°F9.4°C 86% 13.0 mph 20.9 kmh -- 29.90 in1012.5 mb 0.00 in0.0 mm 0.00 in0.0 mm 0.00 in0.0 mm
03:30 AM 52.8°F11.6°C 48.8°F9.3°C 86% 16.0 mph NNW25.7 kmh NNW -- 29.90 in1012.5 mb 0.00 in0.0 mm 0.00 in0.0 mm 0.00 in0.0 mm
03:31 AM 52.6°F11.4°C 49.0°F9.4°C 88% 20.0 mph 32.2 kmh -- 29.90 in1012.5 mb 0.00 in0.0 mm 0.00 in0.0 mm 0.00 in0.0 mm
03:32 AM 52.6°F11.4°C 49.0°F9.4°C 88% 13.0 mph 20.9 kmh -- 29.90 in1012.5 mb 0.00 in0.0 mm 0.00 in0.0 mm 0.00 in0.0 mm
03:33 AM 52.5°F11.4°C 49.6°F9.8°C 90% 14.0 mph NNW22.5 kmh NNW -- 29.89 in1012.2 mb 0.00 in0.0 mm 0.00 in0.0 mm 0.00 in0.0 mm
03:34 AM 52.5°F11.4°C 49.9°F9.9°C 91% 16.0 mph NNW25.7 kmh NNW -- 29.89 in1012.2 mb 0.00 in0.0 mm 0.00 in0.0 mm 0.00 in0.0 mm
03:35 AM 52.3°F11.3°C 49.8°F9.9°C 91% 13.0 mph NNW20.9 kmh NNW -- 29.89 in1012.2 mb 0.00 in0.0 mm 0.00 in0.0 mm 0.00 in0.0 mm
03:36 AM 52.2°F11.2°C 49.6°F9.8°C 91% 18.0 mph NNE29.0 kmh NNE -- 29.89 in1012.2 mb 0.00 in0.0 mm 0.00 in0.0 mm 0.00 in0.0 mm
03:37 AM 51.9°F11.1°C 50.0°F10.0°C 93% 13.0 mph NNW20.9 kmh NNW -- 29.90 in1012.5 mb 0.00 in0.0 mm 0.00 in0.0 mm 0.00 in0.0 mm
03:38 AM 51.9°F11.1°C 50.0°F10.0°C 93% 12.0 mph 19.3 kmh -- 29.90 in1012.5 mb 0.00 in0.0 mm 0.00 in0.0 mm 0.00 in0.0 mm
03:39 AM 51.8°F11.0°C 50.4°F10.2°C 95% 15.0 mph 24.1 kmh -- 29.90 in1012.5 mb 0.00 in0.0 mm 0.00 in0.0 mm 0.00 in0.0 mm
03:40 AM 51.8°F11.0°C 50.4°F10.2°C 95% 12.0 mph 19.3 kmh -- 29.90 in1012.5 mb 0.00 in0.0 mm 0.00 in0.0 mm 0.00 in0.0 mm
03:41 AM 51.5°F10.8°C 50.3°F10.2°C 96% 16.0 mph NW25.7 kmh NW -- 29.90 in1012.5 mb 0.00 in0.0 mm 0.00 in0.0 mm 0.00 in0.0 mm
03:42 AM 51.5°F10.8°C 50.3°F10.2°C 96% 15.0 mph NW24.1 kmh NW -- 29.90 in1012.5 mb 0.00 in0.0 mm 0.00 in0.0 mm 0.00 in0.0 mm
03:43 AM 51.5°F10.8°C 50.3°F10.2°C 96% 22.0 mph 35.4 kmh -- 29.90 in1012.5 mb 0.00 in0.0 mm 0.00 in0.0 mm 0.00 in0.0 mm
03:44 AM 51.4°F10.8°C 50.3°F10.2°C 96% 15.0 mph 24.1 kmh -- 29.90 in1012.5 mb 0.00 in0.0 mm 0.00 in0.0 mm 0.00 in0.0 mm
03:45 AM 51.4°F10.8°C 50.3°F10.2°C 96% 15.0 mph NW24.1 kmh NW -- 29.90 in1012.5 mb 0.00 in0.0 mm 0.00 in0.0 mm 0.00 in0.0 mm
03:46 AM 51.3°F10.7°C 50.1°F10.1°C 96% 17.0 mph NW27.4 kmh NW -- 29.90 in1012.5 mb 0.00 in0.0 mm 0.00 in0.0 mm 0.00 in0.0 mm
03:47 AM 51.3°F10.7°C 50.7°F10.4°C 98% 12.0 mph NW19.3 kmh NW -- 29.90 in1012.5 mb 0.00 in0.0 mm 0.00 in0.0 mm 0.00 in0.0 mm
03:48 AM 51.0°F10.6°C 50.5°F10.3°C 98% 17.0 mph NNE27.4 kmh NNE -- 29.89 in1012.2 mb 0.00 in0.0 mm 0.00 in0.0 mm 0.00 in0.0 mm
03:49 AM 51.0°F10.6°C 50.5°F10.3°C 98% 13.0 mph NNW20.9 kmh NNW -- 29.90 in1012.5 mb 0.00 in0.0 mm 0.00 in0.0 mm 0.00 in0.0 mm
03:50 AM 51.0°F10.6°C 50.5°F10.3°C 98% 16.0 mph NNW25.7 kmh NNW -- 29.89 in1012.2 mb 0.00 in0.0 mm 0.00 in0.0 mm 0.00 in0.0 mm
03:51 AM 51.0°F10.6°C 50.5°F10.3°C 98% 15.0 mph 24.1 kmh -- 29.90 in1012.5 mb 0.00 in0.0 mm 0.00 in0.0 mm 0.00 in0.0 mm
03:52 AM 51.0°F10.6°C 50.5°F10.3°C 98% 18.0 mph NNW29.0 kmh NNW -- 29.89 in1012.2 mb 0.00 in0.0 mm 0.00 in0.0 mm 0.00 in0.0 mm
03:53 AM 51.0°F10.6°C 50.5°F10.3°C 98% 13.0 mph 20.9 kmh -- 29.90 in1012.5 mb 0.00 in0.0 mm 0.00 in0.0 mm 0.00 in0.0 mm
03:54 AM 50.9°F10.5°C 50.3°F10.2°C 98% 12.0 mph NW19.3 kmh NW -- 29.90 in1012.5 mb 0.00 in0.0 mm 0.00 in0.0 mm 0.00 in0.0 mm
03:55 AM 50.9°F10.5°C 50.3°F10.2°C 98% 16.0 mph NNW25.7 kmh NNW -- 29.90 in1012.5 mb 0.00 in0.0 mm 0.00 in0.0 mm 0.00 in0.0 mm
03:56 AM 50.9°F10.5°C 50.3°F10.2°C 98% 13.0 mph 20.9 kmh -- 29.90 in1012.5 mb 0.00 in0.0 mm 0.00 in0.0 mm 0.00 in0.0 mm
03:57 AM 50.9°F10.5°C 50.3°F10.2°C 98% 10.0 mph 16.1 kmh -- 29.91 in1012.9 mb 0.00 in0.0 mm 0.00 in0.0 mm 0.00 in0.0 mm
03:58 AM 50.9°F10.5°C 50.3°F10.2°C 98% 16.0 mph NNE25.7 kmh NNE -- 29.90 in1012.5 mb 0.00 in0.0 mm 0.00 in0.0 mm 0.00 in0.0 mm
03:59 AM 50.9°F10.5°C 50.3°F10.2°C 98% 13.0 mph 20.9 kmh -- 29.90 in1012.5 mb 0.00 in0.0 mm 0.00 in0.0 mm 0.00 in0.0 mm
04:00 AM 50.9°F10.5°C 50.3°F10.2°C 98% 12.0 mph 19.3 kmh -- 29.90 in1012.5 mb 0.00 in0.0 mm 0.00 in0.0 mm 0.00 in0.0 mm
04:01 AM 50.9°F10.5°C 50.3°F10.2°C 98% 10.0 mph NNW16.1 kmh NNW -- 29.90 in1012.5 mb 0.00 in0.0 mm 0.00 in0.0 mm 0.00 in0.0 mm
04:02 AM 50.9°F10.5°C 50.3°F10.2°C 98% 9.0 mph NNE14.5 kmh NNE -- 29.90 in1012.5 mb 0.00 in0.0 mm 0.00 in0.0 mm 0.00 in0.0 mm
04:03 AM 50.9°F10.5°C 50.3°F10.2°C 98% 12.0 mph NNW19.3 kmh NNW -- 29.90 in1012.5 mb 0.00 in0.0 mm 0.00 in0.0 mm 0.00 in0.0 mm
04:04 AM 50.9°F10.5°C 50.3°F10.2°C 98% 10.0 mph NNW16.1 kmh NNW -- 29.90 in1012.5 mb 0.00 in0.0 mm 0.00 in0.0 mm 0.00 in0.0 mm
04:05 AM 50.7°F10.4°C 50.2°F10.1°C 98% 9.0 mph NNW14.5 kmh NNW -- 29.91 in1012.9 mb 0.00 in0.0 mm 0.00 in0.0 mm 0.00 in0.0 mm
04:06 AM 50.7°F10.4°C 50.2°F10.1°C 98% 12.0 mph 19.3 kmh -- 29.91 in1012.9 mb 0.00 in0.0 mm 0.00 in0.0 mm 0.00 in0.0 mm
04:07 AM 50.7°F10.4°C 50.2°F10.1°C 98% 9.0 mph NNW14.5 kmh NNW -- 29.91 in1012.9 mb 0.00 in0.0 mm 0.00 in0.0 mm 0.00 in0.0 mm
04:08 AM 50.7°F10.4°C 50.2°F10.1°C 98% 13.0 mph NNW20.9 kmh NNW -- 29.91 in1012.9 mb 0.00 in0.0 mm 0.00 in0.0 mm 0.00 in0.0 mm
04:09 AM 50.7°F10.4°C 50.2°F10.1°C 98% 11.0 mph NNE17.7 kmh NNE -- 29.91 in1012.9 mb 0.00 in0.0 mm 0.00 in0.0 mm 0.00 in0.0 mm
04:10 AM 50.5°F10.3°C 50.0°F10.0°C 98% 13.0 mph NNW20.9 kmh NNW -- 29.91 in1012.9 mb 0.00 in0.0 mm 0.00 in0.0 mm 0.00 in0.0 mm
04:11 AM 50.5°F10.3°C 50.0°F10.0°C 98% 14.0 mph 22.5 kmh -- 29.91 in1012.9 mb 0.00 in0.0 mm 0.00 in0.0 mm 0.00 in0.0 mm
04:12 AM 50.5°F10.3°C 49.4°F9.7°C 96% 16.0 mph 25.7 kmh -- 29.91 in1012.9 mb 0.00 in0.0 mm 0.00 in0.0 mm 0.00 in0.0 mm
04:13 AM 50.5°F10.3°C 49.4°F9.7°C 96% 12.0 mph NNW19.3 kmh NNW -- 29.91 in1012.9 mb 0.00 in0.0 mm 0.00 in0.0 mm 0.00 in0.0 mm
04:14 AM 50.5°F10.3°C 49.4°F9.7°C 96% 18.0 mph NNE29.0 kmh NNE -- 29.91 in1012.9 mb 0.00 in0.0 mm 0.00 in0.0 mm 0.00 in0.0 mm
04:15 AM 50.5°F10.3°C 49.4°F9.7°C 96% 11.0 mph NNW17.7 kmh NNW -- 29.91 in1012.9 mb 0.00 in0.0 mm 0.00 in0.0 mm 0.00 in0.0 mm
04:16 AM 50.5°F10.3°C 49.4°F9.7°C 96% 13.0 mph NNW20.9 kmh NNW -- 29.91 in1012.9 mb 0.00 in0.0 mm 0.00 in0.0 mm 0.00 in0.0 mm
04:17 AM 50.5°F10.3°C 49.1°F9.5°C 95% 15.0 mph NNW24.1 kmh NNW -- 29.91 in1012.9 mb 0.00 in0.0 mm 0.00 in0.0 mm 0.00 in0.0 mm
04:18 AM 50.5°F10.3°C 49.1°F9.5°C 95% 11.0 mph 17.7 kmh -- 29.91 in1012.9 mb 0.00 in0.0 mm 0.00 in0.0 mm 0.00 in0.0 mm
04:19 AM 50.5°F10.3°C 49.1°F9.5°C 95% 13.0 mph NW20.9 kmh NW -- 29.91 in1012.9 mb 0.00 in0.0 mm 0.00 in0.0 mm 0.00 in0.0 mm
04:20 AM 50.5°F10.3°C 48.6°F9.2°C 93% 16.0 mph 25.7 kmh -- 29.91 in1012.9 mb 0.00 in0.0 mm 0.00 in0.0 mm 0.00 in0.0 mm
04:21 AM 50.5°F10.3°C 48.6°F9.2°C 93% 15.0 mph 24.1 kmh -- 29.91 in1012.9 mb 0.00 in0.0 mm 0.00 in0.0 mm 0.00 in0.0 mm
04:22 AM 50.5°F10.3°C 48.6°F9.2°C 93% 13.0 mph NNE20.9 kmh NNE -- 29.91 in1012.9 mb 0.00 in0.0 mm 0.00 in0.0 mm 0.00 in0.0 mm
04:23 AM 50.5°F10.3°C 48.6°F9.2°C 93% 11.0 mph NNE17.7 kmh NNE -- 29.92 in1013.2 mb 0.00 in0.0 mm 0.00 in0.0 mm 0.00 in0.0 mm
04:24 AM 50.3°F10.2°C 48.4°F9.1°C 93% 9.0 mph 14.5 kmh -- 29.92 in1013.2 mb 0.00 in0.0 mm 0.00 in0.0 mm 0.00 in0.0 mm
04:25 AM 50.3°F10.2°C 48.4°F9.1°C 93% 9.0 mph NNE14.5 kmh NNE -- 29.91 in1012.9 mb 0.00 in0.0 mm 0.00 in0.0 mm 0.00 in0.0 mm
04:26 AM 50.3°F10.2°C 48.4°F9.1°C 93% 12.0 mph 19.3 kmh -- 29.91 in1012.9 mb 0.00 in0.0 mm 0.00 in0.0 mm 0.00 in0.0 mm
04:27 AM 50.1°F10.1°C 48.2°F9.0°C 93% 12.0 mph NNW19.3 kmh NNW -- 29.92 in1013.2 mb 0.00 in0.0 mm 0.00 in0.0 mm 0.00 in0.0 mm
04:28 AM 50.1°F10.1°C 48.2°F9.0°C 93% 9.0 mph NNW14.5 kmh NNW -- 29.92 in1013.2 mb 0.00 in0.0 mm 0.00 in0.0 mm 0.00 in0.0 mm
04:29 AM 50.1°F10.1°C 48.2°F9.0°C 93% 8.0 mph NNW12.9 kmh NNW -- 29.91 in1012.9 mb 0.00 in0.0 mm 0.00 in0.0 mm 0.00 in0.0 mm
04:30 AM 50.1°F10.1°C 48.2°F9.0°C 93% 12.0 mph 19.3 kmh -- 29.91 in1012.9 mb 0.00 in0.0 mm 0.00 in0.0 mm 0.00 in0.0 mm
04:31 AM 50.1°F10.1°C 48.2°F9.0°C 93% 15.0 mph W24.1 kmh W -- 29.92 in1013.2 mb 0.00 in0.0 mm 0.00 in0.0 mm 0.00 in0.0 mm
04:32 AM 50.1°F10.1°C 48.2°F9.0°C 93% 12.0 mph NNE19.3 kmh NNE -- 29.92 in1013.2 mb 0.00 in0.0 mm 0.00 in0.0 mm 0.00 in0.0 mm
04:33 AM 50.1°F10.1°C 48.2°F9.0°C 93% 13.0 mph NNE20.9 kmh NNE -- 29.92 in1013.2 mb 0.00 in0.0 mm 0.00 in0.0 mm 0.00 in0.0 mm
04:34 AM 50.0°F10.0°C 48.0°F8.9°C 93% 14.0 mph NNW22.5 kmh NNW -- 29.92 in1013.2 mb 0.00 in0.0 mm 0.00 in0.0 mm 0.00 in0.0 mm
04:35 AM 50.0°F10.0°C 48.0°F8.9°C 93% 16.0 mph 25.7 kmh -- 29.92 in1013.2 mb 0.00 in0.0 mm 0.00 in0.0 mm 0.00 in0.0 mm
04:36 AM 50.0°F10.0°C 48.0°F8.9°C 93% 11.0 mph NW17.7 kmh NW -- 29.92 in1013.2 mb 0.00 in0.0 mm 0.00 in0.0 mm 0.00 in0.0 mm
04:37 AM 50.0°F10.0°C 48.0°F8.9°C 93% 11.0 mph NNE17.7 kmh NNE -- 29.92 in1013.2 mb 0.00 in0.0 mm 0.00 in0.0 mm 0.00 in0.0 mm
04:38 AM 50.0°F10.0°C 48.0°F8.9°C 93% 12.0 mph 19.3 kmh -- 29.92 in1013.2 mb 0.00 in0.0 mm 0.00 in0.0 mm 0.00 in0.0 mm
04:39 AM 50.0°F10.0°C 48.0°F8.9°C 93% 11.0 mph 17.7 kmh -- 29.92 in1013.2 mb 0.00 in0.0 mm 0.00 in0.0 mm 0.00 in0.0 mm
04:40 AM 50.0°F10.0°C 48.0°F8.9°C 93% 12.0 mph ENE19.3 kmh ENE -- 29.91 in1012.9 mb 0.00 in0.0 mm 0.00 in0.0 mm 0.00 in0.0 mm
04:41 AM 50.0°F10.0°C 48.0°F8.9°C 93% 15.0 mph NE24.1 kmh NE -- 29.92 in1013.2 mb 0.00 in0.0 mm 0.00 in0.0 mm 0.00 in0.0 mm
04:42 AM 50.0°F10.0°C 48.0°F8.9°C 93% 8.0 mph NNE12.9 kmh NNE -- 29.92 in1013.2 mb 0.00 in0.0 mm 0.00 in0.0 mm 0.00 in0.0 mm
04:43 AM 50.0°F10.0°C 48.0°F8.9°C 93% 15.0 mph NE24.1 kmh NE -- 29.92 in1013.2 mb 0.00 in0.0 mm 0.00 in0.0 mm 0.00 in0.0 mm
04:44 AM 50.0°F10.0°C 47.4°F8.6°C 91% 8.0 mph NNW12.9 kmh NNW -- 29.92 in1013.2 mb 0.00 in0.0 mm 0.00 in0.0 mm 0.00 in0.0 mm
04:45 AM 50.0°F10.0°C 47.4°F8.6°C 91% 13.0 mph 20.9 kmh -- 29.92 in1013.2 mb 0.00 in0.0 mm 0.00 in0.0 mm 0.00 in0.0 mm
04:46 AM 50.0°F10.0°C 47.4°F8.6°C 91% 10.0 mph NNW16.1 kmh NNW -- 29.91 in1012.9 mb 0.00 in0.0 mm 0.00 in0.0 mm 0.00 in0.0 mm
04:47 AM 49.8°F9.9°C 47.3°F8.5°C 91% 12.0 mph NNE19.3 kmh NNE -- 29.92 in1013.2 mb 0.00 in0.0 mm 0.00 in0.0 mm 0.00 in0.0 mm
04:48 AM 49.8°F9.9°C 47.3°F8.5°C 91% 7.0 mph 11.3 kmh -- 29.92 in1013.2 mb 0.00 in0.0 mm 0.00 in0.0 mm 0.00 in0.0 mm
04:49 AM 49.8°F9.9°C 47.3°F8.5°C 91% 11.0 mph WNW17.7 kmh WNW -- 29.92 in1013.2 mb 0.00 in0.0 mm 0.00 in0.0 mm 0.00 in0.0 mm
04:50 AM 49.8°F9.9°C 47.3°F8.5°C 91% 12.0 mph 19.3 kmh -- 29.92 in1013.2 mb 0.00 in0.0 mm 0.00 in0.0 mm 0.00 in0.0 mm
04:51 AM 49.8°F9.9°C 47.3°F8.5°C 91% 12.0 mph NNE19.3 kmh NNE -- 29.92 in1013.2 mb 0.00 in0.0 mm 0.00 in0.0 mm 0.00 in0.0 mm
04:52 AM 49.8°F9.9°C 47.3°F8.5°C 91% 14.0 mph NE22.5 kmh NE -- 29.92 in1013.2 mb 0.00 in0.0 mm 0.00 in0.0 mm 0.00 in0.0 mm
04:53 AM 49.6°F9.8°C 47.1°F8.4°C 91% 11.0 mph NNW17.7 kmh NNW -- 29.92 in1013.2 mb 0.00 in0.0 mm 0.00 in0.0 mm 0.00 in0.0 mm
04:54 AM 49.6°F9.8°C 47.1°F8.4°C 91% 11.0 mph NW17.7 kmh NW -- 29.92 in1013.2 mb 0.00 in0.0 mm 0.00 in0.0 mm 0.00 in0.0 mm
04:55 AM 49.6°F9.8°C 46.8°F8.2°C 90% 11.0 mph 17.7 kmh -- 29.92 in1013.2 mb 0.00 in0.0 mm 0.00 in0.0 mm 0.00 in0.0 mm
04:56 AM 49.6°F9.8°C 46.2°F7.9°C 88% 11.0 mph NNE17.7 kmh NNE -- 29.92 in1013.2 mb 0.00 in0.0 mm 0.00 in0.0 mm 0.00 in0.0 mm
04:57 AM 49.6°F9.8°C 46.2°F7.9°C 88% 9.0 mph NNW14.5 kmh NNW -- 29.92 in1013.2 mb 0.00 in0.0 mm 0.00 in0.0 mm 0.00 in0.0 mm
04:59 AM 49.6°F9.8°C 46.2°F7.9°C 88% 12.0 mph NNW19.3 kmh NNW -- 29.92 in1013.2 mb 0.00 in0.0 mm 0.00 in0.0 mm 0.00 in0.0 mm
05:00 AM 49.6°F9.8°C 46.2°F7.9°C 88% 14.0 mph NNE22.5 kmh NNE -- 29.92 in1013.2 mb 0.00 in0.0 mm 0.00 in0.0 mm 0.00 in0.0 mm
05:01 AM 49.6°F9.8°C 46.2°F7.9°C 88% 10.0 mph WNW16.1 kmh WNW -- 29.92 in1013.2 mb 0.00 in0.0 mm 0.00 in0.0 mm 0.00 in0.0 mm
05:03 AM 49.6°F9.8°C 46.2°F7.9°C 88% 16.0 mph 25.7 kmh -- 29.92 in1013.2 mb 0.00 in0.0 mm 0.00 in0.0 mm 0.00 in0.0 mm
05:04 AM 49.6°F9.8°C 45.6°F7.6°C 86% 11.0 mph 17.7 kmh -- 29.92 in1013.2 mb 0.00 in0.0 mm 0.00 in0.0 mm 0.00 in0.0 mm
05:05 AM 49.6°F9.8°C 45.6°F7.6°C 86% 14.0 mph 22.5 kmh -- 29.92 in1013.2 mb 0.00 in0.0 mm 0.00 in0.0 mm 0.00 in0.0 mm
05:06 AM 49.4°F9.7°C 45.4°F7.4°C 86% 20.0 mph 32.2 kmh -- 29.92 in1013.2 mb 0.00 in0.0 mm 0.00 in0.0 mm 0.00 in0.0 mm
05:07 AM 49.4°F9.7°C 45.4°F7.4°C 86% 17.0 mph NNW27.4 kmh NNW -- 29.93 in1013.5 mb 0.00 in0.0 mm 0.00 in0.0 mm 0.00 in0.0 mm
05:08 AM 49.4°F9.7°C 45.4°F7.4°C 86% 13.0 mph 20.9 kmh -- 29.92 in1013.2 mb 0.00 in0.0 mm 0.00 in0.0 mm 0.00 in0.0 mm
05:09 AM 49.4°F9.7°C 45.4°F7.4°C 86% 6.0 mph NNE9.7 kmh NNE -- 29.92 in1013.2 mb 0.00 in0.0 mm 0.00 in0.0 mm 0.00 in0.0 mm
05:10 AM 49.4°F9.7°C 45.4°F7.4°C 86% 19.0 mph NNW30.6 kmh NNW -- 29.92 in1013.2 mb 0.00 in0.0 mm 0.00 in0.0 mm 0.00 in0.0 mm
05:11 AM 49.4°F9.7°C 45.4°F7.4°C 86% 13.0 mph NNE20.9 kmh NNE -- 29.93 in1013.5 mb 0.00 in0.0 mm 0.00 in0.0 mm 0.00 in0.0 mm
05:12 AM 49.4°F9.7°C 45.4°F7.4°C 86% 13.0 mph NNW20.9 kmh NNW -- 29.93 in1013.5 mb 0.00 in0.0 mm 0.00 in0.0 mm 0.00 in0.0 mm
05:13 AM 49.4°F9.7°C 45.4°F7.4°C 86% 12.0 mph 19.3 kmh -- 29.93 in1013.5 mb 0.00 in0.0 mm 0.00 in0.0 mm 0.00 in0.0 mm
05:14 AM 49.4°F9.7°C 45.4°F7.4°C 86% 7.0 mph NW11.3 kmh NW -- 29.92 in1013.2 mb 0.00 in0.0 mm 0.00 in0.0 mm 0.00 in0.0 mm
05:15 AM 49.2°F9.6°C 45.2°F7.3°C 86% 10.0 mph WNW16.1 kmh WNW -- 29.93 in1013.5 mb 0.00 in0.0 mm 0.00 in0.0 mm 0.00 in0.0 mm
05:16 AM 49.2°F9.6°C 45.2°F7.3°C 86% 8.0 mph NNW12.9 kmh NNW -- 29.93 in1013.5 mb 0.00 in0.0 mm 0.00 in0.0 mm 0.00 in0.0 mm
05:17 AM 49.0°F9.4°C 44.9°F7.2°C 86% 14.0 mph NE22.5 kmh NE -- 29.92 in1013.2 mb 0.00 in0.0 mm 0.00 in0.0 mm 0.00 in0.0 mm
05:18 AM 49.0°F9.4°C 44.9°F7.2°C 86% 12.0 mph NNW19.3 kmh NNW -- 29.92 in1013.2 mb 0.00 in0.0 mm 0.00 in0.0 mm 0.00 in0.0 mm
05:19 AM 49.0°F9.4°C 44.9°F7.2°C 86% 13.0 mph WNW20.9 kmh WNW -- 29.92 in1013.2 mb 0.00 in0.0 mm 0.00 in0.0 mm 0.00 in0.0 mm
05:20 AM 49.0°F9.4°C 44.9°F7.2°C 86% 13.0 mph NNE20.9 kmh NNE -- 29.92 in1013.2 mb 0.00 in0.0 mm 0.00 in0.0 mm 0.00 in0.0 mm
05:21 AM 49.0°F9.4°C 44.9°F7.2°C 86% 13.0 mph 20.9 kmh -- 29.93 in1013.5 mb 0.00 in0.0 mm 0.00 in0.0 mm 0.00 in0.0 mm
05:22 AM 48.9°F9.4°C 44.9°F7.2°C 86% 8.0 mph NNE12.9 kmh NNE -- 29.93 in1013.5 mb 0.00 in0.0 mm 0.00 in0.0 mm 0.00 in0.0 mm
05:23 AM 48.9°F9.4°C 44.9°F7.2°C 86% 12.0 mph 19.3 kmh -- 29.93 in1013.5 mb 0.00 in0.0 mm 0.00 in0.0 mm 0.00 in0.0 mm
05:24 AM 48.9°F9.4°C 44.6°F7.0°C 85% 9.0 mph WNW14.5 kmh WNW -- 29.93 in1013.5 mb 0.00 in0.0 mm 0.00 in0.0 mm 0.00 in0.0 mm
05:25 AM 48.9°F9.4°C 44.6°F7.0°C 85% 9.0 mph 14.5 kmh -- 29.93 in1013.5 mb 0.00 in0.0 mm 0.00 in0.0 mm 0.00 in0.0 mm
05:26 AM 48.6°F9.2°C 44.2°F6.8°C 85% 13.0 mph 20.9 kmh -- 29.93 in1013.5 mb 0.00 in0.0 mm 0.00 in0.0 mm 0.00 in0.0 mm
05:27 AM 48.6°F9.2°C 44.2°F6.8°C 85% 11.0 mph NNW17.7 kmh NNW -- 29.92 in1013.2 mb 0.00 in0.0 mm 0.00 in0.0 mm 0.00 in0.0 mm
05:28 AM 48.6°F9.2°C 44.2°F6.8°C 85% 11.0 mph NNW17.7 kmh NNW -- 29.93 in1013.5 mb 0.00 in0.0 mm 0.00 in0.0 mm 0.00 in0.0 mm
05:29 AM 48.6°F9.2°C 44.2°F6.8°C 85% 12.0 mph 19.3 kmh -- 29.93 in1013.5 mb 0.00 in0.0 mm 0.00 in0.0 mm 0.00 in0.0 mm
05:30 AM 48.6°F9.2°C 44.2°F6.8°C 85% 8.0 mph NNW12.9 kmh NNW -- 29.93 in1013.5 mb 0.00 in0.0 mm 0.00 in0.0 mm 0.00 in0.0 mm
05:31 AM 48.5°F9.2°C 44.2°F6.8°C 85% 11.0 mph NNE17.7 kmh NNE -- 29.93 in1013.5 mb 0.00 in0.0 mm 0.00 in0.0 mm 0.00 in0.0 mm
05:32 AM 48.5°F9.2°C 44.2°F6.8°C 85% 8.0 mph NNW12.9 kmh NNW -- 29.93 in1013.5 mb 0.00 in0.0 mm 0.00 in0.0 mm 0.00 in0.0 mm
05:33 AM 48.5°F9.2°C 44.2°F6.8°C 85% 7.0 mph NNE11.3 kmh NNE -- 29.93 in1013.5 mb 0.00 in0.0 mm 0.00 in0.0 mm 0.00 in0.0 mm
05:34 AM 48.4°F9.1°C 44.0°F6.7°C 85% 7.0 mph 11.3 kmh -- 29.93 in1013.5 mb 0.00 in0.0 mm 0.00 in0.0 mm 0.00 in0.0 mm
05:35 AM 48.4°F9.1°C 44.0°F6.7°C 85% 11.0 mph NNE17.7 kmh NNE -- 29.93 in1013.5 mb 0.00 in0.0 mm 0.00 in0.0 mm 0.00 in0.0 mm
05:36 AM 48.4°F9.1°C 44.0°F6.7°C 85% 10.0 mph 16.1 kmh -- 29.93 in1013.5 mb 0.00 in0.0 mm 0.00 in0.0 mm 0.00 in0.0 mm
05:37 AM 48.4°F9.1°C 44.0°F6.7°C 85% 15.0 mph NE24.1 kmh NE -- 29.93 in1013.5 mb 0.00 in0.0 mm 0.00 in0.0 mm 0.00 in0.0 mm
05:38 AM 48.4°F9.1°C 44.0°F6.7°C 85% 8.0 mph WNW12.9 kmh WNW -- 29.93 in1013.5 mb 0.00 in0.0 mm 0.00 in0.0 mm 0.00 in0.0 mm
05:39 AM 48.4°F9.1°C 44.0°F6.7°C 85% 10.0 mph NE16.1 kmh NE -- 29.93 in1013.5 mb 0.00 in0.0 mm 0.00 in0.0 mm 0.00 in0.0 mm
05:40 AM 48.2°F9.0°C 43.9°F6.6°C 85% 7.0 mph 11.3 kmh -- 29.93 in1013.5 mb 0.00 in0.0 mm 0.00 in0.0 mm 0.00 in0.0 mm
05:41 AM 48.2°F9.0°C 43.9°F6.6°C 85% 12.0 mph 19.3 kmh -- 29.93 in1013.5 mb 0.00 in0.0 mm 0.00 in0.0 mm 0.00 in0.0 mm
05:42 AM 48.2°F9.0°C 43.9°F6.6°C 85% 8.0 mph 12.9 kmh -- 29.93 in1013.5 mb 0.00 in0.0 mm 0.00 in0.0 mm 0.00 in0.0 mm
05:43 AM 48.2°F9.0°C 43.9°F6.6°C 85% 11.0 mph NNE17.7 kmh NNE -- 29.93 in1013.5 mb 0.00 in0.0 mm 0.00 in0.0 mm 0.00 in0.0 mm
05:44 AM 48.2°F9.0°C 44.2°F6.8°C 86% 6.0 mph NNW9.7 kmh NNW -- 29.93 in1013.5 mb 0.00 in0.0 mm 0.00 in0.0 mm 0.00 in0.0 mm
05:45 AM 48.2°F9.0°C 44.2°F6.8°C 86% 6.0 mph NW9.7 kmh NW -- 29.93 in1013.5 mb 0.00 in0.0 mm 0.00 in0.0 mm 0.00 in0.0 mm
05:46 AM 48.2°F9.0°C 44.2°F6.8°C 86% 14.0 mph NNE22.5 kmh NNE -- 29.93 in1013.5 mb 0.00 in0.0 mm 0.00 in0.0 mm 0.00 in0.0 mm
05:47 AM 48.2°F9.0°C 44.2°F6.8°C 86% 6.0 mph 9.7 kmh -- 29.93 in1013.5 mb 0.00 in0.0 mm 0.00 in0.0 mm 0.00 in0.0 mm
05:48 AM 48.2°F9.0°C 44.2°F6.8°C 86% 13.0 mph 20.9 kmh -- 29.93 in1013.5 mb 0.00 in0.0 mm 0.00 in0.0 mm 0.00 in0.0 mm
05:49 AM 48.0°F8.9°C 44.0°F6.7°C 86% 9.0 mph 14.5 kmh -- 29.94 in1013.9 mb 0.00 in0.0 mm 0.00 in0.0 mm 0.00 in0.0 mm
05:50 AM 48.0°F8.9°C 44.0°F6.7°C 86% 9.0 mph NE14.5 kmh NE -- 29.94 in1013.9 mb 0.00 in0.0 mm 0.00 in0.0 mm 0.00 in0.0 mm
05:51 AM 48.0°F8.9°C 44.0°F6.7°C 86% 9.0 mph NW14.5 kmh NW -- 29.94 in1013.9 mb 0.00 in0.0 mm 0.00 in0.0 mm 0.00 in0.0 mm
05:52 AM 48.0°F8.9°C 44.0°F6.7°C 86% 13.0 mph NNE20.9 kmh NNE -- 29.94 in1013.9 mb 0.00 in0.0 mm 0.00 in0.0 mm 0.00 in0.0 mm
05:53 AM 48.0°F8.9°C 44.0°F6.7°C 86% 12.0 mph NNW19.3 kmh NNW -- 29.94 in1013.9 mb 0.00 in0.0 mm 0.00 in0.0 mm 0.00 in0.0 mm
05:54 AM 48.0°F8.9°C 44.0°F6.7°C 86% 8.0 mph NNW12.9 kmh NNW -- 29.94 in1013.9 mb 0.00 in0.0 mm 0.00 in0.0 mm 0.00 in0.0 mm
05:55 AM 48.0°F8.9°C 44.0°F6.7°C 86% 11.0 mph NNW17.7 kmh NNW -- 29.94 in1013.9 mb 0.00 in0.0 mm 0.00 in0.0 mm 0.00 in0.0 mm
05:56 AM 48.0°F8.9°C 44.0°F6.7°C 86% 9.0 mph NW14.5 kmh NW -- 29.93 in1013.5 mb 0.00 in0.0 mm 0.00 in0.0 mm 0.00 in0.0 mm
05:57 AM 48.0°F8.9°C 44.0°F6.7°C 86% 8.0 mph NNW12.9 kmh NNW -- 29.93 in1013.5 mb 0.00 in0.0 mm 0.00 in0.0 mm 0.00 in0.0 mm
05:58 AM 48.0°F8.9°C 44.0°F6.7°C 86% 11.0 mph NNW17.7 kmh NNW -- 29.94 in1013.9 mb 0.00 in0.0 mm 0.00 in0.0 mm 0.00 in0.0 mm
05:59 AM 48.0°F8.9°C 44.0°F6.7°C 86% 13.0 mph NW20.9 kmh NW -- 29.94 in1013.9 mb 0.00 in0.0 mm 0.00 in0.0 mm 0.00 in0.0 mm
06:00 AM 48.2°F9.0°C 44.2°F6.8°C 86% 12.0 mph NW19.3 kmh NW -- 29.94 in1013.9 mb 0.00 in0.0 mm 0.00 in0.0 mm 0.00 in0.0 mm
06:01 AM 48.2°F9.0°C 44.2°F6.8°C 86% 10.0 mph NNE16.1 kmh NNE -- 29.94 in1013.9 mb 0.00 in0.0 mm 0.00 in0.0 mm 0.00 in0.0 mm
06:02 AM 48.2°F9.0°C 44.2°F6.8°C 86% 12.0 mph NW19.3 kmh NW -- 29.94 in1013.9 mb 0.00 in0.0 mm 0.00 in0.0 mm 0.00 in0.0 mm
06:03 AM 48.2°F9.0°C 43.9°F6.6°C 85% 16.0 mph NNW25.7 kmh NNW -- 29.94 in1013.9 mb 0.00 in0.0 mm 0.00 in0.0 mm 0.00 in0.0 mm
06:04 AM 48.4°F9.1°C 44.0°F6.7°C 85% 15.0 mph 24.1 kmh -- 29.94 in1013.9 mb 0.00 in0.0 mm 0.00 in0.0 mm 0.00 in0.0 mm
06:05 AM 48.4°F9.1°C 44.0°F6.7°C 85% 8.0 mph 12.9 kmh -- 29.94 in1013.9 mb 0.00 in0.0 mm 0.00 in0.0 mm 0.00 in0.0 mm
06:06 AM 48.4°F9.1°C 44.0°F6.7°C 85% 12.0 mph WNW19.3 kmh WNW -- 29.94 in1013.9 mb 0.00 in0.0 mm 0.00 in0.0 mm 0.00 in0.0 mm
06:07 AM 48.4°F9.1°C 44.0°F6.7°C 85% 12.0 mph NNW19.3 kmh NNW -- 29.94 in1013.9 mb 0.00 in0.0 mm 0.00 in0.0 mm 0.00 in0.0 mm
06:08 AM 48.4°F9.1°C 44.0°F6.7°C 85% 12.0 mph 19.3 kmh -- 29.94 in1013.9 mb 0.00 in0.0 mm 0.00 in0.0 mm 0.00 in0.0 mm
06:09 AM 48.4°F9.1°C 44.0°F6.7°C 85% 8.0 mph WNW12.9 kmh WNW -- 29.94 in1013.9 mb 0.00 in0.0 mm 0.00 in0.0 mm 0.00 in0.0 mm
06:10 AM 48.4°F9.1°C 44.0°F6.7°C 85% 9.0 mph NW14.5 kmh NW -- 29.94 in1013.9 mb 0.00 in0.0 mm 0.00 in0.0 mm 0.00 in0.0 mm
06:11 AM 48.5°F9.2°C 43.6°F6.4°C 83% 12.0 mph NNW19.3 kmh NNW -- 29.94 in1013.9 mb 0.00 in0.0 mm 0.00 in0.0 mm 0.00 in0.0 mm
06:12 AM 48.5°F9.2°C 43.6°F6.4°C 83% 12.0 mph 19.3 kmh -- 29.94 in1013.9 mb 0.00 in0.0 mm 0.00 in0.0 mm 0.00 in0.0 mm
06:13 AM 48.5°F9.2°C 43.6°F6.4°C 83% 12.0 mph NNE19.3 kmh NNE -- 29.94 in1013.9 mb 0.00 in0.0 mm 0.00 in0.0 mm 0.00 in0.0 mm
06:14 AM 48.5°F9.2°C 43.6°F6.4°C 83% 12.0 mph NNW19.3 kmh NNW -- 29.94 in1013.9 mb 0.00 in0.0 mm 0.00 in0.0 mm 0.00 in0.0 mm
06:15 AM 48.6°F9.2°C 43.6°F6.4°C 83% 9.0 mph 14.5 kmh -- 29.94 in1013.9 mb 0.00 in0.0 mm 0.00 in0.0 mm 0.00 in0.0 mm
06:17 AM 48.6°F9.2°C 43.6°F6.4°C 83% 16.0 mph 25.7 kmh -- 29.94 in1013.9 mb 0.00 in0.0 mm 0.00 in0.0 mm 0.00 in0.0 mm
06:18 AM 48.9°F9.4°C 43.3°F6.3°C 81% 8.0 mph NW12.9 kmh NW -- 29.94 in1013.9 mb 0.00 in0.0 mm 0.00 in0.0 mm 0.00 in0.0 mm
06:19 AM 48.9°F9.4°C 43.3°F6.3°C 81% 6.0 mph NW9.7 kmh NW -- 29.94 in1013.9 mb 0.00 in0.0 mm 0.00 in0.0 mm 0.00 in0.0 mm
06:20 AM 48.9°F9.4°C 43.3°F6.3°C 81% 10.0 mph NNW16.1 kmh NNW -- 29.94 in1013.9 mb 0.00 in0.0 mm 0.00 in0.0 mm 0.00 in0.0 mm
06:21 AM 48.9°F9.4°C 43.3°F6.3°C 81% 7.0 mph NNW11.3 kmh NNW -- 29.95 in1014.2 mb 0.00 in0.0 mm 0.00 in0.0 mm 0.00 in0.0 mm
06:22 AM 49.0°F9.4°C 43.3°F6.3°C 81% 8.0 mph WNW12.9 kmh WNW -- 29.95 in1014.2 mb 0.00 in0.0 mm 0.00 in0.0 mm 0.00 in0.0 mm
06:23 AM 49.0°F9.4°C 43.3°F6.3°C 81% 7.0 mph NNW11.3 kmh NNW -- 29.94 in1013.9 mb 0.00 in0.0 mm 0.00 in0.0 mm 0.00 in0.0 mm
06:24 AM 49.0°F9.4°C 43.3°F6.3°C 81% 10.0 mph NNE16.1 kmh NNE -- 29.95 in1014.2 mb 0.00 in0.0 mm 0.00 in0.0 mm 0.00 in0.0 mm
06:25 AM 49.0°F9.4°C 43.3°F6.3°C 81% 5.0 mph WNW8.0 kmh WNW -- 29.94 in1013.9 mb 0.00 in0.0 mm 0.00 in0.0 mm 0.00 in0.0 mm
06:26 AM 49.0°F9.4°C 43.3°F6.3°C 81% 9.0 mph NNW14.5 kmh NNW -- 29.94 in1013.9 mb 0.00 in0.0 mm 0.00 in0.0 mm 0.00 in0.0 mm
06:27 AM 49.0°F9.4°C 43.3°F6.3°C 81% 9.0 mph 14.5 kmh -- 29.94 in1013.9 mb 0.00 in0.0 mm 0.00 in0.0 mm 0.00 in0.0 mm
06:28 AM 49.0°F9.4°C 43.3°F6.3°C 81% 7.0 mph NNE11.3 kmh NNE -- 29.95 in1014.2 mb 0.00 in0.0 mm 0.00 in0.0 mm 0.00 in0.0 mm
06:29 AM 49.0°F9.4°C 43.3°F6.3°C 81% 10.0 mph NNE16.1 kmh NNE -- 29.94 in1013.9 mb 0.00 in0.0 mm 0.00 in0.0 mm 0.00 in0.0 mm
06:30 AM 48.9°F9.4°C 43.3°F6.3°C 81% 10.0 mph NNE16.1 kmh NNE -- 29.95 in1014.2 mb 0.00 in0.0 mm 0.00 in0.0 mm 0.00 in0.0 mm
06:31 AM 48.9°F9.4°C 43.3°F6.3°C 81% 12.0 mph NW19.3 kmh NW -- 29.95 in1014.2 mb 0.00 in0.0 mm 0.00 in0.0 mm 0.00 in0.0 mm
06:32 AM 48.9°F9.4°C 43.3°F6.3°C 81% 9.0 mph 14.5 kmh -- 29.95 in1014.2 mb 0.00 in0.0 mm 0.00 in0.0 mm 0.00 in0.0 mm
06:33 AM 48.9°F9.4°C 43.3°F6.3°C 81% 8.0 mph WNW12.9 kmh WNW -- 29.94 in1013.9 mb 0.00 in0.0 mm 0.00 in0.0 mm 0.00 in0.0 mm
06:34 AM 49.0°F9.4°C 43.3°F6.3°C 81% 5.0 mph NNW8.0 kmh NNW -- 29.94 in1013.9 mb 0.00 in0.0 mm 0.00 in0.0 mm 0.00 in0.0 mm
06:35 AM 49.0°F9.4°C 43.0°F6.1°C 80% 9.0 mph 14.5 kmh -- 29.95 in1014.2 mb 0.00 in0.0 mm 0.00 in0.0 mm 0.00 in0.0 mm
06:36 AM 49.2°F9.6°C 43.3°F6.3°C 80% 7.0 mph NE11.3 kmh NE -- 29.95 in1014.2 mb 0.00 in0.0 mm 0.00 in0.0 mm 0.00 in0.0 mm
06:37 AM 49.2°F9.6°C 43.3°F6.3°C 80% 5.0 mph NW8.0 kmh NW -- 29.95 in1014.2 mb 0.00 in0.0 mm 0.00 in0.0 mm 0.00 in0.0 mm
06:38 AM 49.4°F9.7°C 43.5°F6.4°C 80% 9.0 mph NNW14.5 kmh NNW -- 29.95 in1014.2 mb 0.00 in0.0 mm 0.00 in0.0 mm 0.00 in0.0 mm
06:39 AM 49.6°F9.8°C 43.3°F6.3°C 79% 10.0 mph 16.1 kmh -- 29.95 in1014.2 mb 0.00 in0.0 mm 0.00 in0.0 mm 0.00 in0.0 mm
06:40 AM 49.6°F9.8°C 43.3°F6.3°C 79% 6.0 mph NNE9.7 kmh NNE -- 29.95 in1014.2 mb 0.00 in0.0 mm 0.00 in0.0 mm 0.00 in0.0 mm
06:41 AM 49.6°F9.8°C 43.3°F6.3°C 79% 9.0 mph 14.5 kmh -- 29.95 in1014.2 mb 0.00 in0.0 mm 0.00 in0.0 mm 0.00 in0.0 mm
06:42 AM 49.6°F9.8°C 43.3°F6.3°C 79% 9.0 mph NNW14.5 kmh NNW -- 29.95 in1014.2 mb 0.00 in0.0 mm 0.00 in0.0 mm 0.00 in0.0 mm
06:43 AM 49.6°F9.8°C 43.3°F6.3°C 79% 10.0 mph NNW16.1 kmh NNW -- 29.95 in1014.2 mb 0.00 in0.0 mm 0.00 in0.0 mm 0.00 in0.0 mm
06:44 AM 49.8°F9.9°C 43.5°F6.4°C 79% 9.0 mph NNE14.5 kmh NNE -- 29.95 in1014.2 mb 0.00 in0.0 mm 0.00 in0.0 mm 0.00 in0.0 mm
06:45 AM 50.0°F10.0°C 43.7°F6.5°C 79% 8.0 mph 12.9 kmh -- 29.95 in1014.2 mb 0.00 in0.0 mm 0.00 in0.0 mm 0.00 in0.0 mm
06:46 AM 50.1°F10.1°C 43.5°F6.4°C 78% 11.0 mph NNW17.7 kmh NNW -- 29.95 in1014.2 mb 0.00 in0.0 mm 0.00 in0.0 mm 0.00 in0.0 mm
06:47 AM 50.1°F10.1°C 43.5°F6.4°C 78% 11.0 mph 17.7 kmh -- 29.95 in1014.2 mb 0.00 in0.0 mm 0.00 in0.0 mm 0.00 in0.0 mm
06:48 AM 50.3°F10.2°C 43.7°F6.5°C 78% 10.0 mph NNE16.1 kmh NNE -- 29.95 in1014.2 mb 0.00 in0.0 mm 0.00 in0.0 mm 0.00 in0.0 mm
06:49 AM 50.5°F10.3°C 43.9°F6.6°C 78% 9.0 mph NNE14.5 kmh NNE -- 29.95 in1014.2 mb 0.00 in0.0 mm 0.00 in0.0 mm 0.00 in0.0 mm
06:50 AM 50.7°F10.4°C 43.4°F6.3°C 76% 5.0 mph WNW8.0 kmh WNW -- 29.95 in1014.2 mb 0.00 in0.0 mm 0.00 in0.0 mm 0.00 in0.0 mm
06:51 AM 50.9°F10.5°C 43.5°F6.4°C 76% 6.0 mph NNE9.7 kmh NNE -- 29.95 in1014.2 mb 0.00 in0.0 mm 0.00 in0.0 mm 0.00 in0.0 mm
06:52 AM 50.9°F10.5°C 43.5°F6.4°C 76% 11.0 mph NE17.7 kmh NE -- 29.95 in1014.2 mb 0.00 in0.0 mm 0.00 in0.0 mm 0.00 in0.0 mm
06:53 AM 50.9°F10.5°C 43.2°F6.2°C 75% 10.0 mph 16.1 kmh -- 29.95 in1014.2 mb 0.00 in0.0 mm 0.00 in0.0 mm 0.00 in0.0 mm
06:54 AM 50.9°F10.5°C 43.2°F6.2°C 75% 11.0 mph NNW17.7 kmh NNW -- 29.95 in1014.2 mb 0.00 in0.0 mm 0.00 in0.0 mm 0.00 in0.0 mm
06:55 AM 51.0°F10.6°C 43.4°F6.3°C 75% 11.0 mph NNE17.7 kmh NNE -- 29.95 in1014.2 mb 0.00 in0.0 mm 0.00 in0.0 mm 0.00 in0.0 mm
06:56 AM 51.3°F10.7°C 43.5°F6.4°C 75% 11.0 mph NNW17.7 kmh NNW -- 29.95 in1014.2 mb 0.00 in0.0 mm 0.00 in0.0 mm 0.00 in0.0 mm
06:57 AM 51.3°F10.7°C 43.5°F6.4°C 75% 14.0 mph WNW22.5 kmh WNW -- 29.96 in1014.6 mb 0.00 in0.0 mm 0.00 in0.0 mm 0.00 in0.0 mm
06:58 AM 51.4°F10.8°C 43.7°F6.5°C 75% 12.0 mph NNW19.3 kmh NNW -- 29.96 in1014.6 mb 0.00 in0.0 mm 0.00 in0.0 mm 0.00 in0.0 mm
06:59 AM 51.4°F10.8°C 43.7°F6.5°C 75% 10.0 mph NNW16.1 kmh NNW -- 29.95 in1014.2 mb 0.00 in0.0 mm 0.00 in0.0 mm 0.00 in0.0 mm
07:01 AM 51.5°F10.8°C 43.7°F6.5°C 75% 4.0 mph NNW6.4 kmh NNW -- 29.95 in1014.2 mb 0.00 in0.0 mm 0.00 in0.0 mm 0.00 in0.0 mm
07:02 AM 51.5°F10.8°C 43.7°F6.5°C 75% 13.0 mph NE20.9 kmh NE -- 29.95 in1014.2 mb 0.00 in0.0 mm 0.00 in0.0 mm 0.00 in0.0 mm
07:03 AM 51.8°F11.0°C 43.7°F6.5°C 74% 9.0 mph NNE14.5 kmh NNE -- 29.95 in1014.2 mb 0.00 in0.0 mm 0.00 in0.0 mm 0.00 in0.0 mm
07:04 AM 51.8°F11.0°C 43.7°F6.5°C 74% 11.0 mph NNE17.7 kmh NNE -- 29.96 in1014.6 mb 0.00 in0.0 mm 0.00 in0.0 mm 0.00 in0.0 mm
07:05 AM 51.9°F11.1°C 43.5°F6.4°C 73% 8.0 mph NNE12.9 kmh NNE -- 29.95 in1014.2 mb 0.00 in0.0 mm 0.00 in0.0 mm 0.00 in0.0 mm
07:06 AM 52.2°F11.2°C 43.7°F6.5°C 73% 6.0 mph WNW9.7 kmh WNW -- 29.95 in1014.2 mb 0.00 in0.0 mm 0.00 in0.0 mm 0.00 in0.0 mm
07:07 AM 52.2°F11.2°C 43.7°F6.5°C 73% 10.0 mph 16.1 kmh -- 29.96 in1014.6 mb 0.00 in0.0 mm 0.00 in0.0 mm 0.00 in0.0 mm
07:08 AM 52.3°F11.3°C 43.1°F6.2°C 71% 13.0 mph NNE20.9 kmh NNE -- 29.96 in1014.6 mb 0.00 in0.0 mm 0.00 in0.0 mm 0.00 in0.0 mm
07:09 AM 52.5°F11.4°C 42.9°F6.1°C 70% 10.0 mph NNE16.1 kmh NNE -- 29.95 in1014.2 mb 0.00 in0.0 mm 0.00 in0.0 mm 0.00 in0.0 mm
07:10 AM 52.5°F11.4°C 42.9°F6.1°C 70% 9.0 mph NNE14.5 kmh NNE -- 29.95 in1014.2 mb 0.00 in0.0 mm 0.00 in0.0 mm 0.00 in0.0 mm
07:11 AM 52.5°F11.4°C 42.9°F6.1°C 70% 7.0 mph 11.3 kmh -- 29.95 in1014.2 mb 0.00 in0.0 mm 0.00 in0.0 mm 0.00 in0.0 mm
07:12 AM 52.5°F11.4°C 42.9°F6.1°C 70% 9.0 mph NNE14.5 kmh NNE -- 29.96 in1014.6 mb 0.00 in0.0 mm 0.00 in0.0 mm 0.00 in0.0 mm
07:13 AM 52.8°F11.6°C 43.3°F6.3°C 70% 10.0 mph WNW16.1 kmh WNW -- 29.96 in1014.6 mb 0.00 in0.0 mm 0.00 in0.0 mm 0.00 in0.0 mm
07:14 AM 52.8°F11.6°C 43.3°F6.3°C 70% 9.0 mph NE14.5 kmh NE -- 29.96 in1014.6 mb 0.00 in0.0 mm 0.00 in0.0 mm 0.00 in0.0 mm
07:15 AM 53.1°F11.7°C 43.4°F6.3°C 70% 16.0 mph 25.7 kmh -- 29.96 in1014.6 mb 0.00 in0.0 mm 0.00 in0.0 mm 0.00 in0.0 mm
07:16 AM 53.2°F11.8°C 43.2°F6.2°C 69% 6.0 mph NNE9.7 kmh NNE -- 29.96 in1014.6 mb 0.00 in0.0 mm 0.00 in0.0 mm 0.00 in0.0 mm
07:17 AM 53.2°F11.8°C 43.2°F6.2°C 69% 12.0 mph NNW19.3 kmh NNW -- 29.96 in1014.6 mb 0.00 in0.0 mm 0.00 in0.0 mm 0.00 in0.0 mm
07:18 AM 53.4°F11.9°C 43.4°F6.3°C 69% 8.0 mph NNE12.9 kmh NNE -- 29.96 in1014.6 mb 0.00 in0.0 mm 0.00 in0.0 mm 0.00 in0.0 mm
07:19 AM 53.5°F11.9°C 43.4°F6.3°C 69% 7.0 mph NNW11.3 kmh NNW -- 29.96 in1014.6 mb 0.00 in0.0 mm 0.00 in0.0 mm 0.00 in0.0 mm
07:20 AM 53.5°F11.9°C 43.4°F6.3°C 69% 7.0 mph NNE11.3 kmh NNE -- 29.96 in1014.6 mb 0.00 in0.0 mm 0.00 in0.0 mm 0.00 in0.0 mm
07:21 AM 53.8°F12.1°C 43.4°F6.3°C 68% 10.0 mph NNE16.1 kmh NNE -- 29.96 in1014.6 mb 0.00 in0.0 mm 0.00 in0.0 mm 0.00 in0.0 mm
07:22 AM 54.0°F12.2°C 43.5°F6.4°C 68% 7.0 mph NNE11.3 kmh NNE -- 29.96 in1014.6 mb 0.00 in0.0 mm 0.00 in0.0 mm 0.00 in0.0 mm
07:23 AM 54.0°F12.2°C 43.5°F6.4°C 68% 9.0 mph NNW14.5 kmh NNW -- 29.96 in1014.6 mb 0.00 in0.0 mm 0.00 in0.0 mm 0.00 in0.0 mm
07:24 AM 54.0°F12.2°C 43.5°F6.4°C 68% 7.0 mph NNE11.3 kmh NNE -- 29.96 in1014.6 mb 0.00 in0.0 mm 0.00 in0.0 mm 0.00 in0.0 mm
07:25 AM 54.0°F12.2°C 43.5°F6.4°C 68% 9.0 mph NNE14.5 kmh NNE -- 29.96 in1014.6 mb 0.00 in0.0 mm 0.00 in0.0 mm 0.00 in0.0 mm
07:26 AM 54.0°F12.2°C 43.5°F6.4°C 68% 7.0 mph NNW11.3 kmh NNW -- 29.96 in1014.6 mb 0.00 in0.0 mm 0.00 in0.0 mm 0.00 in0.0 mm
07:28 AM 54.2°F12.3°C 43.7°F6.5°C 68% 10.0 mph WNW16.1 kmh WNW -- 29.96 in1014.6 mb 0.00 in0.0 mm 0.00 in0.0 mm 0.00 in0.0 mm
07:29 AM 54.2°F12.3°C 43.7°F6.5°C 68% 8.0 mph NNW12.9 kmh NNW -- 29.96 in1014.6 mb 0.00 in0.0 mm 0.00 in0.0 mm 0.00 in0.0 mm
07:30 AM 54.4°F12.4°C 43.9°F6.6°C 68% 12.0 mph 19.3 kmh -- 29.96 in1014.6 mb 0.00 in0.0 mm 0.00 in0.0 mm 0.00 in0.0 mm
07:31 AM 54.4°F12.4°C 43.1°F6.2°C 66% 8.0 mph WNW12.9 kmh WNW -- 29.96 in1014.6 mb 0.00 in0.0 mm 0.00 in0.0 mm 0.00 in0.0 mm
07:32 AM 54.4°F12.4°C 43.1°F6.2°C 66% 9.0 mph NNE14.5 kmh NNE -- 29.96 in1014.6 mb 0.00 in0.0 mm 0.00 in0.0 mm 0.00 in0.0 mm
07:33 AM 54.4°F12.4°C 43.1°F6.2°C 66% 8.0 mph NE12.9 kmh NE -- 29.96 in1014.6 mb 0.00 in0.0 mm 0.00 in0.0 mm 0.00 in0.0 mm
07:34 AM 54.4°F12.4°C 43.1°F6.2°C 66% 8.0 mph 12.9 kmh -- 29.96 in1014.6 mb 0.00 in0.0 mm 0.00 in0.0 mm 0.00 in0.0 mm
07:35 AM 55.0°F12.8°C 43.8°F6.6°C 66% 8.0 mph SW12.9 kmh SW -- 29.96 in1014.6 mb 0.00 in0.0 mm 0.00 in0.0 mm 0.00 in0.0 mm
07:36 AM 55.0°F12.8°C 43.8°F6.6°C 66% 5.0 mph 8.0 kmh -- 29.96 in1014.6 mb 0.00 in0.0 mm 0.00 in0.0 mm 0.00 in0.0 mm
07:37 AM 55.0°F12.8°C 43.8°F6.6°C 66% 10.0 mph NNE16.1 kmh NNE -- 29.96 in1014.6 mb 0.00 in0.0 mm 0.00 in0.0 mm 0.00 in0.0 mm
07:38 AM 54.9°F12.7°C 43.6°F6.4°C 66% 12.0 mph NNE19.3 kmh NNE -- 29.96 in1014.6 mb 0.00 in0.0 mm 0.00 in0.0 mm 0.00 in0.0 mm
07:39 AM 54.9°F12.7°C 43.6°F6.4°C 66% 13.0 mph NNE20.9 kmh NNE -- 29.96 in1014.6 mb 0.00 in0.0 mm 0.00 in0.0 mm 0.00 in0.0 mm
07:40 AM 54.7°F12.6°C 43.4°F6.3°C 66% 11.0 mph NNE17.7 kmh NNE -- 29.96 in1014.6 mb 0.00 in0.0 mm 0.00 in0.0 mm 0.00 in0.0 mm
07:41 AM 54.7°F12.6°C 43.4°F6.3°C 66% 9.0 mph NNE14.5 kmh NNE -- 29.96 in1014.6 mb 0.00 in0.0 mm 0.00 in0.0 mm 0.00 in0.0 mm
07:42 AM 54.7°F12.6°C 44.2°F6.8°C 68% 7.0 mph NW11.3 kmh NW -- 29.96 in1014.6 mb 0.00 in0.0 mm 0.00 in0.0 mm 0.00 in0.0 mm
07:43 AM 54.9°F12.7°C 44.4°F6.9°C 68% 11.0 mph NNE17.7 kmh NNE -- 29.96 in1014.6 mb 0.00 in0.0 mm 0.00 in0.0 mm 0.00 in0.0 mm
07:44 AM 55.0°F12.8°C 44.6°F7.0°C 68% 7.0 mph NNE11.3 kmh NNE -- 29.96 in1014.6 mb 0.00 in0.0 mm 0.00 in0.0 mm 0.00 in0.0 mm
07:45 AM 55.1°F12.8°C 44.6°F7.0°C 68% 8.0 mph NNE12.9 kmh NNE -- 29.96 in1014.6 mb 0.00 in0.0 mm 0.00 in0.0 mm 0.00 in0.0 mm
07:46 AM 55.1°F12.8°C 43.8°F6.6°C 66% 4.0 mph NW6.4 kmh NW -- 29.96 in1014.6 mb 0.00 in0.0 mm 0.00 in0.0 mm 0.00 in0.0 mm
07:47 AM 55.3°F12.9°C 44.0°F6.7°C 66% 7.0 mph NNE11.3 kmh NNE -- 29.96 in1014.6 mb 0.00 in0.0 mm 0.00 in0.0 mm 0.00 in0.0 mm
07:48 AM 55.3°F12.9°C 44.0°F6.7°C 66% 6.0 mph NNE9.7 kmh NNE -- 29.96 in1014.6 mb 0.00 in0.0 mm 0.00 in0.0 mm 0.00 in0.0 mm
07:49 AM 55.5°F13.1°C 44.3°F6.8°C 66% 6.0 mph NE9.7 kmh NE -- 29.96 in1014.6 mb 0.00 in0.0 mm 0.00 in0.0 mm 0.00 in0.0 mm
07:50 AM 55.5°F13.1°C 44.3°F6.8°C 66% 6.0 mph NNE9.7 kmh NNE -- 29.96 in1014.6 mb 0.00 in0.0 mm 0.00 in0.0 mm 0.00 in0.0 mm
07:51 AM 55.5°F13.1°C 44.3°F6.8°C 66% 5.0 mph NNE8.0 kmh NNE -- 29.96 in1014.6 mb 0.00 in0.0 mm 0.00 in0.0 mm 0.00 in0.0 mm
07:52 AM 55.9°F13.3°C 44.6°F7.0°C 66% 12.0 mph ENE19.3 kmh ENE -- 29.97 in1014.9 mb 0.00 in0.0 mm 0.00 in0.0 mm 0.00 in0.0 mm
07:53 AM 56.0°F13.3°C 44.6°F7.0°C 66% 5.0 mph NNE8.0 kmh NNE -- 29.96 in1014.6 mb 0.00 in0.0 mm 0.00 in0.0 mm 0.00 in0.0 mm
07:54 AM 56.0°F13.3°C 44.6°F7.0°C 66% 9.0 mph NNW14.5 kmh NNW -- 29.96 in1014.6 mb 0.00 in0.0 mm 0.00 in0.0 mm 0.00 in0.0 mm
07:55 AM 56.3°F13.5°C 44.6°F7.0°C 65% 9.0 mph NNE14.5 kmh NNE -- 29.96 in1014.6 mb 0.00 in0.0 mm 0.00 in0.0 mm 0.00 in0.0 mm
07:56 AM 55.9°F13.3°C 44.2°F6.8°C 65% 8.0 mph NE12.9 kmh NE -- 29.96 in1014.6 mb 0.00 in0.0 mm 0.00 in0.0 mm 0.00 in0.0 mm
07:57 AM 55.9°F13.3°C 44.2°F6.8°C 65% 5.0 mph 8.0 kmh -- 29.96 in1014.6 mb 0.00 in0.0 mm 0.00 in0.0 mm 0.00 in0.0 mm
07:58 AM 55.7°F13.2°C 44.5°F6.9°C 66% 7.0 mph NE11.3 kmh NE -- 29.96 in1014.6 mb 0.00 in0.0 mm 0.00 in0.0 mm 0.00 in0.0 mm
07:59 AM 55.9°F13.3°C 44.6°F7.0°C 66% 8.0 mph NNE12.9 kmh NNE -- 29.96 in1014.6 mb 0.00 in0.0 mm 0.00 in0.0 mm 0.00 in0.0 mm
08:00 AM 56.0°F13.3°C 44.2°F6.8°C 65% 9.0 mph ENE14.5 kmh ENE -- 29.96 in1014.6 mb 0.00 in0.0 mm 0.00 in0.0 mm 0.00 in0.0 mm
08:01 AM 56.5°F13.6°C 44.8°F7.1°C 65% 9.0 mph NE14.5 kmh NE -- 29.96 in1014.6 mb 0.00 in0.0 mm 0.00 in0.0 mm 0.00 in0.0 mm
08:02 AM 56.5°F13.6°C 44.8°F7.1°C 65% 9.0 mph ENE14.5 kmh ENE -- 29.96 in1014.6 mb 0.00 in0.0 mm 0.00 in0.0 mm 0.00 in0.0 mm
08:03 AM 56.5°F13.6°C 44.8°F7.1°C 65% 7.0 mph NE11.3 kmh NE -- 29.96 in1014.6 mb 0.00 in0.0 mm 0.00 in0.0 mm 0.00 in0.0 mm
08:04 AM 56.5°F13.6°C 44.8°F7.1°C 65% 8.0 mph NNE12.9 kmh NNE -- 29.96 in1014.6 mb 0.00 in0.0 mm 0.00 in0.0 mm 0.00 in0.0 mm
08:05 AM 56.7°F13.7°C 44.9°F7.2°C 65% 7.0 mph E11.3 kmh E -- 29.96 in1014.6 mb 0.00 in0.0 mm 0.00 in0.0 mm 0.00 in0.0 mm
08:06 AM 56.7°F13.7°C 44.9°F7.2°C 65% 7.0 mph NW11.3 kmh NW -- 29.96 in1014.6 mb 0.00 in0.0 mm 0.00 in0.0 mm 0.00 in0.0 mm
08:07 AM 56.7°F13.7°C 45.3°F7.4°C 66% 8.0 mph NNE12.9 kmh NNE -- 29.96 in1014.6 mb 0.00 in0.0 mm 0.00 in0.0 mm 0.00 in0.0 mm
08:08 AM 56.7°F13.7°C 45.3°F7.4°C 66% 12.0 mph NE19.3 kmh NE -- 29.96 in1014.6 mb 0.00 in0.0 mm 0.00 in0.0 mm 0.00 in0.0 mm
08:09 AM 57.3°F14.1°C 45.6°F7.6°C 65% 11.0 mph NNE17.7 kmh NNE -- 29.96 in1014.6 mb 0.00 in0.0 mm 0.00 in0.0 mm 0.00 in0.0 mm
08:10 AM 57.3°F14.1°C 44.8°F7.1°C 63% 8.0 mph 12.9 kmh -- 29.96 in1014.6 mb 0.00 in0.0 mm 0.00 in0.0 mm 0.00 in0.0 mm
08:11 AM 57.3°F14.1°C 44.8°F7.1°C 63% 12.0 mph NE19.3 kmh NE -- 29.96 in1014.6 mb 0.00 in0.0 mm 0.00 in0.0 mm 0.00 in0.0 mm
08:12 AM 57.5°F14.2°C 45.0°F7.2°C 63% 12.0 mph NNE19.3 kmh NNE -- 29.96 in1014.6 mb 0.00 in0.0 mm 0.00 in0.0 mm 0.00 in0.0 mm
08:13 AM 57.5°F14.2°C 45.0°F7.2°C 63% 11.0 mph ENE17.7 kmh ENE -- 29.95 in1014.2 mb 0.00 in0.0 mm 0.00 in0.0 mm 0.00 in0.0 mm
08:14 AM 57.7°F14.3°C 45.1°F7.3°C 63% 8.0 mph ENE12.9 kmh ENE -- 29.96 in1014.6 mb 0.00 in0.0 mm 0.00 in0.0 mm 0.00 in0.0 mm
08:15 AM 57.7°F14.3°C 45.1°F7.3°C 63% 11.0 mph 17.7 kmh -- 29.96 in1014.6 mb 0.00 in0.0 mm 0.00 in0.0 mm 0.00 in0.0 mm
08:16 AM 57.7°F14.3°C 45.1°F7.3°C 63% 6.0 mph 9.7 kmh -- 29.96 in1014.6 mb 0.00 in0.0 mm 0.00 in0.0 mm 0.00 in0.0 mm
08:17 AM 57.8°F14.3°C 45.1°F7.3°C 63% 7.0 mph NNE11.3 kmh NNE -- 29.96 in1014.6 mb 0.00 in0.0 mm 0.00 in0.0 mm 0.00 in0.0 mm
08:18 AM 57.8°F14.3°C 45.1°F7.3°C 63% 6.0 mph NNE9.7 kmh NNE -- 29.96 in1014.6 mb 0.00 in0.0 mm 0.00 in0.0 mm 0.00 in0.0 mm
08:19 AM 57.7°F14.3°C 45.1°F7.3°C 63% 7.0 mph E11.3 kmh E -- 29.96 in1014.6 mb 0.00 in0.0 mm 0.00 in0.0 mm 0.00 in0.0 mm
08:20 AM 58.0°F14.4°C 45.3°F7.4°C 63% 6.0 mph NE9.7 kmh NE -- 29.96 in1014.6 mb 0.00 in0.0 mm 0.00 in0.0 mm 0.00 in0.0 mm
08:21 AM 58.5°F14.7°C 45.8°F7.7°C 63% 8.0 mph NE12.9 kmh NE -- 29.96 in1014.6 mb 0.00 in0.0 mm 0.00 in0.0 mm 0.00 in0.0 mm
08:22 AM 58.8°F14.9°C 46.2°F7.9°C 63% 12.0 mph NE19.3 kmh NE -- 29.96 in1014.6 mb 0.00 in0.0 mm 0.00 in0.0 mm 0.00 in0.0 mm
08:23 AM 59.0°F15.0°C 45.5°F7.5°C 61% 8.0 mph NE12.9 kmh NE -- 29.96 in1014.6 mb 0.00 in0.0 mm 0.00 in0.0 mm 0.00 in0.0 mm
08:24 AM 58.8°F14.9°C 46.2°F7.9°C 63% 10.0 mph ENE16.1 kmh ENE -- 29.97 in1014.9 mb 0.00 in0.0 mm 0.00 in0.0 mm 0.00 in0.0 mm
08:25 AM 58.8°F14.9°C 47.0°F8.3°C 65% 6.0 mph ENE9.7 kmh ENE -- 29.96 in1014.6 mb 0.00 in0.0 mm 0.00 in0.0 mm 0.00 in0.0 mm
08:26 AM 58.8°F14.9°C 47.0°F8.3°C 65% 11.0 mph E17.7 kmh E -- 29.96 in1014.6 mb 0.00 in0.0 mm 0.00 in0.0 mm 0.00 in0.0 mm
08:27 AM 58.5°F14.7°C 46.6°F8.1°C 65% 10.0 mph NE16.1 kmh NE -- 29.97 in1014.9 mb 0.00 in0.0 mm 0.00 in0.0 mm 0.00 in0.0 mm
08:28 AM 58.4°F14.7°C 47.1°F8.4°C 66% 7.0 mph ENE11.3 kmh ENE -- 29.97 in1014.9 mb 0.00 in0.0 mm 0.00 in0.0 mm 0.00 in0.0 mm
08:29 AM 58.4°F14.7°C 47.1°F8.4°C 66% 8.0 mph NE12.9 kmh NE -- 29.97 in1014.9 mb 0.00 in0.0 mm 0.00 in0.0 mm 0.00 in0.0 mm
08:30 AM 58.4°F14.7°C 47.9°F8.8°C 68% 8.0 mph E12.9 kmh E -- 29.97 in1014.9 mb 0.00 in0.0 mm 0.00 in0.0 mm 0.00 in0.0 mm
08:31 AM 58.8°F14.9°C 47.4°F8.6°C 66% 8.0 mph E12.9 kmh E -- 29.97 in1014.9 mb 0.00 in0.0 mm 0.00 in0.0 mm 0.00 in0.0 mm
08:32 AM 58.5°F14.7°C 47.9°F8.8°C 68% 7.0 mph ESE11.3 kmh ESE -- 29.97 in1014.9 mb 0.00 in0.0 mm 0.00 in0.0 mm 0.00 in0.0 mm
08:33 AM 58.5°F14.7°C 47.9°F8.8°C 68% 6.0 mph E9.7 kmh E -- 29.96 in1014.6 mb 0.00 in0.0 mm 0.00 in0.0 mm 0.00 in0.0 mm
08:34 AM 59.0°F15.0°C 48.4°F9.1°C 68% 8.0 mph E12.9 kmh E -- 29.96 in1014.6 mb 0.00 in0.0 mm 0.00 in0.0 mm 0.00 in0.0 mm
08:35 AM 59.0°F15.0°C 48.4°F9.1°C 68% 7.0 mph NE11.3 kmh NE -- 29.97 in1014.9 mb 0.00 in0.0 mm 0.00 in0.0 mm 0.00 in0.0 mm
08:36 AM 59.0°F15.0°C 48.4°F9.1°C 68% 8.0 mph E12.9 kmh E -- 29.97 in1014.9 mb 0.00 in0.0 mm 0.00 in0.0 mm 0.00 in0.0 mm
08:37 AM 59.0°F15.0°C 47.6°F8.7°C 66% 6.0 mph E9.7 kmh E -- 29.96 in1014.6 mb 0.00 in0.0 mm 0.00 in0.0 mm 0.00 in0.0 mm
08:38 AM 59.0°F15.0°C 48.4°F9.1°C 68% 10.0 mph E16.1 kmh E -- 29.97 in1014.9 mb 0.00 in0.0 mm 0.00 in0.0 mm 0.00 in0.0 mm
08:39 AM 59.2°F15.1°C 48.5°F9.2°C 68% 9.0 mph ENE14.5 kmh ENE -- 29.97 in1014.9 mb 0.00 in0.0 mm 0.00 in0.0 mm 0.00 in0.0 mm
08:40 AM 59.2°F15.1°C 48.5°F9.2°C 68% 8.0 mph E12.9 kmh E -- 29.97 in1014.9 mb 0.00 in0.0 mm 0.00 in0.0 mm 0.00 in0.0 mm
08:41 AM 59.2°F15.1°C 48.5°F9.2°C 68% 7.0 mph ESE11.3 kmh ESE -- 29.96 in1014.6 mb 0.00 in0.0 mm 0.00 in0.0 mm 0.00 in0.0 mm
08:42 AM 59.2°F15.1°C 49.3°F9.6°C 70% 10.0 mph SE16.1 kmh SE -- 29.96 in1014.6 mb 0.00 in0.0 mm 0.00 in0.0 mm 0.00 in0.0 mm
08:43 AM 59.3°F15.2°C 49.5°F9.7°C 70% 7.0 mph ESE11.3 kmh ESE -- 29.96 in1014.6 mb 0.00 in0.0 mm 0.00 in0.0 mm 0.00 in0.0 mm
08:44 AM 59.3°F15.2°C 49.5°F9.7°C 70% 8.0 mph ENE12.9 kmh ENE -- 29.97 in1014.9 mb 0.00 in0.0 mm 0.00 in0.0 mm 0.00 in0.0 mm
08:45 AM 59.2°F15.1°C 49.3°F9.6°C 70% 8.0 mph ESE12.9 kmh ESE -- 29.97 in1014.9 mb 0.00 in0.0 mm 0.00 in0.0 mm 0.00 in0.0 mm
08:46 AM 59.2°F15.1°C 49.3°F9.6°C 70% 6.0 mph ENE9.7 kmh ENE -- 29.97 in1014.9 mb 0.00 in0.0 mm 0.00 in0.0 mm 0.00 in0.0 mm
08:47 AM 59.2°F15.1°C 49.3°F9.6°C 70% 7.0 mph E11.3 kmh E -- 29.97 in1014.9 mb 0.00 in0.0 mm 0.00 in0.0 mm 0.00 in0.0 mm
08:48 AM 59.3°F15.2°C 49.5°F9.7°C 70% 7.0 mph E11.3 kmh E -- 29.97 in1014.9 mb 0.00 in0.0 mm 0.00 in0.0 mm 0.00 in0.0 mm
08:49 AM 59.2°F15.1°C 49.3°F9.6°C 70% 8.0 mph ESE12.9 kmh ESE -- 29.97 in1014.9 mb 0.00 in0.0 mm 0.00 in0.0 mm 0.00 in0.0 mm
08:51 AM 58.8°F14.9°C 49.0°F9.4°C 70% 6.0 mph NE9.7 kmh NE -- 29.97 in1014.9 mb 0.00 in0.0 mm 0.00 in0.0 mm 0.00 in0.0 mm
08:52 AM 59.0°F15.0°C 49.1°F9.5°C 70% 7.0 mph E11.3 kmh E -- 29.97 in1014.9 mb 0.00 in0.0 mm 0.00 in0.0 mm 0.00 in0.0 mm
08:53 AM 59.2°F15.1°C 49.3°F9.6°C 70% 7.0 mph SE11.3 kmh SE -- 29.97 in1014.9 mb 0.00 in0.0 mm 0.00 in0.0 mm 0.00 in0.0 mm
08:54 AM 59.4°F15.2°C 49.5°F9.7°C 70% 7.0 mph E11.3 kmh E -- 29.97 in1014.9 mb 0.00 in0.0 mm 0.00 in0.0 mm 0.00 in0.0 mm
08:55 AM 59.4°F15.2°C 49.5°F9.7°C 70% 8.0 mph ESE12.9 kmh ESE -- 29.97 in1014.9 mb 0.00 in0.0 mm 0.00 in0.0 mm 0.00 in0.0 mm
08:56 AM 59.7°F15.4°C 49.5°F9.7°C 69% 11.0 mph ESE17.7 kmh ESE -- 29.97 in1014.9 mb 0.00 in0.0 mm 0.00 in0.0 mm 0.00 in0.0 mm
08:57 AM 59.3°F15.2°C 48.7°F9.3°C 68% 5.0 mph NE8.0 kmh NE -- 29.97 in1014.9 mb 0.00 in0.0 mm 0.00 in0.0 mm 0.00 in0.0 mm
08:58 AM 59.3°F15.2°C 49.1°F9.5°C 69% 9.0 mph ESE14.5 kmh ESE -- 29.97 in1014.9 mb 0.00 in0.0 mm 0.00 in0.0 mm 0.00 in0.0 mm
08:59 AM 59.7°F15.4°C 49.1°F9.5°C 68% 6.0 mph E9.7 kmh E -- 29.97 in1014.9 mb 0.00 in0.0 mm 0.00 in0.0 mm 0.00 in0.0 mm
09:00 AM 59.7°F15.4°C 49.1°F9.5°C 68% 10.0 mph E16.1 kmh E -- 29.98 in1015.2 mb 0.00 in0.0 mm 0.00 in0.0 mm 0.00 in0.0 mm
09:01 AM 59.7°F15.4°C 49.1°F9.5°C 68% 7.0 mph E11.3 kmh E -- 29.98 in1015.2 mb 0.00 in0.0 mm 0.00 in0.0 mm 0.00 in0.0 mm
09:02 AM 59.3°F15.2°C 48.7°F9.3°C 68% 6.0 mph ESE9.7 kmh ESE -- 29.98 in1015.2 mb 0.00 in0.0 mm 0.00 in0.0 mm 0.00 in0.0 mm
09:03 AM 59.4°F15.2°C 48.7°F9.3°C 68% 6.0 mph E9.7 kmh E -- 29.97 in1014.9 mb 0.00 in0.0 mm 0.00 in0.0 mm 0.00 in0.0 mm
09:04 AM 59.4°F15.2°C 48.7°F9.3°C 68% 7.0 mph E11.3 kmh E -- 29.97 in1014.9 mb 0.00 in0.0 mm 0.00 in0.0 mm 0.00 in0.0 mm
09:05 AM 59.7°F15.4°C 48.3°F9.1°C 66% 9.0 mph ESE14.5 kmh ESE -- 29.97 in1014.9 mb 0.00 in0.0 mm 0.00 in0.0 mm 0.00 in0.0 mm
09:06 AM 59.7°F15.4°C 48.3°F9.1°C 66% 7.0 mph ESE11.3 kmh ESE -- 29.97 in1014.9 mb 0.00 in0.0 mm 0.00 in0.0 mm 0.00 in0.0 mm
09:07 AM 59.9°F15.5°C 48.4°F9.1°C 66% 7.0 mph NE11.3 kmh NE -- 29.97 in1014.9 mb 0.00 in0.0 mm 0.00 in0.0 mm 0.00 in0.0 mm
09:08 AM 60.0°F15.6°C 48.2°F9.0°C 65% 7.0 mph E11.3 kmh E -- 29.97 in1014.9 mb 0.00 in0.0 mm 0.00 in0.0 mm 0.00 in0.0 mm
09:09 AM 60.0°F15.6°C 48.2°F9.0°C 65% 10.0 mph E16.1 kmh E -- 29.97 in1014.9 mb 0.00 in0.0 mm 0.00 in0.0 mm 0.00 in0.0 mm
09:10 AM 59.9°F15.5°C 48.0°F8.9°C 65% 7.0 mph E11.3 kmh E -- 29.97 in1014.9 mb 0.00 in0.0 mm 0.00 in0.0 mm 0.00 in0.0 mm
09:12 AM 59.9°F15.5°C 48.0°F8.9°C 65% 7.0 mph NE11.3 kmh NE -- 29.97 in1014.9 mb 0.00 in0.0 mm 0.00 in0.0 mm 0.00 in0.0 mm
09:13 AM 60.0°F15.6°C 48.6°F9.2°C 66% 9.0 mph E14.5 kmh E -- 29.97 in1014.9 mb 0.00 in0.0 mm 0.00 in0.0 mm 0.00 in0.0 mm
09:14 AM 60.0°F15.6°C 48.2°F9.0°C 65% 7.0 mph ESE11.3 kmh ESE -- 29.97 in1014.9 mb 0.00 in0.0 mm 0.00 in0.0 mm 0.00 in0.0 mm
09:15 AM 60.2°F15.7°C 48.8°F9.3°C 66% 6.0 mph ENE9.7 kmh ENE -- 29.97 in1014.9 mb 0.00 in0.0 mm 0.00 in0.0 mm 0.00 in0.0 mm
09:16 AM 60.3°F15.7°C 48.8°F9.3°C 66% 6.0 mph NE9.7 kmh NE -- 29.97 in1014.9 mb 0.00 in0.0 mm 0.00 in0.0 mm 0.00 in0.0 mm
09:17 AM 60.5°F15.8°C 48.5°F9.2°C 65% 6.0 mph ESE9.7 kmh ESE -- 29.97 in1014.9 mb 0.00 in0.0 mm 0.00 in0.0 mm 0.00 in0.0 mm
09:18 AM 60.7°F15.9°C 48.7°F9.3°C 65% 9.0 mph ESE14.5 kmh ESE -- 29.97 in1014.9 mb 0.00 in0.0 mm 0.00 in0.0 mm 0.00 in0.0 mm
09:19 AM 60.7°F15.9°C 48.7°F9.3°C 65% 8.0 mph E12.9 kmh E -- 29.97 in1014.9 mb 0.00 in0.0 mm 0.00 in0.0 mm 0.00 in0.0 mm
09:20 AM 60.7°F15.9°C 48.7°F9.3°C 65% 9.0 mph ESE14.5 kmh ESE -- 29.97 in1014.9 mb 0.00 in0.0 mm 0.00 in0.0 mm 0.00 in0.0 mm
09:21 AM 60.7°F15.9°C 48.7°F9.3°C 65% 10.0 mph ESE16.1 kmh ESE -- 29.97 in1014.9 mb 0.00 in0.0 mm 0.00 in0.0 mm 0.00 in0.0 mm
09:22 AM 60.7°F15.9°C 48.7°F9.3°C 65% 6.0 mph ESE9.7 kmh ESE -- 29.97 in1014.9 mb 0.00 in0.0 mm 0.00 in0.0 mm 0.00 in0.0 mm
09:23 AM 60.7°F15.9°C 48.7°F9.3°C 65% 11.0 mph ESE17.7 kmh ESE -- 29.97 in1014.9 mb 0.00 in0.0 mm 0.00 in0.0 mm 0.00 in0.0 mm
09:24 AM 60.7°F15.9°C 48.7°F9.3°C 65% 7.0 mph ENE11.3 kmh ENE -- 29.97 in1014.9 mb 0.00 in0.0 mm 0.00 in0.0 mm 0.00 in0.0 mm
09:25 AM 60.5°F15.8°C 48.5°F9.2°C 65% 7.0 mph NE11.3 kmh NE -- 29.97 in1014.9 mb 0.00 in0.0 mm 0.00 in0.0 mm 0.00 in0.0 mm
09:26 AM 60.7°F15.9°C 48.7°F9.3°C 65% 7.0 mph NNE11.3 kmh NNE -- 29.97 in1014.9 mb 0.00 in0.0 mm 0.00 in0.0 mm 0.00 in0.0 mm
09:27 AM 61.0°F16.1°C 49.0°F9.4°C 65% 9.0 mph ESE14.5 kmh ESE -- 29.97 in1014.9 mb 0.00 in0.0 mm 0.00 in0.0 mm 0.00 in0.0 mm
09:28 AM 61.0°F16.1°C 49.0°F9.4°C 65% 9.0 mph ENE14.5 kmh ENE -- 29.97 in1014.9 mb 0.00 in0.0 mm 0.00 in0.0 mm 0.00 in0.0 mm
09:29 AM 61.1°F16.2°C 48.4°F9.1°C 63% 5.0 mph E8.0 kmh E -- 29.97 in1014.9 mb 0.00 in0.0 mm 0.00 in0.0 mm 0.00 in0.0 mm
09:30 AM 61.3°F16.3°C 48.5°F9.2°C 63% 7.0 mph E11.3 kmh E -- 29.97 in1014.9 mb 0.00 in0.0 mm 0.00 in0.0 mm 0.00 in0.0 mm
09:31 AM 61.3°F16.3°C 48.5°F9.2°C 63% 6.0 mph NE9.7 kmh NE -- 29.97 in1014.9 mb 0.00 in0.0 mm 0.00 in0.0 mm 0.00 in0.0 mm
09:32 AM 61.3°F16.3°C 48.5°F9.2°C 63% 7.0 mph ESE11.3 kmh ESE -- 29.97 in1014.9 mb 0.00 in0.0 mm 0.00 in0.0 mm 0.00 in0.0 mm
09:33 AM 61.5°F16.4°C 48.7°F9.3°C 63% 8.0 mph E12.9 kmh E -- 29.97 in1014.9 mb 0.00 in0.0 mm 0.00 in0.0 mm 0.00 in0.0 mm
09:34 AM 61.7°F16.5°C 48.9°F9.4°C 63% 8.0 mph ESE12.9 kmh ESE -- 29.97 in1014.9 mb 0.00 in0.0 mm 0.00 in0.0 mm 0.00 in0.0 mm
09:35 AM 61.7°F16.5°C 48.9°F9.4°C 63% 7.0 mph ENE11.3 kmh ENE -- 29.97 in1014.9 mb 0.00 in0.0 mm 0.00 in0.0 mm 0.00 in0.0 mm
09:36 AM 61.3°F16.3°C 48.5°F9.2°C 63% 6.0 mph NE9.7 kmh NE -- 29.97 in1014.9 mb 0.00 in0.0 mm 0.00 in0.0 mm 0.00 in0.0 mm
09:37 AM 61.3°F16.3°C 48.5°F9.2°C 63% 6.0 mph ENE9.7 kmh ENE -- 29.97 in1014.9 mb 0.00 in0.0 mm 0.00 in0.0 mm 0.00 in0.0 mm
09:38 AM 61.7°F16.5°C 48.9°F9.4°C 63% 8.0 mph E12.9 kmh E -- 29.97 in1014.9 mb 0.00 in0.0 mm 0.00 in0.0 mm 0.00 in0.0 mm
09:39 AM 61.9°F16.6°C 49.1°F9.5°C 63% 9.0 mph ESE14.5 kmh ESE -- 29.97 in1014.9 mb 0.00 in0.0 mm 0.00 in0.0 mm 0.00 in0.0 mm
09:40 AM 61.9°F16.6°C 48.2°F9.0°C 61% 8.0 mph E12.9 kmh E -- 29.97 in1014.9 mb 0.00 in0.0 mm 0.00 in0.0 mm 0.00 in0.0 mm
09:41 AM 62.1°F16.7°C 48.4°F9.1°C 61% 8.0 mph ENE12.9 kmh ENE -- 29.97 in1014.9 mb 0.00 in0.0 mm 0.00 in0.0 mm 0.00 in0.0 mm
09:42 AM 62.1°F16.7°C 48.4°F9.1°C 61% 8.0 mph E12.9 kmh E -- 29.97 in1014.9 mb 0.00 in0.0 mm 0.00 in0.0 mm 0.00 in0.0 mm
09:43 AM 62.1°F16.7°C 48.4°F9.1°C 61% 7.0 mph ESE11.3 kmh ESE -- 29.97 in1014.9 mb 0.00 in0.0 mm 0.00 in0.0 mm 0.00 in0.0 mm
09:44 AM 62.1°F16.7°C 48.4°F9.1°C 61% 9.0 mph ESE14.5 kmh ESE -- 29.97 in1014.9 mb 0.00 in0.0 mm 0.00 in0.0 mm 0.00 in0.0 mm
09:45 AM 62.2°F16.8°C 48.1°F8.9°C 60% 7.0 mph E11.3 kmh E -- 29.97 in1014.9 mb 0.00 in0.0 mm 0.00 in0.0 mm 0.00 in0.0 mm
09:46 AM 62.1°F16.7°C 48.4°F9.1°C 61% 3.0 mph E4.8 kmh E -- 29.97 in1014.9 mb 0.00 in0.0 mm 0.00 in0.0 mm 0.00 in0.0 mm
09:47 AM 61.9°F16.6°C 49.1°F9.5°C 63% 5.0 mph ENE8.0 kmh ENE -- 29.97 in1014.9 mb 0.00 in0.0 mm 0.00 in0.0 mm 0.00 in0.0 mm
09:48 AM 62.4°F16.9°C 48.7°F9.3°C 61% 7.0 mph NE11.3 kmh NE -- 29.97 in1014.9 mb 0.00 in0.0 mm 0.00 in0.0 mm 0.00 in0.0 mm
09:49 AM 62.7°F17.1°C 49.0°F9.4°C 61% 10.0 mph ESE16.1 kmh ESE -- 29.97 in1014.9 mb 0.00 in0.0 mm 0.00 in0.0 mm 0.00 in0.0 mm
09:50 AM 63.0°F17.2°C 48.8°F9.3°C 60% 7.0 mph ESE11.3 kmh ESE -- 29.97 in1014.9 mb 0.00 in0.0 mm 0.00 in0.0 mm 0.00 in0.0 mm
09:51 AM 62.1°F16.7°C 49.2°F9.6°C 63% 4.0 mph ESE6.4 kmh ESE -- 29.97 in1014.9 mb 0.00 in0.0 mm 0.00 in0.0 mm 0.00 in0.0 mm
09:52 AM 62.1°F16.7°C 49.2°F9.6°C 63% 10.0 mph ESE16.1 kmh ESE -- 29.97 in1014.9 mb 0.00 in0.0 mm 0.00 in0.0 mm 0.00 in0.0 mm
09:53 AM 63.0°F17.2°C 49.2°F9.6°C 61% 7.0 mph ESE11.3 kmh ESE -- 29.97 in1014.9 mb 0.00 in0.0 mm 0.00 in0.0 mm 0.00 in0.0 mm
09:54 AM 63.0°F17.2°C 48.8°F9.3°C 60% 6.0 mph ESE9.7 kmh ESE -- 29.97 in1014.9 mb 0.00 in0.0 mm 0.00 in0.0 mm 0.00 in0.0 mm
09:55 AM 63.0°F17.2°C 48.3°F9.1°C 59% 5.0 mph E8.0 kmh E -- 29.97 in1014.9 mb 0.00 in0.0 mm 0.00 in0.0 mm 0.00 in0.0 mm
09:56 AM 63.0°F17.2°C 48.3°F9.1°C 59% 6.0 mph E9.7 kmh E -- 29.97 in1014.9 mb 0.00 in0.0 mm 0.00 in0.0 mm 0.00 in0.0 mm
09:57 AM 63.2°F17.3°C 48.5°F9.2°C 59% 12.0 mph ENE19.3 kmh ENE -- 29.97 in1014.9 mb 0.00 in0.0 mm 0.00 in0.0 mm 0.00 in0.0 mm
09:58 AM 63.4°F17.4°C 48.2°F9.0°C 58% 9.0 mph ESE14.5 kmh ESE -- 29.97 in1014.9 mb 0.00 in0.0 mm 0.00 in0.0 mm 0.00 in0.0 mm
09:59 AM 63.2°F17.3°C 48.5°F9.2°C 59% 7.0 mph ESE11.3 kmh ESE -- 29.97 in1014.9 mb 0.00 in0.0 mm 0.00 in0.0 mm 0.00 in0.0 mm
10:00 AM 63.2°F17.3°C 48.5°F9.2°C 59% 5.0 mph ESE8.0 kmh ESE -- 29.97 in1014.9 mb 0.00 in0.0 mm 0.00 in0.0 mm 0.00 in0.0 mm
10:01 AM 63.0°F17.2°C 48.3°F9.1°C 59% 6.0 mph ESE9.7 kmh ESE -- 29.97 in1014.9 mb 0.00 in0.0 mm 0.00 in0.0 mm 0.00 in0.0 mm
10:02 AM 63.0°F17.2°C 48.8°F9.3°C 60% 7.0 mph ESE11.3 kmh ESE -- 29.97 in1014.9 mb 0.00 in0.0 mm 0.00 in0.0 mm 0.00 in0.0 mm
10:03 AM 63.0°F17.2°C 48.8°F9.3°C 60% 8.0 mph NE12.9 kmh NE -- 29.97 in1014.9 mb 0.00 in0.0 mm 0.00 in0.0 mm 0.00 in0.0 mm
10:04 AM 63.9°F17.7°C 48.7°F9.3°C 58% 10.0 mph ESE16.1 kmh ESE -- 29.97 in1014.9 mb 0.00 in0.0 mm 0.00 in0.0 mm 0.00 in0.0 mm
10:05 AM 64.1°F17.8°C 47.9°F8.8°C 56% 9.0 mph SE14.5 kmh SE -- 29.97 in1014.9 mb 0.00 in0.0 mm 0.00 in0.0 mm 0.00 in0.0 mm
10:06 AM 64.1°F17.8°C 47.9°F8.8°C 56% 8.0 mph ESE12.9 kmh ESE -- 29.97 in1014.9 mb 0.00 in0.0 mm 0.00 in0.0 mm 0.00 in0.0 mm
10:07 AM 64.1°F17.8°C 48.9°F9.4°C 58% 11.0 mph SE17.7 kmh SE -- 29.97 in1014.9 mb 0.00 in0.0 mm 0.00 in0.0 mm 0.00 in0.0 mm
10:08 AM 64.1°F17.8°C 48.9°F9.4°C 58% 8.0 mph ESE12.9 kmh ESE -- 29.97 in1014.9 mb 0.00 in0.0 mm 0.00 in0.0 mm 0.00 in0.0 mm
10:09 AM 63.4°F17.4°C 48.2°F9.0°C 58% 8.0 mph ESE12.9 kmh ESE -- 29.97 in1014.9 mb 0.00 in0.0 mm 0.00 in0.0 mm 0.00 in0.0 mm
10:10 AM 63.6°F17.6°C 47.6°F8.7°C 56% 7.0 mph E11.3 kmh E -- 29.97 in1014.9 mb 0.00 in0.0 mm 0.00 in0.0 mm 0.00 in0.0 mm
10:11 AM 63.9°F17.7°C 47.3°F8.5°C 55% 4.0 mph E6.4 kmh E -- 29.97 in1014.9 mb 0.00 in0.0 mm 0.00 in0.0 mm 0.00 in0.0 mm
10:12 AM 63.9°F17.7°C 47.8°F8.8°C 56% 6.0 mph E9.7 kmh E -- 29.97 in1014.9 mb 0.00 in0.0 mm 0.00 in0.0 mm 0.00 in0.0 mm
10:13 AM 64.1°F17.8°C 47.9°F8.8°C 56% 8.0 mph ESE12.9 kmh ESE -- 29.97 in1014.9 mb 0.00 in0.0 mm 0.00 in0.0 mm 0.00 in0.0 mm
10:14 AM 64.1°F17.8°C 47.9°F8.8°C 56% 8.0 mph ESE12.9 kmh ESE -- 29.98 in1015.2 mb 0.00 in0.0 mm 0.00 in0.0 mm 0.00 in0.0 mm
10:15 AM 63.9°F17.7°C 47.8°F8.8°C 56% 8.0 mph ESE12.9 kmh ESE -- 29.98 in1015.2 mb 0.00 in0.0 mm 0.00 in0.0 mm 0.00 in0.0 mm
10:16 AM 63.9°F17.7°C 47.8°F8.8°C 56% 7.0 mph ESE11.3 kmh ESE -- 29.98 in1015.2 mb 0.00 in0.0 mm 0.00 in0.0 mm 0.00 in0.0 mm
10:17 AM 63.9°F17.7°C 47.8°F8.8°C 56% 10.0 mph ESE16.1 kmh ESE -- 29.97 in1014.9 mb 0.00 in0.0 mm 0.00 in0.0 mm 0.00 in0.0 mm
10:18 AM 64.8°F18.2°C 48.1°F8.9°C 55% 10.0 mph ESE16.1 kmh ESE -- 29.97 in1014.9 mb 0.00 in0.0 mm 0.00 in0.0 mm 0.00 in0.0 mm
10:19 AM 63.9°F17.7°C 48.7°F9.3°C 58% 5.0 mph ESE8.0 kmh ESE -- 29.97 in1014.9 mb 0.00 in0.0 mm 0.00 in0.0 mm 0.00 in0.0 mm
10:20 AM 63.9°F17.7°C 48.7°F9.3°C 58% 5.0 mph ESE8.0 kmh ESE -- 29.98 in1015.2 mb 0.00 in0.0 mm 0.00 in0.0 mm 0.00 in0.0 mm
10:21 AM 63.2°F17.3°C 48.5°F9.2°C 59% 5.0 mph SE8.0 kmh SE -- 29.97 in1014.9 mb 0.00 in0.0 mm 0.00 in0.0 mm 0.00 in0.0 mm
10:22 AM 62.7°F17.1°C 48.6°F9.2°C 60% 5.0 mph SE8.0 kmh SE -- 29.97 in1014.9 mb 0.00 in0.0 mm 0.00 in0.0 mm 0.00 in0.0 mm
10:23 AM 63.2°F17.3°C 48.5°F9.2°C 59% 6.0 mph E9.7 kmh E -- 29.97 in1014.9 mb 0.00 in0.0 mm 0.00 in0.0 mm 0.00 in0.0 mm
10:24 AM 64.1°F17.8°C 49.3°F9.6°C 59% 6.0 mph SE9.7 kmh SE -- 29.97 in1014.9 mb 0.00 in0.0 mm 0.00 in0.0 mm 0.00 in0.0 mm
10:25 AM 64.6°F18.1°C 49.8°F9.9°C 59% 8.0 mph SE12.9 kmh SE -- 29.97 in1014.9 mb 0.00 in0.0 mm 0.00 in0.0 mm 0.00 in0.0 mm
10:26 AM 65.0°F18.3°C 49.7°F9.8°C 58% 8.0 mph ESE12.9 kmh ESE -- 29.97 in1014.9 mb 0.00 in0.0 mm 0.00 in0.0 mm 0.00 in0.0 mm
10:27 AM 64.6°F18.1°C 49.8°F9.9°C 59% 10.0 mph SE16.1 kmh SE -- 29.97 in1014.9 mb 0.00 in0.0 mm 0.00 in0.0 mm 0.00 in0.0 mm
10:28 AM 64.9°F18.3°C 49.7°F9.8°C 58% 10.0 mph ESE16.1 kmh ESE -- 29.97 in1014.9 mb 0.00 in0.0 mm 0.00 in0.0 mm 0.00 in0.0 mm
10:29 AM 65.2°F18.4°C 48.9°F9.4°C 56% 9.0 mph ESE14.5 kmh ESE -- 29.97 in1014.9 mb 0.00 in0.0 mm 0.00 in0.0 mm 0.00 in0.0 mm
10:30 AM 65.2°F18.4°C 48.5°F9.2°C 55% 11.0 mph SSE17.7 kmh SSE -- 29.97 in1014.9 mb 0.00 in0.0 mm 0.00 in0.0 mm 0.00 in0.0 mm
10:31 AM 65.2°F18.4°C 48.9°F9.4°C 56% 10.0 mph SE16.1 kmh SE -- 29.97 in1014.9 mb 0.00 in0.0 mm 0.00 in0.0 mm 0.00 in0.0 mm
10:32 AM 65.5°F18.6°C 50.2°F10.1°C 58% 8.0 mph SE12.9 kmh SE -- 29.97 in1014.9 mb 0.00 in0.0 mm 0.00 in0.0 mm 0.00 in0.0 mm
10:33 AM 65.0°F18.3°C 49.7°F9.8°C 58% 9.0 mph SSE14.5 kmh SSE -- 29.97 in1014.9 mb 0.00 in0.0 mm 0.00 in0.0 mm 0.00 in0.0 mm
10:34 AM 64.9°F18.3°C 50.2°F10.1°C 59% 10.0 mph SSE16.1 kmh SSE -- 29.97 in1014.9 mb 0.00 in0.0 mm 0.00 in0.0 mm 0.00 in0.0 mm
10:35 AM 65.2°F18.4°C 50.4°F10.2°C 59% 9.0 mph SSE14.5 kmh SSE -- 29.96 in1014.6 mb 0.00 in0.0 mm 0.00 in0.0 mm 0.00 in0.0 mm
10:36 AM 64.1°F17.8°C 49.3°F9.6°C 59% 10.0 mph SSE16.1 kmh SSE -- 29.96 in1014.6 mb 0.00 in0.0 mm 0.00 in0.0 mm 0.00 in0.0 mm
10:37 AM 63.6°F17.6°C 49.0°F9.4°C 59% 7.0 mph ESE11.3 kmh ESE -- 29.97 in1014.9 mb 0.00 in0.0 mm 0.00 in0.0 mm 0.00 in0.0 mm
10:38 AM 63.2°F17.3°C 48.5°F9.2°C 59% 6.0 mph ESE9.7 kmh ESE -- 29.97 in1014.9 mb 0.00 in0.0 mm 0.00 in0.0 mm 0.00 in0.0 mm
10:39 AM 62.4°F16.9°C 48.7°F9.3°C 61% 6.0 mph S9.7 kmh S -- 29.96 in1014.6 mb 0.00 in0.0 mm 0.00 in0.0 mm 0.00 in0.0 mm
10:40 AM 61.7°F16.5°C 48.0°F8.9°C 61% 7.0 mph SSE11.3 kmh SSE -- 29.96 in1014.6 mb 0.00 in0.0 mm 0.00 in0.0 mm 0.00 in0.0 mm
10:41 AM 61.7°F16.5°C 48.9°F9.4°C 63% 8.0 mph ESE12.9 kmh ESE -- 29.96 in1014.6 mb 0.00 in0.0 mm 0.00 in0.0 mm 0.00 in0.0 mm
10:42 AM 62.1°F16.7°C 48.4°F9.1°C 61% 8.0 mph SSE12.9 kmh SSE -- 29.97 in1014.9 mb 0.00 in0.0 mm 0.00 in0.0 mm 0.00 in0.0 mm
10:43 AM 62.1°F16.7°C 48.4°F9.1°C 61% 7.0 mph SE11.3 kmh SE -- 29.97 in1014.9 mb 0.00 in0.0 mm 0.00 in0.0 mm 0.00 in0.0 mm
10:44 AM 63.4°F17.4°C 49.6°F9.8°C 61% 13.0 mph ESE20.9 kmh ESE -- 29.97 in1014.9 mb 0.00 in0.0 mm 0.00 in0.0 mm 0.00 in0.0 mm
10:45 AM 64.4°F18.0°C 49.7°F9.8°C 59% 10.0 mph SE16.1 kmh SE -- 29.97 in1014.9 mb 0.00 in0.0 mm 0.00 in0.0 mm 0.00 in0.0 mm
10:46 AM 64.8°F18.2°C 50.0°F10.0°C 59% 11.0 mph ESE17.7 kmh ESE -- 29.97 in1014.9 mb 0.00 in0.0 mm 0.00 in0.0 mm 0.00 in0.0 mm
10:47 AM 65.6°F18.7°C 50.4°F10.2°C 58% 9.0 mph ESE14.5 kmh ESE -- 29.97 in1014.9 mb 0.00 in0.0 mm 0.00 in0.0 mm 0.00 in0.0 mm
10:48 AM 65.2°F18.4°C 50.4°F10.2°C 59% 8.0 mph SSE12.9 kmh SSE -- 29.97 in1014.9 mb 0.00 in0.0 mm 0.00 in0.0 mm 0.00 in0.0 mm
10:49 AM 64.8°F18.2°C 50.0°F10.0°C 59% 8.0 mph ESE12.9 kmh ESE -- 29.97 in1014.9 mb 0.00 in0.0 mm 0.00 in0.0 mm 0.00 in0.0 mm
10:50 AM 63.4°F17.4°C 49.1°F9.5°C 60% 7.0 mph ESE11.3 kmh ESE -- 29.97 in1014.9 mb 0.00 in0.0 mm 0.00 in0.0 mm 0.00 in0.0 mm
10:51 AM 62.2°F16.8°C 48.5°F9.2°C 61% 6.0 mph S9.7 kmh S -- 29.97 in1014.9 mb 0.00 in0.0 mm 0.00 in0.0 mm 0.00 in0.0 mm
10:52 AM 62.5°F16.9°C 49.6°F9.8°C 63% 11.0 mph ESE17.7 kmh ESE -- 29.97 in1014.9 mb 0.00 in0.0 mm 0.00 in0.0 mm 0.00 in0.0 mm
10:53 AM 63.4°F17.4°C 49.6°F9.8°C 61% 8.0 mph ESE12.9 kmh ESE -- 29.97 in1014.9 mb 0.00 in0.0 mm 0.00 in0.0 mm 0.00 in0.0 mm
10:54 AM 63.4°F17.4°C 49.6°F9.8°C 61% 9.0 mph ESE14.5 kmh ESE -- 29.97 in1014.9 mb 0.00 in0.0 mm 0.00 in0.0 mm 0.00 in0.0 mm
10:55 AM 63.0°F17.2°C 49.2°F9.6°C 61% 10.0 mph SE16.1 kmh SE -- 29.97 in1014.9 mb 0.00 in0.0 mm 0.00 in0.0 mm 0.00 in0.0 mm
10:56 AM 63.0°F17.2°C 49.2°F9.6°C 61% 6.0 mph S9.7 kmh S -- 29.97 in1014.9 mb 0.00 in0.0 mm 0.00 in0.0 mm 0.00 in0.0 mm
10:57 AM 62.7°F17.1°C 49.0°F9.4°C 61% 9.0 mph SE14.5 kmh SE -- 29.97 in1014.9 mb 0.00 in0.0 mm 0.00 in0.0 mm 0.00 in0.0 mm
10:58 AM 63.0°F17.2°C 49.2°F9.6°C 61% 6.0 mph ESE9.7 kmh ESE -- 29.97 in1014.9 mb 0.00 in0.0 mm 0.00 in0.0 mm 0.00 in0.0 mm
10:59 AM 63.0°F17.2°C 50.1°F10.1°C 63% 9.0 mph SSE14.5 kmh SSE -- 29.97 in1014.9 mb 0.00 in0.0 mm 0.00 in0.0 mm 0.00 in0.0 mm
11:00 AM 63.0°F17.2°C 50.1°F10.1°C 63% 11.0 mph SSE17.7 kmh SSE -- 29.97 in1014.9 mb 0.00 in0.0 mm 0.00 in0.0 mm 0.00 in0.0 mm
11:01 AM 63.0°F17.2°C 49.2°F9.6°C 61% 12.0 mph SSE19.3 kmh SSE -- 29.96 in1014.6 mb 0.00 in0.0 mm 0.00 in0.0 mm 0.00 in0.0 mm
11:02 AM 63.2°F17.3°C 49.4°F9.7°C 61% 7.0 mph SSE11.3 kmh SSE -- 29.97 in1014.9 mb 0.00 in0.0 mm 0.00 in0.0 mm 0.00 in0.0 mm
11:03 AM 64.1°F17.8°C 50.2°F10.1°C 61% 12.0 mph SSE19.3 kmh SSE -- 29.97 in1014.9 mb 0.00 in0.0 mm 0.00 in0.0 mm 0.00 in0.0 mm
11:04 AM 64.9°F18.3°C 50.6°F10.3°C 60% 12.0 mph SE19.3 kmh SE -- 29.97 in1014.9 mb 0.00 in0.0 mm 0.00 in0.0 mm 0.00 in0.0 mm
11:05 AM 64.4°F18.0°C 50.1°F10.1°C 60% 13.0 mph ESE20.9 kmh ESE -- 29.96 in1014.6 mb 0.00 in0.0 mm 0.00 in0.0 mm 0.00 in0.0 mm
11:06 AM 64.4°F18.0°C 50.1°F10.1°C 60% 7.0 mph SSE11.3 kmh SSE -- 29.97 in1014.9 mb 0.00 in0.0 mm 0.00 in0.0 mm 0.00 in0.0 mm
11:07 AM 63.9°F17.7°C 49.6°F9.8°C 60% 11.0 mph S17.7 kmh S -- 29.97 in1014.9 mb 0.00 in0.0 mm 0.00 in0.0 mm 0.00 in0.0 mm
11:08 AM 63.4°F17.4°C 49.6°F9.8°C 61% 9.0 mph SSE14.5 kmh SSE -- 29.97 in1014.9 mb 0.00 in0.0 mm 0.00 in0.0 mm 0.00 in0.0 mm
11:09 AM 63.0°F17.2°C 49.2°F9.6°C 61% 10.0 mph SSE16.1 kmh SSE -- 29.97 in1014.9 mb 0.00 in0.0 mm 0.00 in0.0 mm 0.00 in0.0 mm
11:10 AM 63.0°F17.2°C 50.1°F10.1°C 63% 9.0 mph SSE14.5 kmh SSE -- 29.97 in1014.9 mb 0.00 in0.0 mm 0.00 in0.0 mm 0.00 in0.0 mm
11:11 AM 63.6°F17.6°C 49.9°F9.9°C 61% 10.0 mph ESE16.1 kmh ESE -- 29.97 in1014.9 mb 0.00 in0.0 mm 0.00 in0.0 mm 0.00 in0.0 mm
11:12 AM 63.9°F17.7°C 50.1°F10.1°C 61% 9.0 mph ESE14.5 kmh ESE -- 29.97 in1014.9 mb 0.00 in0.0 mm 0.00 in0.0 mm 0.00 in0.0 mm
11:13 AM 63.6°F17.6°C 49.9°F9.9°C 61% 12.0 mph SSE19.3 kmh SSE -- 29.97 in1014.9 mb 0.00 in0.0 mm 0.00 in0.0 mm 0.00 in0.0 mm
11:14 AM 63.4°F17.4°C 49.6°F9.8°C 61% 12.0 mph SSE19.3 kmh SSE -- 29.97 in1014.9 mb 0.00 in0.0 mm 0.00 in0.0 mm 0.00 in0.0 mm
11:15 AM 62.2°F16.8°C 48.5°F9.2°C 61% 10.0 mph S16.1 kmh S -- 29.97 in1014.9 mb 0.00 in0.0 mm 0.00 in0.0 mm 0.00 in0.0 mm
11:16 AM 62.4°F16.9°C 49.6°F9.8°C 63% 9.0 mph SSE14.5 kmh SSE -- 29.97 in1014.9 mb 0.00 in0.0 mm 0.00 in0.0 mm 0.00 in0.0 mm
11:17 AM 63.0°F17.2°C 50.1°F10.1°C 63% 10.0 mph SSE16.1 kmh SSE -- 29.97 in1014.9 mb 0.00 in0.0 mm 0.00 in0.0 mm 0.00 in0.0 mm
11:18 AM 63.9°F17.7°C 50.1°F10.1°C 61% 11.0 mph S17.7 kmh S -- 29.97 in1014.9 mb 0.00 in0.0 mm 0.00 in0.0 mm 0.00 in0.0 mm
11:19 AM 64.1°F17.8°C 49.8°F9.9°C 60% 9.0 mph SSE14.5 kmh SSE -- 29.97 in1014.9 mb 0.00 in0.0 mm 0.00 in0.0 mm 0.00 in0.0 mm
11:20 AM 64.1°F17.8°C 49.8°F9.9°C 60% 8.0 mph SSE12.9 kmh SSE -- 29.97 in1014.9 mb 0.00 in0.0 mm 0.00 in0.0 mm 0.00 in0.0 mm
11:21 AM 65.2°F18.4°C 50.4°F10.2°C 59% 14.0 mph ESE22.5 kmh ESE -- 29.97 in1014.9 mb 0.00 in0.0 mm 0.00 in0.0 mm 0.00 in0.0 mm
11:22 AM 64.9°F18.3°C 49.7°F9.8°C 58% 10.0 mph ESE16.1 kmh ESE -- 29.97 in1014.9 mb 0.00 in0.0 mm 0.00 in0.0 mm 0.00 in0.0 mm
11:23 AM 64.4°F18.0°C 49.7°F9.8°C 59% 9.0 mph ESE14.5 kmh ESE -- 29.97 in1014.9 mb 0.00 in0.0 mm 0.00 in0.0 mm 0.00 in0.0 mm
11:24 AM 63.9°F17.7°C 50.1°F10.1°C 61% 10.0 mph SE16.1 kmh SE -- 29.97 in1014.9 mb 0.00 in0.0 mm 0.00 in0.0 mm 0.00 in0.0 mm
11:25 AM 63.6°F17.6°C 49.9°F9.9°C 61% 12.0 mph SE19.3 kmh SE -- 29.97 in1014.9 mb 0.00 in0.0 mm 0.00 in0.0 mm 0.00 in0.0 mm
11:26 AM 63.4°F17.4°C 49.6°F9.8°C 61% 9.0 mph SE14.5 kmh SE -- 29.97 in1014.9 mb 0.00 in0.0 mm 0.00 in0.0 mm 0.00 in0.0 mm
11:27 AM 63.9°F17.7°C 50.1°F10.1°C 61% 12.0 mph SSE19.3 kmh SSE -- 29.97 in1014.9 mb 0.00 in0.0 mm 0.00 in0.0 mm 0.00 in0.0 mm
11:28 AM 63.9°F17.7°C 50.1°F10.1°C 61% 7.0 mph SSE11.3 kmh SSE -- 29.97 in1014.9 mb 0.00 in0.0 mm 0.00 in0.0 mm 0.00 in0.0 mm
11:29 AM 63.9°F17.7°C 50.1°F10.1°C 61% 11.0 mph SE17.7 kmh SE -- 29.97 in1014.9 mb 0.00 in0.0 mm 0.00 in0.0 mm 0.00 in0.0 mm
11:30 AM 64.8°F18.2°C 50.9°F10.5°C 61% 10.0 mph SSE16.1 kmh SSE -- 29.97 in1014.9 mb 0.00 in0.0 mm 0.00 in0.0 mm 0.00 in0.0 mm
11:31 AM 64.8°F18.2°C 50.9°F10.5°C 61% 9.0 mph SSE14.5 kmh SSE -- 29.97 in1014.9 mb 0.00 in0.0 mm 0.00 in0.0 mm 0.00 in0.0 mm
11:32 AM 64.4°F18.0°C 50.6°F10.3°C 61% 10.0 mph SSE16.1 kmh SSE -- 29.97 in1014.9 mb 0.00 in0.0 mm 0.00 in0.0 mm 0.00 in0.0 mm
11:33 AM 64.6°F18.1°C 50.7°F10.4°C 61% 10.0 mph SE16.1 kmh SE -- 29.97 in1014.9 mb 0.00 in0.0 mm 0.00 in0.0 mm 0.00 in0.0 mm
11:34 AM 64.8°F18.2°C 50.0°F10.0°C 59% 12.0 mph ESE19.3 kmh ESE -- 29.97 in1014.9 mb 0.00 in0.0 mm 0.00 in0.0 mm 0.00 in0.0 mm
11:35 AM 64.4°F18.0°C 49.7°F9.8°C 59% 8.0 mph ESE12.9 kmh ESE -- 29.97 in1014.9 mb 0.00 in0.0 mm 0.00 in0.0 mm 0.00 in0.0 mm
11:36 AM 64.1°F17.8°C 50.2°F10.1°C 61% 9.0 mph SSE14.5 kmh SSE -- 29.97 in1014.9 mb 0.00 in0.0 mm 0.00 in0.0 mm 0.00 in0.0 mm
11:37 AM 64.9°F18.3°C 51.1°F10.6°C 61% 16.0 mph ESE25.7 kmh ESE -- 29.97 in1014.9 mb 0.00 in0.0 mm 0.00 in0.0 mm 0.00 in0.0 mm
11:38 AM 65.2°F18.4°C 50.8°F10.4°C 60% 8.0 mph ESE12.9 kmh ESE -- 29.97 in1014.9 mb 0.00 in0.0 mm 0.00 in0.0 mm 0.00 in0.0 mm
11:39 AM 65.9°F18.8°C 51.0°F10.6°C 59% 11.0 mph ESE17.7 kmh ESE -- 29.97 in1014.9 mb 0.00 in0.0 mm 0.00 in0.0 mm 0.00 in0.0 mm
11:40 AM 66.9°F19.4°C 50.6°F10.3°C 56% 16.0 mph ESE25.7 kmh ESE -- 29.97 in1014.9 mb 0.00 in0.0 mm 0.00 in0.0 mm 0.00 in0.0 mm
11:41 AM 66.6°F19.2°C 50.3°F10.2°C 56% 15.0 mph SE24.1 kmh SE -- 29.97 in1014.9 mb 0.00 in0.0 mm 0.00 in0.0 mm 0.00 in0.0 mm
11:42 AM 65.9°F18.8°C 50.6°F10.3°C 58% 14.0 mph ESE22.5 kmh ESE -- 29.97 in1014.9 mb 0.00 in0.0 mm 0.00 in0.0 mm 0.00 in0.0 mm
11:43 AM 64.9°F18.3°C 50.2°F10.1°C 59% 10.0 mph ESE16.1 kmh ESE -- 29.97 in1014.9 mb 0.00 in0.0 mm 0.00 in0.0 mm 0.00 in0.0 mm
11:44 AM 64.6°F18.1°C 50.3°F10.2°C 60% 10.0 mph SSE16.1 kmh SSE -- 29.97 in1014.9 mb 0.00 in0.0 mm 0.00 in0.0 mm 0.00 in0.0 mm
11:45 AM 63.4°F17.4°C 49.6°F9.8°C 61% 6.0 mph S9.7 kmh S -- 29.97 in1014.9 mb 0.00 in0.0 mm 0.00 in0.0 mm 0.00 in0.0 mm
11:46 AM 63.2°F17.3°C 49.4°F9.7°C 61% 10.0 mph SE16.1 kmh SE -- 29.97 in1014.9 mb 0.00 in0.0 mm 0.00 in0.0 mm 0.00 in0.0 mm
11:47 AM 63.4°F17.4°C 49.6°F9.8°C 61% 10.0 mph SSE16.1 kmh SSE -- 29.96 in1014.6 mb 0.00 in0.0 mm 0.00 in0.0 mm 0.00 in0.0 mm
11:48 AM 64.9°F18.3°C 50.6°F10.3°C 60% 14.0 mph ESE22.5 kmh ESE -- 29.96 in1014.6 mb 0.00 in0.0 mm 0.00 in0.0 mm 0.00 in0.0 mm
11:49 AM 65.5°F18.6°C 51.1°F10.6°C 60% 13.0 mph SE20.9 kmh SE -- 29.97 in1014.9 mb 0.00 in0.0 mm 0.00 in0.0 mm 0.00 in0.0 mm
11:50 AM 64.8°F18.2°C 50.5°F10.3°C 60% 12.0 mph SSE19.3 kmh SSE -- 29.97 in1014.9 mb 0.00 in0.0 mm 0.00 in0.0 mm 0.00 in0.0 mm
11:51 AM 63.9°F17.7°C 50.1°F10.1°C 61% 8.0 mph SE12.9 kmh SE -- 29.97 in1014.9 mb 0.00 in0.0 mm 0.00 in0.0 mm 0.00 in0.0 mm
11:52 AM 63.9°F17.7°C 50.1°F10.1°C 61% 12.0 mph ESE19.3 kmh ESE -- 29.97 in1014.9 mb 0.00 in0.0 mm 0.00 in0.0 mm 0.00 in0.0 mm
11:53 AM 65.0°F18.3°C 50.2°F10.1°C 59% 10.0 mph SE16.1 kmh SE -- 29.97 in1014.9 mb 0.00 in0.0 mm 0.00 in0.0 mm 0.00 in0.0 mm
11:54 AM 65.2°F18.4°C 50.4°F10.2°C 59% 10.0 mph ESE16.1 kmh ESE -- 29.97 in1014.9 mb 0.00 in0.0 mm 0.00 in0.0 mm 0.00 in0.0 mm
11:55 AM 65.5°F18.6°C 51.1°F10.6°C 60% 9.0 mph SE14.5 kmh SE -- 29.97 in1014.9 mb 0.00 in0.0 mm 0.00 in0.0 mm 0.00 in0.0 mm
11:56 AM 66.4°F19.1°C 51.1°F10.6°C 58% 11.0 mph ESE17.7 kmh ESE -- 29.97 in1014.9 mb 0.00 in0.0 mm 0.00 in0.0 mm 0.00 in0.0 mm
11:57 AM 66.6°F19.2°C 51.2°F10.7°C 58% 10.0 mph SE16.1 kmh SE -- 29.97 in1014.9 mb 0.00 in0.0 mm 0.00 in0.0 mm 0.00 in0.0 mm
11:58 AM 65.9°F18.8°C 51.0°F10.6°C 59% 9.0 mph ESE14.5 kmh ESE -- 29.97 in1014.9 mb 0.00 in0.0 mm 0.00 in0.0 mm 0.00 in0.0 mm
11:59 AM 66.6°F19.2°C 51.7°F10.9°C 59% 9.0 mph ESE14.5 kmh ESE -- 29.97 in1014.9 mb 0.00 in0.0 mm 0.00 in0.0 mm 0.00 in0.0 mm
12:00 PM 66.5°F19.2°C 51.2°F10.7°C 58% 11.0 mph SSE17.7 kmh SSE -- 29.97 in1014.9 mb 0.00 in0.0 mm 0.00 in0.0 mm 0.00 in0.0 mm
12:01 PM 66.6°F19.2°C 51.2°F10.7°C 58% 11.0 mph ESE17.7 kmh ESE -- 29.97 in1014.9 mb 0.00 in0.0 mm 0.00 in0.0 mm 0.00 in0.0 mm
12:02 PM 67.3°F19.6°C 50.5°F10.3°C 55% 13.0 mph ESE20.9 kmh ESE -- 29.97 in1014.9 mb 0.00 in0.0 mm 0.00 in0.0 mm 0.00 in0.0 mm
12:03 PM 66.9°F19.4°C 50.6°F10.3°C 56% 11.0 mph E17.7 kmh E -- 29.97 in1014.9 mb 0.00 in0.0 mm 0.00 in0.0 mm 0.00 in0.0 mm
12:04 PM 66.9°F19.4°C 50.1°F10.1°C 55% 10.0 mph SE16.1 kmh SE -- 29.97 in1014.9 mb 0.00 in0.0 mm 0.00 in0.0 mm 0.00 in0.0 mm
12:05 PM 66.6°F19.2°C 50.3°F10.2°C 56% 8.0 mph SSE12.9 kmh SSE -- 29.97 in1014.9 mb 0.00 in0.0 mm 0.00 in0.0 mm 0.00 in0.0 mm
12:06 PM 66.4°F19.1°C 51.1°F10.6°C 58% 12.0 mph SE19.3 kmh SE -- 29.97 in1014.9 mb 0.00 in0.0 mm 0.00 in0.0 mm 0.00 in0.0 mm
12:07 PM 65.8°F18.8°C 51.0°F10.6°C 59% 11.0 mph SSE17.7 kmh SSE -- 29.97 in1014.9 mb 0.00 in0.0 mm 0.00 in0.0 mm 0.00 in0.0 mm
12:08 PM 65.9°F18.8°C 50.6°F10.3°C 58% 12.0 mph SE19.3 kmh SE -- 29.97 in1014.9 mb 0.00 in0.0 mm 0.00 in0.0 mm 0.00 in0.0 mm
12:09 PM 66.1°F18.9°C 50.7°F10.4°C 58% 9.0 mph SE14.5 kmh SE -- 29.97 in1014.9 mb 0.00 in0.0 mm 0.00 in0.0 mm 0.00 in0.0 mm
12:10 PM 65.8°F18.8°C 50.6°F10.3°C 58% 11.0 mph SSE17.7 kmh SSE -- 29.97 in1014.9 mb 0.00 in0.0 mm 0.00 in0.0 mm 0.00 in0.0 mm
12:11 PM 65.8°F18.8°C 51.0°F10.6°C 59% 9.0 mph ESE14.5 kmh ESE -- 29.97 in1014.9 mb 0.00 in0.0 mm 0.00 in0.0 mm 0.00 in0.0 mm
12:12 PM 65.5°F18.6°C 50.2°F10.1°C 58% 11.0 mph SE17.7 kmh SE -- 29.97 in1014.9 mb 0.00 in0.0 mm 0.00 in0.0 mm 0.00 in0.0 mm
12:13 PM 65.5°F18.6°C 50.2°F10.1°C 58% 8.0 mph ESE12.9 kmh ESE -- 29.97 in1014.9 mb 0.00 in0.0 mm 0.00 in0.0 mm 0.00 in0.0 mm
12:14 PM 65.5°F18.6°C 50.7°F10.4°C 59% 10.0 mph E16.1 kmh E -- 29.97 in1014.9 mb 0.00 in0.0 mm 0.00 in0.0 mm 0.00 in0.0 mm
12:15 PM 65.6°F18.7°C 50.4°F10.2°C 58% 11.0 mph ESE17.7 kmh ESE -- 29.97 in1014.9 mb 0.00 in0.0 mm 0.00 in0.0 mm 0.00 in0.0 mm
12:16 PM 65.5°F18.6°C 50.7°F10.4°C 59% 19.0 mph ESE30.6 kmh ESE -- 29.97 in1014.9 mb 0.00 in0.0 mm 0.00 in0.0 mm 0.00 in0.0 mm
12:17 PM 65.5°F18.6°C 50.2°F10.1°C 58% 13.0 mph SSE20.9 kmh SSE -- 29.97 in1014.9 mb 0.00 in0.0 mm 0.00 in0.0 mm 0.00 in0.0 mm
12:18 PM 65.0°F18.3°C 50.2°F10.1°C 59% 9.0 mph SE14.5 kmh SE -- 29.97 in1014.9 mb 0.00 in0.0 mm 0.00 in0.0 mm 0.00 in0.0 mm
12:19 PM 64.4°F18.0°C 49.7°F9.8°C 59% 9.0 mph SE14.5 kmh SE -- 29.97 in1014.9 mb 0.00 in0.0 mm 0.00 in0.0 mm 0.00 in0.0 mm
12:20 PM 64.1°F17.8°C 49.3°F9.6°C 59% 15.0 mph ESE24.1 kmh ESE -- 29.97 in1014.9 mb 0.00 in0.0 mm 0.00 in0.0 mm 0.00 in0.0 mm
12:21 PM 64.6°F18.1°C 49.8°F9.9°C 59% 19.0 mph SSE30.6 kmh SSE -- 29.97 in1014.9 mb 0.00 in0.0 mm 0.00 in0.0 mm 0.00 in0.0 mm
12:22 PM 64.9°F18.3°C 49.7°F9.8°C 58% 15.0 mph SE24.1 kmh SE -- 29.97 in1014.9 mb 0.00 in0.0 mm 0.00 in0.0 mm 0.00 in0.0 mm
12:23 PM 65.2°F18.4°C 48.9°F9.4°C 56% 13.0 mph SE20.9 kmh SE -- 29.97 in1014.9 mb 0.00 in0.0 mm 0.00 in0.0 mm 0.00 in0.0 mm
12:24 PM 65.6°F18.7°C 50.4°F10.2°C 58% 10.0 mph ESE16.1 kmh ESE -- 29.97 in1014.9 mb 0.00 in0.0 mm 0.00 in0.0 mm 0.00 in0.0 mm
12:25 PM 66.4°F19.1°C 50.1°F10.1°C 56% 12.0 mph ESE19.3 kmh ESE -- 29.97 in1014.9 mb 0.00 in0.0 mm 0.00 in0.0 mm 0.00 in0.0 mm
12:26 PM 66.6°F19.2°C 49.8°F9.9°C 55% 12.0 mph ESE19.3 kmh ESE -- 29.97 in1014.9 mb 0.00 in0.0 mm 0.00 in0.0 mm 0.00 in0.0 mm
12:27 PM 66.5°F19.2°C 49.8°F9.9°C 55% 12.0 mph ESE19.3 kmh ESE -- 29.97 in1014.9 mb 0.00 in0.0 mm 0.00 in0.0 mm 0.00 in0.0 mm
12:28 PM 66.4°F19.1°C 49.6°F9.8°C 55% 12.0 mph ESE19.3 kmh ESE -- 29.96 in1014.6 mb 0.00 in0.0 mm 0.00 in0.0 mm 0.00 in0.0 mm
12:29 PM 66.1°F18.9°C 49.3°F9.6°C 55% 11.0 mph ESE17.7 kmh ESE -- 29.97 in1014.9 mb 0.00 in0.0 mm 0.00 in0.0 mm 0.00 in0.0 mm
12:30 PM 66.1°F18.9°C 49.3°F9.6°C 55% 12.0 mph S19.3 kmh S -- 29.97 in1014.9 mb 0.00 in0.0 mm 0.00 in0.0 mm 0.00 in0.0 mm
12:31 PM 65.8°F18.8°C 49.1°F9.5°C 55% 11.0 mph SSE17.7 kmh SSE -- 29.96 in1014.6 mb 0.00 in0.0 mm 0.00 in0.0 mm 0.00 in0.0 mm
12:32 PM 65.9°F18.8°C 49.1°F9.5°C 55% 13.0 mph SSE20.9 kmh SSE -- 29.96 in1014.6 mb 0.00 in0.0 mm 0.00 in0.0 mm 0.00 in0.0 mm
12:33 PM 65.8°F18.8°C 49.1°F9.5°C 55% 13.0 mph SE20.9 kmh SE -- 29.97 in1014.9 mb 0.00 in0.0 mm 0.00 in0.0 mm 0.00 in0.0 mm
12:34 PM 66.1°F18.9°C 49.3°F9.6°C 55% 11.0 mph ESE17.7 kmh ESE -- 29.97 in1014.9 mb 0.00 in0.0 mm 0.00 in0.0 mm 0.00 in0.0 mm
12:35 PM 66.6°F19.2°C 49.8°F9.9°C 55% 12.0 mph SSE19.3 kmh SSE -- 29.97 in1014.9 mb 0.00 in0.0 mm 0.00 in0.0 mm 0.00 in0.0 mm
12:36 PM 67.5°F19.7°C 50.6°F10.3°C 55% 14.0 mph ESE22.5 kmh ESE -- 29.96 in1014.6 mb 0.00 in0.0 mm 0.00 in0.0 mm 0.00 in0.0 mm
12:37 PM 67.6°F19.8°C 50.8°F10.4°C 55% 11.0 mph SE17.7 kmh SE -- 29.96 in1014.6 mb 0.00 in0.0 mm 0.00 in0.0 mm 0.00 in0.0 mm
12:38 PM 67.8°F19.9°C 50.5°F10.3°C 54% 15.0 mph SE24.1 kmh SE -- 29.96 in1014.6 mb 0.00 in0.0 mm 0.00 in0.0 mm 0.00 in0.0 mm
12:39 PM 67.8°F19.9°C 50.0°F10.0°C 53% 12.0 mph ESE19.3 kmh ESE -- 29.96 in1014.6 mb 0.00 in0.0 mm 0.00 in0.0 mm 0.00 in0.0 mm
12:40 PM 68.0°F20.0°C 50.1°F10.1°C 53% 11.0 mph ESE17.7 kmh ESE -- 29.96 in1014.6 mb 0.00 in0.0 mm 0.00 in0.0 mm 0.00 in0.0 mm
12:41 PM 67.8°F19.9°C 50.5°F10.3°C 54% 9.0 mph SE14.5 kmh SE -- 29.96 in1014.6 mb 0.00 in0.0 mm 0.00 in0.0 mm 0.00 in0.0 mm
12:42 PM 67.6°F19.8°C 50.3°F10.2°C 54% 13.0 mph ESE20.9 kmh ESE -- 29.96 in1014.6 mb 0.00 in0.0 mm 0.00 in0.0 mm 0.00 in0.0 mm
12:43 PM 67.8°F19.9°C 50.0°F10.0°C 53% 17.0 mph SE27.4 kmh SE -- 29.97 in1014.9 mb 0.00 in0.0 mm 0.00 in0.0 mm 0.00 in0.0 mm
12:44 PM 67.8°F19.9°C 50.0°F10.0°C 53% 8.0 mph S12.9 kmh S -- 29.96 in1014.6 mb 0.00 in0.0 mm 0.00 in0.0 mm 0.00 in0.0 mm
12:45 PM 68.0°F20.0°C 50.1°F10.1°C 53% 10.0 mph S16.1 kmh S -- 29.96 in1014.6 mb 0.00 in0.0 mm 0.00 in0.0 mm 0.00 in0.0 mm
12:46 PM 68.4°F20.2°C 50.5°F10.3°C 53% 11.0 mph ESE17.7 kmh ESE -- 29.96 in1014.6 mb 0.00 in0.0 mm 0.00 in0.0 mm 0.00 in0.0 mm
12:47 PM 68.6°F20.3°C 49.6°F9.8°C 51% 10.0 mph ESE16.1 kmh ESE -- 29.96 in1014.6 mb 0.00 in0.0 mm 0.00 in0.0 mm 0.00 in0.0 mm
12:48 PM 68.4°F20.2°C 50.5°F10.3°C 53% 15.0 mph SE24.1 kmh SE -- 29.97 in1014.9 mb 0.00 in0.0 mm 0.00 in0.0 mm 0.00 in0.0 mm
12:49 PM 68.1°F20.1°C 50.3°F10.2°C 53% 11.0 mph SE17.7 kmh SE -- 29.96 in1014.6 mb 0.00 in0.0 mm 0.00 in0.0 mm 0.00 in0.0 mm
12:50 PM 67.6°F19.8°C 50.3°F10.2°C 54% 13.0 mph ESE20.9 kmh ESE -- 29.96 in1014.6 mb 0.00 in0.0 mm 0.00 in0.0 mm 0.00 in0.0 mm
12:51 PM 67.5°F19.7°C 50.1°F10.1°C 54% 16.0 mph ESE25.7 kmh ESE -- 29.97 in1014.9 mb 0.00 in0.0 mm 0.00 in0.0 mm 0.00 in0.0 mm
12:52 PM 67.6°F19.8°C 49.8°F9.9°C 53% 14.0 mph SE22.5 kmh SE -- 29.97 in1014.9 mb 0.00 in0.0 mm 0.00 in0.0 mm 0.00 in0.0 mm
12:53 PM 67.3°F19.6°C 50.0°F10.0°C 54% 10.0 mph SSE16.1 kmh SSE -- 29.96 in1014.6 mb 0.00 in0.0 mm 0.00 in0.0 mm 0.00 in0.0 mm
12:54 PM 68.0°F20.0°C 50.7°F10.4°C 54% 9.0 mph SE14.5 kmh SE -- 29.96 in1014.6 mb 0.00 in0.0 mm 0.00 in0.0 mm 0.00 in0.0 mm
12:55 PM 68.4°F20.2°C 51.0°F10.6°C 54% 10.0 mph S16.1 kmh S -- 29.96 in1014.6 mb 0.00 in0.0 mm 0.00 in0.0 mm 0.00 in0.0 mm
12:56 PM 68.4°F20.2°C 50.5°F10.3°C 53% 16.0 mph ESE25.7 kmh ESE -- 29.96 in1014.6 mb 0.00 in0.0 mm 0.00 in0.0 mm 0.00 in0.0 mm
12:57 PM 68.4°F20.2°C 51.0°F10.6°C 54% 14.0 mph SE22.5 kmh SE -- 29.96 in1014.6 mb 0.00 in0.0 mm 0.00 in0.0 mm 0.00 in0.0 mm
12:58 PM 68.1°F20.1°C 50.8°F10.4°C 54% 9.0 mph SSE14.5 kmh SSE -- 29.96 in1014.6 mb 0.00 in0.0 mm 0.00 in0.0 mm 0.00 in0.0 mm
12:59 PM 68.1°F20.1°C 50.3°F10.2°C 53% 15.0 mph SSE24.1 kmh SSE -- 29.96 in1014.6 mb 0.00 in0.0 mm 0.00 in0.0 mm 0.00 in0.0 mm
01:00 PM 68.0°F20.0°C 49.1°F9.5°C 51% 14.0 mph SE22.5 kmh SE -- 29.96 in1014.6 mb 0.00 in0.0 mm 0.00 in0.0 mm 0.00 in0.0 mm
01:01 PM 67.5°F19.7°C 49.6°F9.8°C 53% 11.0 mph SE17.7 kmh SE -- 29.96 in1014.6 mb 0.00 in0.0 mm 0.00 in0.0 mm 0.00 in0.0 mm
01:02 PM 67.8°F19.9°C 50.0°F10.0°C 53% 11.0 mph ESE17.7 kmh ESE -- 29.96 in1014.6 mb 0.00 in0.0 mm 0.00 in0.0 mm 0.00 in0.0 mm
01:03 PM 68.1°F20.1°C 50.3°F10.2°C 53% 11.0 mph ESE17.7 kmh ESE -- 29.96 in1014.6 mb 0.00 in0.0 mm 0.00 in0.0 mm 0.00 in0.0 mm
01:04 PM 68.1°F20.1°C 50.8°F10.4°C 54% 12.0 mph ESE19.3 kmh ESE -- 29.96 in1014.6 mb 0.00 in0.0 mm 0.00 in0.0 mm 0.00 in0.0 mm
01:05 PM 68.0°F20.0°C 50.1°F10.1°C 53% 21.0 mph ESE33.8 kmh ESE -- 29.96 in1014.6 mb 0.00 in0.0 mm 0.00 in0.0 mm 0.00 in0.0 mm
01:06 PM 67.8°F19.9°C 50.0°F10.0°C 53% 17.0 mph SE27.4 kmh SE -- 29.96 in1014.6 mb 0.00 in0.0 mm 0.00 in0.0 mm 0.00 in0.0 mm
01:07 PM 66.4°F19.1°C 48.6°F9.2°C 53% 15.0 mph SSE24.1 kmh SSE -- 29.96 in1014.6 mb 0.00 in0.0 mm 0.00 in0.0 mm 0.00 in0.0 mm
01:08 PM 65.5°F18.6°C 48.3°F9.1°C 54% 12.0 mph S19.3 kmh S -- 29.96 in1014.6 mb 0.00 in0.0 mm 0.00 in0.0 mm 0.00 in0.0 mm
01:09 PM 65.6°F18.7°C 49.0°F9.4°C 55% 9.0 mph S14.5 kmh S -- 29.96 in1014.6 mb 0.00 in0.0 mm 0.00 in0.0 mm 0.00 in0.0 mm
01:10 PM 66.6°F19.2°C 49.8°F9.9°C 55% 8.0 mph SSE12.9 kmh SSE -- 29.96 in1014.6 mb 0.00 in0.0 mm 0.00 in0.0 mm 0.00 in0.0 mm
01:11 PM 67.6°F19.8°C 50.3°F10.2°C 54% 13.0 mph ESE20.9 kmh ESE -- 29.96 in1014.6 mb 0.00 in0.0 mm 0.00 in0.0 mm 0.00 in0.0 mm
01:12 PM 68.0°F20.0°C 50.7°F10.4°C 54% 9.0 mph SE14.5 kmh SE -- 29.96 in1014.6 mb 0.00 in0.0 mm 0.00 in0.0 mm 0.00 in0.0 mm
01:13 PM 68.4°F20.2°C 50.5°F10.3°C 53% 16.0 mph ESE25.7 kmh ESE -- 29.96 in1014.6 mb 0.00 in0.0 mm 0.00 in0.0 mm 0.00 in0.0 mm
01:14 PM 69.0°F20.6°C 50.1°F10.1°C 51% 11.0 mph SSE17.7 kmh SSE -- 29.96 in1014.6 mb 0.00 in0.0 mm 0.00 in0.0 mm 0.00 in0.0 mm
01:15 PM 68.9°F20.5°C 49.4°F9.7°C 50% 13.0 mph SSE20.9 kmh SSE -- 29.96 in1014.6 mb 0.00 in0.0 mm 0.00 in0.0 mm 0.00 in0.0 mm
01:16 PM 68.4°F20.2°C 49.4°F9.7°C 51% 8.0 mph SE12.9 kmh SE -- 29.96 in1014.6 mb 0.00 in0.0 mm 0.00 in0.0 mm 0.00 in0.0 mm
01:17 PM 68.4°F20.2°C 50.5°F10.3°C 53% 13.0 mph ESE20.9 kmh ESE -- 29.96 in1014.6 mb 0.00 in0.0 mm 0.00 in0.0 mm 0.00 in0.0 mm
01:18 PM 69.4°F20.8°C 51.5°F10.8°C 53% 19.0 mph SE30.6 kmh SE -- 29.96 in1014.6 mb 0.00 in0.0 mm 0.00 in0.0 mm 0.00 in0.0 mm
01:19 PM 68.9°F20.5°C 49.9°F9.9°C 51% 10.0 mph SSE16.1 kmh SSE -- 29.96 in1014.6 mb 0.00 in0.0 mm 0.00 in0.0 mm 0.00 in0.0 mm
01:20 PM 69.0°F20.6°C 50.1°F10.1°C 51% 13.0 mph ESE20.9 kmh ESE -- 29.96 in1014.6 mb 0.00 in0.0 mm 0.00 in0.0 mm 0.00 in0.0 mm
01:21 PM 69.6°F20.9°C 50.1°F10.1°C 50% 13.0 mph ESE20.9 kmh ESE -- 29.96 in1014.6 mb 0.00 in0.0 mm 0.00 in0.0 mm 0.00 in0.0 mm
01:22 PM 68.9°F20.5°C 49.9°F9.9°C 51% 11.0 mph SSE17.7 kmh SSE -- 29.96 in1014.6 mb 0.00 in0.0 mm 0.00 in0.0 mm 0.00 in0.0 mm
01:23 PM 68.4°F20.2°C 50.5°F10.3°C 53% 13.0 mph SSE20.9 kmh SSE -- 29.96 in1014.6 mb 0.00 in0.0 mm 0.00 in0.0 mm 0.00 in0.0 mm
01:24 PM 68.4°F20.2°C 51.0°F10.6°C 54% 13.0 mph ESE20.9 kmh ESE -- 29.96 in1014.6 mb 0.00 in0.0 mm 0.00 in0.0 mm 0.00 in0.0 mm
01:25 PM 68.0°F20.0°C 50.7°F10.4°C 54% 9.0 mph SE14.5 kmh SE -- 29.96 in1014.6 mb 0.00 in0.0 mm 0.00 in0.0 mm 0.00 in0.0 mm
01:26 PM 68.0°F20.0°C 50.7°F10.4°C 54% 17.0 mph S27.4 kmh S -- 29.96 in1014.6 mb 0.00 in0.0 mm 0.00 in0.0 mm 0.00 in0.0 mm
01:27 PM 68.4°F20.2°C 51.5°F10.8°C 55% 12.0 mph SE19.3 kmh SE -- 29.96 in1014.6 mb 0.00 in0.0 mm 0.00 in0.0 mm 0.00 in0.0 mm
01:28 PM 68.6°F20.3°C 51.2°F10.7°C 54% 10.0 mph SE16.1 kmh SE -- 29.96 in1014.6 mb 0.00 in0.0 mm 0.00 in0.0 mm 0.00 in0.0 mm
01:29 PM 69.4°F20.8°C 50.4°F10.2°C 51% 12.0 mph SE19.3 kmh SE -- 29.96 in1014.6 mb 0.00 in0.0 mm 0.00 in0.0 mm 0.00 in0.0 mm
01:30 PM 69.8°F21.0°C 50.8°F10.4°C 51% 12.0 mph SSE19.3 kmh SSE -- 29.96 in1014.6 mb 0.00 in0.0 mm 0.00 in0.0 mm 0.00 in0.0 mm
01:31 PM 69.6°F20.9°C 50.1°F10.1°C 50% 14.0 mph S22.5 kmh S -- 29.96 in1014.6 mb 0.00 in0.0 mm 0.00 in0.0 mm 0.00 in0.0 mm
01:32 PM 69.0°F20.6°C 49.6°F9.8°C 50% 13.0 mph SSE20.9 kmh SSE -- 29.96 in1014.6 mb 0.00 in0.0 mm 0.00 in0.0 mm 0.00 in0.0 mm
01:33 PM 69.3°F20.7°C 49.7°F9.8°C 50% 10.0 mph SE16.1 kmh SE -- 29.95 in1014.2 mb 0.00 in0.0 mm 0.00 in0.0 mm 0.00 in0.0 mm
01:34 PM 69.6°F20.9°C 50.1°F10.1°C 50% 11.0 mph SSE17.7 kmh SSE -- 29.95 in1014.2 mb 0.00 in0.0 mm 0.00 in0.0 mm 0.00 in0.0 mm
01:35 PM 69.6°F20.9°C 50.1°F10.1°C 50% 15.0 mph ESE24.1 kmh ESE -- 29.96 in1014.6 mb 0.00 in0.0 mm 0.00 in0.0 mm 0.00 in0.0 mm
01:36 PM 69.8°F21.0°C 50.2°F10.1°C 50% 13.0 mph SE20.9 kmh SE -- 29.96 in1014.6 mb 0.00 in0.0 mm 0.00 in0.0 mm 0.00 in0.0 mm
01:37 PM 69.6°F20.9°C 50.6°F10.3°C 51% 14.0 mph ESE22.5 kmh ESE -- 29.96 in1014.6 mb 0.00 in0.0 mm 0.00 in0.0 mm 0.00 in0.0 mm
01:38 PM 70.3°F21.3°C 51.3°F10.7°C 51% 18.0 mph ESE29.0 kmh ESE -- 29.95 in1014.2 mb 0.00 in0.0 mm 0.00 in0.0 mm 0.00 in0.0 mm
01:39 PM 70.1°F21.2°C 50.6°F10.3°C 50% 13.0 mph SE20.9 kmh SE -- 29.95 in1014.2 mb 0.00 in0.0 mm 0.00 in0.0 mm 0.00 in0.0 mm
01:40 PM 70.3°F21.3°C 50.7°F10.4°C 50% 18.0 mph SE29.0 kmh SE -- 29.95 in1014.2 mb 0.00 in0.0 mm 0.00 in0.0 mm 0.00 in0.0 mm
01:41 PM 69.8°F21.0°C 50.8°F10.4°C 51% 8.0 mph SE12.9 kmh SE -- 29.96 in1014.6 mb 0.00 in0.0 mm 0.00 in0.0 mm 0.00 in0.0 mm
01:42 PM 69.6°F20.9°C 50.6°F10.3°C 51% 14.0 mph ESE22.5 kmh ESE -- 29.96 in1014.6 mb 0.00 in0.0 mm 0.00 in0.0 mm 0.00 in0.0 mm
01:43 PM 69.8°F21.0°C 50.8°F10.4°C 51% 20.0 mph ESE32.2 kmh ESE -- 29.95 in1014.2 mb 0.00 in0.0 mm 0.00 in0.0 mm 0.00 in0.0 mm
01:44 PM 70.1°F21.2°C 51.1°F10.6°C 51% 14.0 mph SSE22.5 kmh SSE -- 29.96 in1014.6 mb 0.00 in0.0 mm 0.00 in0.0 mm 0.00 in0.0 mm
01:45 PM 70.1°F21.2°C 50.6°F10.3°C 50% 12.0 mph SSE19.3 kmh SSE -- 29.96 in1014.6 mb 0.00 in0.0 mm 0.00 in0.0 mm 0.00 in0.0 mm
01:46 PM 70.5°F21.4°C 51.4°F10.8°C 51% 16.0 mph SE25.7 kmh SE -- 29.96 in1014.6 mb 0.00 in0.0 mm 0.00 in0.0 mm 0.00 in0.0 mm
01:47 PM 70.5°F21.4°C 51.4°F10.8°C 51% 15.0 mph SE24.1 kmh SE -- 29.96 in1014.6 mb 0.00 in0.0 mm 0.00 in0.0 mm 0.00 in0.0 mm
01:48 PM 70.3°F21.3°C 51.3°F10.7°C 51% 16.0 mph ESE25.7 kmh ESE -- 29.96 in1014.6 mb 0.00 in0.0 mm 0.00 in0.0 mm 0.00 in0.0 mm
01:49 PM 70.1°F21.2°C 51.1°F10.6°C 51% 11.0 mph SE17.7 kmh SE -- 29.96 in1014.6 mb 0.00 in0.0 mm 0.00 in0.0 mm 0.00 in0.0 mm
01:50 PM 70.3°F21.3°C 51.3°F10.7°C 51% 14.0 mph ESE22.5 kmh ESE -- 29.96 in1014.6 mb 0.00 in0.0 mm 0.00 in0.0 mm 0.00 in0.0 mm
01:51 PM 70.3°F21.3°C 51.3°F10.7°C 51% 11.0 mph ESE17.7 kmh ESE -- 29.95 in1014.2 mb 0.00 in0.0 mm 0.00 in0.0 mm 0.00 in0.0 mm
01:52 PM 70.9°F21.6°C 51.2°F10.7°C 50% 13.0 mph ESE20.9 kmh ESE -- 29.95 in1014.2 mb 0.00 in0.0 mm 0.00 in0.0 mm 0.00 in0.0 mm
01:53 PM 70.9°F21.6°C 51.8°F11.0°C 51% 13.0 mph SSE20.9 kmh SSE -- 29.96 in1014.6 mb 0.00 in0.0 mm 0.00 in0.0 mm 0.00 in0.0 mm
01:54 PM 70.9°F21.6°C 51.2°F10.7°C 50% 17.0 mph SE27.4 kmh SE -- 29.96 in1014.6 mb 0.00 in0.0 mm 0.00 in0.0 mm 0.00 in0.0 mm
01:55 PM 70.0°F21.1°C 50.4°F10.2°C 50% 15.0 mph SE24.1 kmh SE -- 29.95 in1014.2 mb 0.00 in0.0 mm 0.00 in0.0 mm 0.00 in0.0 mm
01:56 PM 69.4°F20.8°C 51.5°F10.8°C 53% 10.0 mph SSE16.1 kmh SSE -- 29.95 in1014.2 mb 0.00 in0.0 mm 0.00 in0.0 mm 0.00 in0.0 mm
01:57 PM 69.6°F20.9°C 51.7°F10.9°C 53% 8.0 mph SE12.9 kmh SE -- 29.95 in1014.2 mb 0.00 in0.0 mm 0.00 in0.0 mm 0.00 in0.0 mm
01:58 PM 69.0°F20.6°C 51.2°F10.7°C 53% 9.0 mph SSE14.5 kmh SSE -- 29.95 in1014.2 mb 0.00 in0.0 mm 0.00 in0.0 mm 0.00 in0.0 mm
01:59 PM 68.9°F20.5°C 51.0°F10.6°C 53% 10.0 mph SE16.1 kmh SE -- 29.95 in1014.2 mb 0.00 in0.0 mm 0.00 in0.0 mm 0.00 in0.0 mm
02:00 PM 69.4°F20.8°C 51.5°F10.8°C 53% 16.0 mph SSE25.7 kmh SSE -- 29.95 in1014.2 mb 0.00 in0.0 mm 0.00 in0.0 mm 0.00 in0.0 mm
02:01 PM 69.0°F20.6°C 51.2°F10.7°C 53% 13.0 mph SE20.9 kmh SE -- 29.95 in1014.2 mb 0.00 in0.0 mm 0.00 in0.0 mm 0.00 in0.0 mm
02:02 PM 68.6°F20.3°C 50.7°F10.4°C 53% 15.0 mph ESE24.1 kmh ESE -- 29.95 in1014.2 mb 0.00 in0.0 mm 0.00 in0.0 mm 0.00 in0.0 mm
02:03 PM 68.9°F20.5°C 51.0°F10.6°C 53% 13.0 mph ESE20.9 kmh ESE -- 29.95 in1014.2 mb 0.00 in0.0 mm 0.00 in0.0 mm 0.00 in0.0 mm
02:04 PM 69.3°F20.7°C 50.3°F10.2°C 51% 12.0 mph ESE19.3 kmh ESE -- 29.95 in1014.2 mb 0.00 in0.0 mm 0.00 in0.0 mm 0.00 in0.0 mm
02:05 PM 69.3°F20.7°C 50.3°F10.2°C 51% 16.0 mph ESE25.7 kmh ESE -- 29.95 in1014.2 mb 0.00 in0.0 mm 0.00 in0.0 mm 0.00 in0.0 mm
02:06 PM 69.4°F20.8°C 50.4°F10.2°C 51% 11.0 mph ESE17.7 kmh ESE -- 29.95 in1014.2 mb 0.00 in0.0 mm 0.00 in0.0 mm 0.00 in0.0 mm
02:07 PM 69.4°F20.8°C 49.9°F9.9°C 50% 15.0 mph ESE24.1 kmh ESE -- 29.95 in1014.2 mb 0.00 in0.0 mm 0.00 in0.0 mm 0.00 in0.0 mm
02:08 PM 69.6°F20.9°C 50.1°F10.1°C 50% 19.0 mph ESE30.6 kmh ESE -- 29.95 in1014.2 mb 0.00 in0.0 mm 0.00 in0.0 mm 0.00 in0.0 mm
02:09 PM 69.6°F20.9°C 50.1°F10.1°C 50% 15.0 mph SSE24.1 kmh SSE -- 29.95 in1014.2 mb 0.00 in0.0 mm 0.00 in0.0 mm 0.00 in0.0 mm
02:10 PM 68.9°F20.5°C 48.9°F9.4°C 49% 10.0 mph SE16.1 kmh SE -- 29.95 in1014.2 mb 0.00 in0.0 mm 0.00 in0.0 mm 0.00 in0.0 mm
02:11 PM 68.9°F20.5°C 48.9°F9.4°C 49% 16.0 mph ESE25.7 kmh ESE -- 29.95 in1014.2 mb 0.00 in0.0 mm 0.00 in0.0 mm 0.00 in0.0 mm
02:12 PM 68.9°F20.5°C 48.3°F9.1°C 48% 11.0 mph SSE17.7 kmh SSE -- 29.95 in1014.2 mb 0.00 in0.0 mm 0.00 in0.0 mm 0.00 in0.0 mm
02:13 PM 69.3°F20.7°C 49.2°F9.6°C 49% 9.0 mph SSW14.5 kmh SSW -- 29.95 in1014.2 mb 0.00 in0.0 mm 0.00 in0.0 mm 0.00 in0.0 mm
02:14 PM 69.8°F21.0°C 49.1°F9.5°C 48% 11.0 mph SSE17.7 kmh SSE -- 29.96 in1014.6 mb 0.00 in0.0 mm 0.00 in0.0 mm 0.00 in0.0 mm
02:15 PM 69.0°F20.6°C 49.0°F9.4°C 49% 9.0 mph SSE14.5 kmh SSE -- 29.95 in1014.2 mb 0.00 in0.0 mm 0.00 in0.0 mm 0.00 in0.0 mm
02:16 PM 69.3°F20.7°C 49.2°F9.6°C 49% 9.0 mph S14.5 kmh S -- 29.95 in1014.2 mb 0.00 in0.0 mm 0.00 in0.0 mm 0.00 in0.0 mm
02:17 PM 70.1°F21.2°C 50.0°F10.0°C 49% 12.0 mph ESE19.3 kmh ESE -- 29.95 in1014.2 mb 0.00 in0.0 mm 0.00 in0.0 mm 0.00 in0.0 mm
02:18 PM 71.1°F21.7°C 50.3°F10.2°C 48% 13.0 mph ESE20.9 kmh ESE -- 29.96 in1014.6 mb 0.00 in0.0 mm 0.00 in0.0 mm 0.00 in0.0 mm
02:20 PM 71.4°F21.9°C 51.2°F10.7°C 49% 8.0 mph SE12.9 kmh SE -- 29.96 in1014.6 mb 0.00 in0.0 mm 0.00 in0.0 mm 0.00 in0.0 mm
02:21 PM 71.4°F21.9°C 51.2°F10.7°C 49% 11.0 mph SSE17.7 kmh SSE -- 29.95 in1014.2 mb 0.00 in0.0 mm 0.00 in0.0 mm 0.00 in0.0 mm
02:22 PM 71.1°F21.7°C 50.3°F10.2°C 48% 11.0 mph ESE17.7 kmh ESE -- 29.95 in1014.2 mb 0.00 in0.0 mm 0.00 in0.0 mm 0.00 in0.0 mm
02:23 PM 71.0°F21.7°C 48.6°F9.2°C 45% 15.0 mph SSE24.1 kmh SSE -- 29.95 in1014.2 mb 0.00 in0.0 mm 0.00 in0.0 mm 0.00 in0.0 mm
02:24 PM 70.9°F21.6°C 49.0°F9.4°C 46% 11.0 mph SE17.7 kmh SE -- 29.95 in1014.2 mb 0.00 in0.0 mm 0.00 in0.0 mm 0.00 in0.0 mm
02:25 PM 71.0°F21.7°C 49.2°F9.6°C 46% 12.0 mph ESE19.3 kmh ESE -- 29.95 in1014.2 mb 0.00 in0.0 mm 0.00 in0.0 mm 0.00 in0.0 mm
02:26 PM 70.3°F21.3°C 50.2°F10.1°C 49% 9.0 mph S14.5 kmh S -- 29.96 in1014.6 mb 0.00 in0.0 mm 0.00 in0.0 mm 0.00 in0.0 mm
02:27 PM 70.0°F21.1°C 49.3°F9.6°C 48% 11.0 mph SE17.7 kmh SE -- 29.95 in1014.2 mb 0.00 in0.0 mm 0.00 in0.0 mm 0.00 in0.0 mm
02:28 PM 69.8°F21.0°C 49.7°F9.8°C 49% 9.0 mph SE14.5 kmh SE -- 29.95 in1014.2 mb 0.00 in0.0 mm 0.00 in0.0 mm 0.00 in0.0 mm
02:29 PM 70.0°F21.1°C 50.4°F10.2°C 50% 12.0 mph SE19.3 kmh SE -- 29.95 in1014.2 mb 0.00 in0.0 mm 0.00 in0.0 mm 0.00 in0.0 mm
02:30 PM 69.6°F20.9°C 50.1°F10.1°C 50% 17.0 mph S27.4 kmh S -- 29.95 in1014.2 mb 0.00 in0.0 mm 0.00 in0.0 mm 0.00 in0.0 mm
02:31 PM 70.1°F21.2°C 50.0°F10.0°C 49% 13.0 mph SE20.9 kmh SE -- 29.95 in1014.2 mb 0.00 in0.0 mm 0.00 in0.0 mm 0.00 in0.0 mm
02:32 PM 70.0°F21.1°C 49.3°F9.6°C 48% 14.0 mph SSE22.5 kmh SSE -- 29.95 in1014.2 mb 0.00 in0.0 mm 0.00 in0.0 mm 0.00 in0.0 mm
02:33 PM 70.3°F21.3°C 49.6°F9.8°C 48% 12.0 mph ESE19.3 kmh ESE -- 29.95 in1014.2 mb 0.00 in0.0 mm 0.00 in0.0 mm 0.00 in0.0 mm
02:34 PM 70.5°F21.4°C 49.8°F9.9°C 48% 9.0 mph SSE14.5 kmh SSE -- 29.96 in1014.6 mb 0.00 in0.0 mm 0.00 in0.0 mm 0.00 in0.0 mm
02:35 PM 70.6°F21.4°C 48.7°F9.3°C 46% 11.0 mph S17.7 kmh S -- 29.95 in1014.2 mb 0.00 in0.0 mm 0.00 in0.0 mm 0.00 in0.0 mm
02:36 PM 70.1°F21.2°C 49.5°F9.7°C 48% 13.0 mph SSE20.9 kmh SSE -- 29.95 in1014.2 mb 0.00 in0.0 mm 0.00 in0.0 mm 0.00 in0.0 mm
02:37 PM 70.1°F21.2°C 49.5°F9.7°C 48% 11.0 mph ENE17.7 kmh ENE -- 29.95 in1014.2 mb 0.00 in0.0 mm 0.00 in0.0 mm 0.00 in0.0 mm
02:38 PM 71.0°F21.7°C 50.3°F10.2°C 48% 18.0 mph SE29.0 kmh SE -- 29.95 in1014.2 mb 0.00 in0.0 mm 0.00 in0.0 mm 0.00 in0.0 mm
02:39 PM 70.6°F21.4°C 50.9°F10.5°C 50% 14.0 mph SSE22.5 kmh SSE -- 29.95 in1014.2 mb 0.00 in0.0 mm 0.00 in0.0 mm 0.00 in0.0 mm
02:40 PM 70.3°F21.3°C 50.7°F10.4°C 50% 15.0 mph SE24.1 kmh SE -- 29.95 in1014.2 mb 0.00 in0.0 mm 0.00 in0.0 mm 0.00 in0.0 mm
02:41 PM 70.6°F21.4°C 50.9°F10.5°C 50% 16.0 mph SSE25.7 kmh SSE -- 29.95 in1014.2 mb 0.00 in0.0 mm 0.00 in0.0 mm 0.00 in0.0 mm
02:42 PM 71.0°F21.7°C 51.4°F10.8°C 50% 16.0 mph SE25.7 kmh SE -- 29.95 in1014.2 mb 0.00 in0.0 mm 0.00 in0.0 mm 0.00 in0.0 mm
02:43 PM 71.0°F21.7°C 50.9°F10.5°C 49% 15.0 mph SSE24.1 kmh SSE -- 29.95 in1014.2 mb 0.00 in0.0 mm 0.00 in0.0 mm 0.00 in0.0 mm
02:44 PM 71.0°F21.7°C 50.3°F10.2°C 48% 17.0 mph S27.4 kmh S -- 29.95 in1014.2 mb 0.00 in0.0 mm 0.00 in0.0 mm 0.00 in0.0 mm
02:45 PM 70.9°F21.6°C 50.1°F10.1°C 48% 17.0 mph SSE27.4 kmh SSE -- 29.95 in1014.2 mb 0.00 in0.0 mm 0.00 in0.0 mm 0.00 in0.0 mm
02:46 PM 70.6°F21.4°C 49.8°F9.9°C 48% 16.0 mph SSE25.7 kmh SSE -- 29.95 in1014.2 mb 0.00 in0.0 mm 0.00 in0.0 mm 0.00 in0.0 mm
02:47 PM 70.1°F21.2°C 49.5°F9.7°C 48% 11.0 mph SSE17.7 kmh SSE -- 29.95 in1014.2 mb 0.00 in0.0 mm 0.00 in0.0 mm 0.00 in0.0 mm
02:48 PM 70.3°F21.3°C 49.6°F9.8°C 48% 12.0 mph SE19.3 kmh SE -- 29.95 in1014.2 mb 0.00 in0.0 mm 0.00 in0.0 mm 0.00 in0.0 mm
02:49 PM 70.9°F21.6°C 49.0°F9.4°C 46% 11.0 mph SSE17.7 kmh SSE -- 29.94 in1013.9 mb 0.00 in0.0 mm 0.00 in0.0 mm 0.00 in0.0 mm
02:50 PM 71.0°F21.7°C 50.3°F10.2°C 48% 10.0 mph SSE16.1 kmh SSE -- 29.95 in1014.2 mb 0.00 in0.0 mm 0.00 in0.0 mm 0.00 in0.0 mm
02:51 PM 71.1°F21.7°C 50.3°F10.2°C 48% 10.0 mph SSE16.1 kmh SSE -- 29.95 in1014.2 mb 0.00 in0.0 mm 0.00 in0.0 mm 0.00 in0.0 mm
02:52 PM 71.8°F22.1°C 51.0°F10.6°C 48% 13.0 mph S20.9 kmh S -- 29.95 in1014.2 mb 0.00 in0.0 mm 0.00 in0.0 mm 0.00 in0.0 mm
02:53 PM 71.5°F21.9°C 50.6°F10.3°C 48% 9.0 mph SSE14.5 kmh SSE -- 29.95 in1014.2 mb 0.00 in0.0 mm 0.00 in0.0 mm 0.00 in0.0 mm
02:54 PM 71.5°F21.9°C 50.6°F10.3°C 48% 12.0 mph S19.3 kmh S -- 29.95 in1014.2 mb 0.00 in0.0 mm 0.00 in0.0 mm 0.00 in0.0 mm
02:55 PM 71.0°F21.7°C 50.3°F10.2°C 48% 20.0 mph SSE32.2 kmh SSE -- 29.95 in1014.2 mb 0.00 in0.0 mm 0.00 in0.0 mm 0.00 in0.0 mm
02:56 PM 70.3°F21.3°C 49.6°F9.8°C 48% 13.0 mph S20.9 kmh S -- 29.95 in1014.2 mb 0.00 in0.0 mm 0.00 in0.0 mm 0.00 in0.0 mm
02:57 PM 70.3°F21.3°C 49.6°F9.8°C 48% 13.0 mph SE20.9 kmh SE -- 29.95 in1014.2 mb 0.00 in0.0 mm 0.00 in0.0 mm 0.00 in0.0 mm
02:58 PM 70.3°F21.3°C 49.6°F9.8°C 48% 11.0 mph S17.7 kmh S -- 29.95 in1014.2 mb 0.00 in0.0 mm 0.00 in0.0 mm 0.00 in0.0 mm
02:59 PM 70.6°F21.4°C 49.8°F9.9°C 48% 12.0 mph SSE19.3 kmh SSE -- 29.95 in1014.2 mb 0.00 in0.0 mm 0.00 in0.0 mm 0.00 in0.0 mm
03:00 PM 70.9°F21.6°C 50.1°F10.1°C 48% 11.0 mph SSE17.7 kmh SSE -- 29.95 in1014.2 mb 0.00 in0.0 mm 0.00 in0.0 mm 0.00 in0.0 mm
03:01 PM 70.9°F21.6°C 50.1°F10.1°C 48% 15.0 mph SSE24.1 kmh SSE -- 29.95 in1014.2 mb 0.00 in0.0 mm 0.00 in0.0 mm 0.00 in0.0 mm
03:02 PM 71.0°F21.7°C 50.9°F10.5°C 49% 9.0 mph SSE14.5 kmh SSE -- 29.95 in1014.2 mb 0.00 in0.0 mm 0.00 in0.0 mm 0.00 in0.0 mm
03:03 PM 70.9°F21.6°C 50.7°F10.4°C 49% 15.0 mph SSE24.1 kmh SSE -- 29.95 in1014.2 mb 0.00 in0.0 mm 0.00 in0.0 mm 0.00 in0.0 mm
03:04 PM 71.5°F21.9°C 49.5°F9.7°C 46% 16.0 mph SE25.7 kmh SE -- 29.95 in1014.2 mb 0.00 in0.0 mm 0.00 in0.0 mm 0.00 in0.0 mm
03:05 PM 71.9°F22.2°C 50.0°F10.0°C 46% 12.0 mph SSE19.3 kmh SSE -- 29.95 in1014.2 mb 0.00 in0.0 mm 0.00 in0.0 mm 0.00 in0.0 mm
03:06 PM 71.9°F22.2°C 49.4°F9.7°C 45% 13.0 mph SSE20.9 kmh SSE -- 29.95 in1014.2 mb 0.00 in0.0 mm 0.00 in0.0 mm 0.00 in0.0 mm
03:07 PM 71.0°F21.7°C 49.2°F9.6°C 46% 9.0 mph SSE14.5 kmh SSE -- 29.95 in1014.2 mb 0.00 in0.0 mm 0.00 in0.0 mm 0.00 in0.0 mm
03:08 PM 71.0°F21.7°C 50.3°F10.2°C 48% 11.0 mph SSE17.7 kmh SSE -- 29.96 in1014.6 mb 0.00 in0.0 mm 0.00 in0.0 mm 0.00 in0.0 mm
03:10 PM 71.4°F21.9°C 49.5°F9.7°C 46% 10.0 mph S16.1 kmh S -- 29.96 in1014.6 mb 0.00 in0.0 mm 0.00 in0.0 mm 0.00 in0.0 mm
03:11 PM 71.1°F21.7°C 49.2°F9.6°C 46% 12.0 mph SSE19.3 kmh SSE -- 29.96 in1014.6 mb 0.00 in0.0 mm 0.00 in0.0 mm 0.00 in0.0 mm
03:12 PM 71.0°F21.7°C 50.9°F10.5°C 49% 8.0 mph SSE12.9 kmh SSE -- 29.96 in1014.6 mb 0.00 in0.0 mm 0.00 in0.0 mm 0.00 in0.0 mm
03:13 PM 70.3°F21.3°C 49.6°F9.8°C 48% 12.0 mph S19.3 kmh S -- 29.96 in1014.6 mb 0.00 in0.0 mm 0.00 in0.0 mm 0.00 in0.0 mm
03:14 PM 70.3°F21.3°C 49.6°F9.8°C 48% 11.0 mph SSE17.7 kmh SSE -- 29.96 in1014.6 mb 0.00 in0.0 mm 0.00 in0.0 mm 0.00 in0.0 mm
03:15 PM 70.9°F21.6°C 50.1°F10.1°C 48% 11.0 mph S17.7 kmh S -- 29.96 in1014.6 mb 0.00 in0.0 mm 0.00 in0.0 mm 0.00 in0.0 mm
03:16 PM 70.9°F21.6°C 50.1°F10.1°C 48% 13.0 mph SE20.9 kmh SE -- 29.96 in1014.6 mb 0.00 in0.0 mm 0.00 in0.0 mm 0.00 in0.0 mm
03:17 PM 71.1°F21.7°C 50.3°F10.2°C 48% 12.0 mph SE19.3 kmh SE -- 29.96 in1014.6 mb 0.00 in0.0 mm 0.00 in0.0 mm 0.00 in0.0 mm
03:18 PM 70.9°F21.6°C 50.7°F10.4°C 49% 11.0 mph SE17.7 kmh SE -- 29.96 in1014.6 mb 0.00 in0.0 mm 0.00 in0.0 mm 0.00 in0.0 mm
03:19 PM 70.5°F21.4°C 50.4°F10.2°C 49% 12.0 mph ESE19.3 kmh ESE -- 29.96 in1014.6 mb 0.00 in0.0 mm 0.00 in0.0 mm 0.00 in0.0 mm
03:20 PM 70.9°F21.6°C 50.1°F10.1°C 48% 13.0 mph SE20.9 kmh SE -- 29.96 in1014.6 mb 0.00 in0.0 mm 0.00 in0.0 mm 0.00 in0.0 mm
03:21 PM 71.1°F21.7°C 50.3°F10.2°C 48% 11.0 mph S17.7 kmh S -- 29.96 in1014.6 mb 0.00 in0.0 mm 0.00 in0.0 mm 0.00 in0.0 mm
03:22 PM 71.1°F21.7°C 50.3°F10.2°C 48% 9.0 mph SSE14.5 kmh SSE -- 29.96 in1014.6 mb 0.00 in0.0 mm 0.00 in0.0 mm 0.00 in0.0 mm
03:23 PM 71.8°F22.1°C 49.8°F9.9°C 46% 10.0 mph SSE16.1 kmh SSE -- 29.96 in1014.6 mb 0.00 in0.0 mm 0.00 in0.0 mm 0.00 in0.0 mm
03:24 PM 71.5°F21.9°C 51.2°F10.7°C 49% 8.0 mph SE12.9 kmh SE -- 29.96 in1014.6 mb 0.00 in0.0 mm 0.00 in0.0 mm 0.00 in0.0 mm
03:25 PM 71.9°F22.2°C 51.7°F10.9°C 49% 12.0 mph SSE19.3 kmh SSE -- 29.96 in1014.6 mb 0.00 in0.0 mm 0.00 in0.0 mm 0.00 in0.0 mm
03:26 PM 72.5°F22.5°C 50.5°F10.3°C 46% 16.0 mph SSE25.7 kmh SSE -- 29.96 in1014.6 mb 0.00 in0.0 mm 0.00 in0.0 mm 0.00 in0.0 mm
03:27 PM 72.1°F22.3°C 50.1°F10.1°C 46% 12.0 mph SSE19.3 kmh SSE -- 29.96 in1014.6 mb 0.00 in0.0 mm 0.00 in0.0 mm 0.00 in0.0 mm
03:28 PM 71.8°F22.1°C 49.8°F9.9°C 46% 9.0 mph SE14.5 kmh SE -- 29.96 in1014.6 mb 0.00 in0.0 mm 0.00 in0.0 mm 0.00 in0.0 mm
03:29 PM 71.4°F21.9°C 50.6°F10.3°C 48% 10.0 mph SSE16.1 kmh SSE -- 29.95 in1014.2 mb 0.00 in0.0 mm 0.00 in0.0 mm 0.00 in0.0 mm
03:30 PM 71.8°F22.1°C 49.8°F9.9°C 46% 10.0 mph SE16.1 kmh SE -- 29.96 in1014.6 mb 0.00 in0.0 mm 0.00 in0.0 mm 0.00 in0.0 mm
03:31 PM 72.3°F22.4°C 50.3°F10.2°C 46% 9.0 mph SSE14.5 kmh SSE -- 29.96 in1014.6 mb 0.00 in0.0 mm 0.00 in0.0 mm 0.00 in0.0 mm
03:32 PM 71.9°F22.2°C 50.0°F10.0°C 46% 12.0 mph SSE19.3 kmh SSE -- 29.96 in1014.6 mb 0.00 in0.0 mm 0.00 in0.0 mm 0.00 in0.0 mm
03:33 PM 71.5°F21.9°C 49.5°F9.7°C 46% 9.0 mph SE14.5 kmh SE -- 29.96 in1014.6 mb 0.00 in0.0 mm 0.00 in0.0 mm 0.00 in0.0 mm
03:34 PM 70.9°F21.6°C 50.1°F10.1°C 48% 9.0 mph S14.5 kmh S -- 29.96 in1014.6 mb 0.00 in0.0 mm 0.00 in0.0 mm 0.00 in0.0 mm
03:35 PM 70.5°F21.4°C 49.8°F9.9°C 48% 7.0 mph SSE11.3 kmh SSE -- 29.96 in1014.6 mb 0.00 in0.0 mm 0.00 in0.0 mm 0.00 in0.0 mm
03:36 PM 70.9°F21.6°C 50.7°F10.4°C 49% 8.0 mph SSE12.9 kmh SSE -- 29.96 in1014.6 mb 0.00 in0.0 mm 0.00 in0.0 mm 0.00 in0.0 mm
03:37 PM 70.9°F21.6°C 50.7°F10.4°C 49% 6.0 mph SSW9.7 kmh SSW -- 29.96 in1014.6 mb 0.00 in0.0 mm 0.00 in0.0 mm 0.00 in0.0 mm
03:38 PM 71.1°F21.7°C 51.4°F10.8°C 50% 7.0 mph SSE11.3 kmh SSE -- 29.96 in1014.6 mb 0.00 in0.0 mm 0.00 in0.0 mm 0.00 in0.0 mm
03:39 PM 71.5°F21.9°C 51.2°F10.7°C 49% 13.0 mph SSE20.9 kmh SSE -- 29.96 in1014.6 mb 0.00 in0.0 mm 0.00 in0.0 mm 0.00 in0.0 mm
03:40 PM 71.9°F22.2°C 51.1°F10.6°C 48% 11.0 mph ESE17.7 kmh ESE -- 29.96 in1014.6 mb 0.00 in0.0 mm 0.00 in0.0 mm 0.00 in0.0 mm
03:41 PM 71.5°F21.9°C 50.6°F10.3°C 48% 6.0 mph ESE9.7 kmh ESE -- 29.96 in1014.6 mb 0.00 in0.0 mm 0.00 in0.0 mm 0.00 in0.0 mm
03:42 PM 71.4°F21.9°C 50.6°F10.3°C 48% 10.0 mph SSE16.1 kmh SSE -- 29.96 in1014.6 mb 0.00 in0.0 mm 0.00 in0.0 mm 0.00 in0.0 mm
03:43 PM 71.0°F21.7°C 50.3°F10.2°C 48% 10.0 mph SE16.1 kmh SE -- 29.96 in1014.6 mb 0.00 in0.0 mm 0.00 in0.0 mm 0.00 in0.0 mm
03:44 PM 70.5°F21.4°C 49.8°F9.9°C 48% 8.0 mph ESE12.9 kmh ESE -- 29.96 in1014.6 mb 0.00 in0.0 mm 0.00 in0.0 mm 0.00 in0.0 mm
03:45 PM 70.3°F21.3°C 50.2°F10.1°C 49% 9.0 mph SE14.5 kmh SE -- 29.97 in1014.9 mb 0.00 in0.0 mm 0.00 in0.0 mm 0.00 in0.0 mm
03:46 PM 69.8°F21.0°C 49.7°F9.8°C 49% 7.0 mph SE11.3 kmh SE -- 29.97 in1014.9 mb 0.00 in0.0 mm 0.00 in0.0 mm 0.00 in0.0 mm
03:47 PM 69.6°F20.9°C 49.5°F9.7°C 49% 5.0 mph SSE8.0 kmh SSE -- 29.97 in1014.9 mb 0.00 in0.0 mm 0.00 in0.0 mm 0.00 in0.0 mm
03:48 PM 69.4°F20.8°C 49.9°F9.9°C 50% 3.0 mph S4.8 kmh S -- 29.97 in1014.9 mb 0.00 in0.0 mm 0.00 in0.0 mm 0.00 in0.0 mm
03:49 PM 70.0°F21.1°C 50.4°F10.2°C 50% 9.0 mph ESE14.5 kmh ESE -- 29.97 in1014.9 mb 0.00 in0.0 mm 0.00 in0.0 mm 0.00 in0.0 mm
03:50 PM 69.8°F21.0°C 50.2°F10.1°C 50% 8.0 mph E12.9 kmh E -- 29.97 in1014.9 mb 0.00 in0.0 mm 0.00 in0.0 mm 0.00 in0.0 mm
03:51 PM 69.8°F21.0°C 49.7°F9.8°C 49% 3.0 mph E4.8 kmh E -- 29.98 in1015.2 mb 0.00 in0.0 mm 0.00 in0.0 mm 0.00 in0.0 mm
03:52 PM 68.6°F20.3°C 49.1°F9.5°C 50% 7.0 mph NW11.3 kmh NW -- 29.98 in1015.2 mb 0.00 in0.0 mm 0.00 in0.0 mm 0.00 in0.0 mm
03:53 PM 67.5°F19.7°C 49.6°F9.8°C 53% 13.0 mph NNW20.9 kmh NNW -- 29.98 in1015.2 mb 0.00 in0.0 mm 0.00 in0.0 mm 0.00 in0.0 mm
03:54 PM 65.6°F18.7°C 49.0°F9.4°C 55% 13.0 mph WNW20.9 kmh WNW -- 29.98 in1015.2 mb 0.00 in0.0 mm 0.00 in0.0 mm 0.00 in0.0 mm
03:55 PM 63.9°F17.7°C 47.8°F8.8°C 56% 11.0 mph NW17.7 kmh NW -- 29.98 in1015.2 mb 0.00 in0.0 mm 0.00 in0.0 mm 0.00 in0.0 mm
03:56 PM 63.2°F17.3°C 48.0°F8.9°C 58% 15.0 mph NE24.1 kmh NE -- 29.98 in1015.2 mb 0.00 in0.0 mm 0.00 in0.0 mm 0.00 in0.0 mm
03:57 PM 62.1°F16.7°C 47.9°F8.8°C 60% 9.0 mph 14.5 kmh -- 29.98 in1015.2 mb 0.00 in0.0 mm 0.00 in0.0 mm 0.00 in0.0 mm
03:58 PM 61.5°F16.4°C 47.8°F8.8°C 61% 15.0 mph NNW24.1 kmh NNW -- 29.98 in1015.2 mb 0.00 in0.0 mm 0.00 in0.0 mm 0.00 in0.0 mm
03:59 PM 60.3°F15.7°C 46.7°F8.2°C 61% 17.0 mph NNW27.4 kmh NNW -- 29.98 in1015.2 mb 0.00 in0.0 mm 0.00 in0.0 mm 0.00 in0.0 mm
04:00 PM 59.3°F15.2°C 46.7°F8.2°C 63% 17.0 mph NNW27.4 kmh NNW -- 29.98 in1015.2 mb 0.00 in0.0 mm 0.00 in0.0 mm 0.00 in0.0 mm
04:01 PM 58.8°F14.9°C 46.2°F7.9°C 63% 19.0 mph NE30.6 kmh NE -- 29.98 in1015.2 mb 0.00 in0.0 mm 0.00 in0.0 mm 0.00 in0.0 mm
04:02 PM 57.7°F14.3°C 46.0°F7.8°C 65% 23.0 mph WNW37.0 kmh WNW -- 29.98 in1015.2 mb 0.00 in0.0 mm 0.00 in0.0 mm 0.00 in0.0 mm
04:03 PM 56.7°F13.7°C 45.3°F7.4°C 66% 24.0 mph NNW38.6 kmh NNW -- 29.98 in1015.2 mb 0.00 in0.0 mm 0.00 in0.0 mm 0.00 in0.0 mm
04:04 PM 56.5°F13.6°C 45.2°F7.3°C 66% 23.0 mph NNE37.0 kmh NNE -- 29.97 in1014.9 mb 0.00 in0.0 mm 0.00 in0.0 mm 0.00 in0.0 mm
04:05 PM 55.7°F13.2°C 45.3°F7.4°C 68% 19.0 mph NNW30.6 kmh NNW -- 29.99 in1015.6 mb 0.00 in0.0 mm 0.00 in0.0 mm 0.00 in0.0 mm
04:06 PM 55.3°F12.9°C 44.7°F7.1°C 68% 19.0 mph 30.6 kmh -- 29.98 in1015.2 mb 0.00 in0.0 mm 0.00 in0.0 mm 0.00 in0.0 mm
04:07 PM 55.1°F12.8°C 45.0°F7.2°C 69% 21.0 mph NNW33.8 kmh NNW -- 29.99 in1015.6 mb 0.00 in0.0 mm 0.00 in0.0 mm 0.00 in0.0 mm
04:08 PM 54.9°F12.7°C 44.8°F7.1°C 69% 19.0 mph NNE30.6 kmh NNE -- 29.98 in1015.2 mb 0.00 in0.0 mm 0.00 in0.0 mm 0.00 in0.0 mm
04:09 PM 54.4°F12.4°C 44.3°F6.8°C 69% 17.0 mph 27.4 kmh -- 30.00 in1015.9 mb 0.00 in0.0 mm 0.00 in0.0 mm 0.00 in0.0 mm
04:10 PM 54.2°F12.3°C 44.5°F6.9°C 70% 13.0 mph NNW20.9 kmh NNW -- 29.98 in1015.2 mb 0.00 in0.0 mm 0.00 in0.0 mm 0.00 in0.0 mm
04:11 PM 54.0°F12.2°C 44.3°F6.8°C 70% 19.0 mph NNW30.6 kmh NNW -- 30.00 in1015.9 mb 0.00 in0.0 mm 0.00 in0.0 mm 0.00 in0.0 mm
04:12 PM 53.8°F12.1°C 44.1°F6.7°C 70% 17.0 mph NNW27.4 kmh NNW -- 29.99 in1015.6 mb 0.00 in0.0 mm 0.00 in0.0 mm 0.00 in0.0 mm
04:13 PM 53.4°F11.9°C 43.8°F6.6°C 70% 17.0 mph 27.4 kmh -- 30.00 in1015.9 mb 0.00 in0.0 mm 0.00 in0.0 mm 0.00 in0.0 mm
04:14 PM 53.4°F11.9°C 43.8°F6.6°C 70% 17.0 mph ESE27.4 kmh ESE -- 30.00 in1015.9 mb 0.00 in0.0 mm 0.00 in0.0 mm 0.00 in0.0 mm
04:15 PM 53.4°F11.9°C 43.8°F6.6°C 70% 19.0 mph NW30.6 kmh NW -- 30.00 in1015.9 mb 0.00 in0.0 mm 0.00 in0.0 mm 0.00 in0.0 mm
04:16 PM 53.2°F11.8°C 43.6°F6.4°C 70% 15.0 mph 24.1 kmh -- 30.00 in1015.9 mb 0.00 in0.0 mm 0.00 in0.0 mm 0.00 in0.0 mm
04:17 PM 53.2°F11.8°C 44.0°F6.7°C 71% 10.0 mph 16.1 kmh -- 30.00 in1015.9 mb 0.00 in0.0 mm 0.00 in0.0 mm 0.00 in0.0 mm
04:18 PM 53.2°F11.8°C 44.0°F6.7°C 71% 15.0 mph 24.1 kmh -- 29.99 in1015.6 mb 0.00 in0.0 mm 0.00 in0.0 mm 0.00 in0.0 mm
04:19 PM 53.1°F11.7°C 43.8°F6.6°C 71% 20.0 mph 32.2 kmh -- 30.00 in1015.9 mb 0.00 in0.0 mm 0.00 in0.0 mm 0.00 in0.0 mm
04:20 PM 53.1°F11.7°C 43.8°F6.6°C 71% 19.0 mph 30.6 kmh -- 30.00 in1015.9 mb 0.00 in0.0 mm 0.00 in0.0 mm 0.00 in0.0 mm
04:22 PM 53.5°F11.9°C 44.2°F6.8°C 71% 18.0 mph NNE29.0 kmh NNE -- 30.00 in1015.9 mb 0.00 in0.0 mm 0.00 in0.0 mm 0.00 in0.0 mm
04:23 PM 53.8°F12.1°C 44.1°F6.7°C 70% 27.0 mph ENE43.5 kmh ENE -- 30.00 in1015.9 mb 0.00 in0.0 mm 0.00 in0.0 mm 0.00 in0.0 mm
04:24 PM 53.8°F12.1°C 44.1°F6.7°C 70% 18.0 mph NNE29.0 kmh NNE -- 30.00 in1015.9 mb 0.00 in0.0 mm 0.00 in0.0 mm 0.00 in0.0 mm
04:25 PM 54.0°F12.2°C 44.3°F6.8°C 70% 17.0 mph NNE27.4 kmh NNE -- 30.00 in1015.9 mb 0.00 in0.0 mm 0.00 in0.0 mm 0.00 in0.0 mm
04:26 PM 54.9°F12.7°C 44.8°F7.1°C 69% 18.0 mph 29.0 kmh -- 29.99 in1015.6 mb 0.00 in0.0 mm 0.00 in0.0 mm 0.00 in0.0 mm
04:27 PM 55.1°F12.8°C 44.6°F7.0°C 68% 13.0 mph NW20.9 kmh NW -- 30.00 in1015.9 mb 0.00 in0.0 mm 0.00 in0.0 mm 0.00 in0.0 mm
04:28 PM 55.3°F12.9°C 44.7°F7.1°C 68% 18.0 mph NNE29.0 kmh NNE -- 30.00 in1015.9 mb 0.00 in0.0 mm 0.00 in0.0 mm 0.00 in0.0 mm
04:29 PM 55.5°F13.1°C 45.1°F7.3°C 68% 15.0 mph NNW24.1 kmh NNW -- 29.99 in1015.6 mb 0.00 in0.0 mm 0.00 in0.0 mm 0.00 in0.0 mm
04:30 PM 55.5°F13.1°C 45.1°F7.3°C 68% 19.0 mph NE30.6 kmh NE -- 29.99 in1015.6 mb 0.00 in0.0 mm 0.00 in0.0 mm 0.00 in0.0 mm
04:31 PM 55.5°F13.1°C 45.1°F7.3°C 68% 16.0 mph NNE25.7 kmh NNE -- 29.99 in1015.6 mb 0.00 in0.0 mm 0.00 in0.0 mm 0.00 in0.0 mm
04:32 PM 55.7°F13.2°C 45.3°F7.4°C 68% 17.0 mph NE27.4 kmh NE -- 29.99 in1015.6 mb 0.00 in0.0 mm 0.00 in0.0 mm 0.00 in0.0 mm
04:33 PM 55.3°F12.9°C 44.7°F7.1°C 68% 18.0 mph NNE29.0 kmh NNE -- 29.99 in1015.6 mb 0.00 in0.0 mm 0.00 in0.0 mm 0.00 in0.0 mm
04:34 PM 55.3°F12.9°C 45.1°F7.3°C 69% 18.0 mph NNE29.0 kmh NNE -- 29.99 in1015.6 mb 0.00 in0.0 mm 0.00 in0.0 mm 0.00 in0.0 mm
04:35 PM 55.1°F12.8°C 45.0°F7.2°C 69% 15.0 mph NNW24.1 kmh NNW -- 29.99 in1015.6 mb 0.00 in0.0 mm 0.00 in0.0 mm 0.00 in0.0 mm
04:36 PM 54.9°F12.7°C 45.2°F7.3°C 70% 21.0 mph NNE33.8 kmh NNE -- 29.99 in1015.6 mb 0.00 in0.0 mm 0.00 in0.0 mm 0.00 in0.0 mm
04:37 PM 54.2°F12.3°C 44.5°F6.9°C 70% 26.0 mph NNW41.8 kmh NNW -- 30.00 in1015.9 mb 0.00 in0.0 mm 0.00 in0.0 mm 0.00 in0.0 mm
04:38 PM 54.0°F12.2°C 44.3°F6.8°C 70% 21.0 mph NNE33.8 kmh NNE -- 30.00 in1015.9 mb 0.00 in0.0 mm 0.00 in0.0 mm 0.00 in0.0 mm
04:39 PM 53.2°F11.8°C 44.0°F6.7°C 71% 17.0 mph NNW27.4 kmh NNW -- 30.00 in1015.9 mb 0.00 in0.0 mm 0.00 in0.0 mm 0.00 in0.0 mm
04:40 PM 53.1°F11.7°C 44.6°F7.0°C 73% 21.0 mph NNE33.8 kmh NNE -- 30.00 in1015.9 mb 0.00 in0.0 mm 0.00 in0.0 mm 0.00 in0.0 mm
04:41 PM 52.8°F11.6°C 44.4°F6.9°C 73% 15.0 mph NNE24.1 kmh NNE -- 30.00 in1015.9 mb 0.00 in0.0 mm 0.00 in0.0 mm 0.00 in0.0 mm
04:42 PM 52.6°F11.4°C 44.0°F6.7°C 73% 17.0 mph NW27.4 kmh NW -- 30.00 in1015.9 mb 0.00 in0.0 mm 0.00 in0.0 mm 0.00 in0.0 mm
04:43 PM 52.5°F11.4°C 44.4°F6.9°C 74% 17.0 mph 27.4 kmh -- 30.01 in1016.3 mb 0.00 in0.0 mm 0.00 in0.0 mm 0.00 in0.0 mm
04:44 PM 52.3°F11.3°C 44.6°F7.0°C 75% 18.0 mph NNE29.0 kmh NNE -- 30.01 in1016.3 mb 0.00 in0.0 mm 0.00 in0.0 mm 0.00 in0.0 mm
04:45 PM 51.9°F11.1°C 44.6°F7.0°C 76% 24.0 mph NNE38.6 kmh NNE -- 30.00 in1015.9 mb 0.00 in0.0 mm 0.00 in0.0 mm 0.00 in0.0 mm
04:46 PM 51.8°F11.0°C 45.4°F7.4°C 79% 16.0 mph NNW25.7 kmh NNW -- 30.00 in1015.9 mb 0.00 in0.0 mm 0.00 in0.0 mm 0.00 in0.0 mm
04:47 PM 51.8°F11.0°C 46.1°F7.8°C 81% 15.0 mph NNW24.1 kmh NNW -- 30.00 in1015.9 mb 0.00 in0.0 mm 0.00 in0.0 mm 0.00 in0.0 mm
04:48 PM 51.5°F10.8°C 45.7°F7.6°C 81% 19.0 mph NNE30.6 kmh NNE -- 30.00 in1015.9 mb 0.00 in0.0 mm 0.00 in0.0 mm 0.00 in0.0 mm
04:49 PM 51.5°F10.8°C 46.4°F8.0°C 83% 17.0 mph NNE27.4 kmh NNE -- 30.00 in1015.9 mb 0.00 in0.0 mm 0.00 in0.0 mm 0.00 in0.0 mm
04:50 PM 51.5°F10.8°C 46.4°F8.0°C 83% 24.0 mph NNW38.6 kmh NNW -- 30.00 in1015.9 mb 0.00 in0.0 mm 0.00 in0.0 mm 0.00 in0.0 mm
04:51 PM 51.5°F10.8°C 46.4°F8.0°C 83% 15.0 mph NW24.1 kmh NW -- 30.00 in1015.9 mb 0.00 in0.0 mm 0.00 in0.0 mm 0.00 in0.0 mm
04:52 PM 51.8°F11.0°C 46.7°F8.2°C 83% 17.0 mph 27.4 kmh -- 30.00 in1015.9 mb 0.00 in0.0 mm 0.00 in0.0 mm 0.00 in0.0 mm
04:53 PM 51.8°F11.0°C 47.4°F8.6°C 85% 23.0 mph NNE37.0 kmh NNE -- 30.00 in1015.9 mb 0.00 in0.0 mm 0.00 in0.0 mm 0.00 in0.0 mm
04:54 PM 51.8°F11.0°C 47.4°F8.6°C 85% 24.0 mph NNW38.6 kmh NNW -- 30.00 in1015.9 mb 0.00 in0.0 mm 0.00 in0.0 mm 0.00 in0.0 mm
04:55 PM 51.8°F11.0°C 47.4°F8.6°C 85% 16.0 mph NNW25.7 kmh NNW -- 30.01 in1016.3 mb 0.00 in0.0 mm 0.00 in0.0 mm 0.00 in0.0 mm
04:56 PM 51.9°F11.1°C 47.6°F8.7°C 85% 16.0 mph NNE25.7 kmh NNE -- 30.01 in1016.3 mb 0.00 in0.0 mm 0.00 in0.0 mm 0.00 in0.0 mm
04:57 PM 52.2°F11.2°C 47.7°F8.7°C 85% 16.0 mph NNW25.7 kmh NNW -- 30.01 in1016.3 mb 0.00 in0.0 mm 0.00 in0.0 mm 0.00 in0.0 mm
04:58 PM 52.2°F11.2°C 47.7°F8.7°C 85% 17.0 mph NNE27.4 kmh NNE -- 30.01 in1016.3 mb 0.00 in0.0 mm 0.00 in0.0 mm 0.00 in0.0 mm
04:59 PM 52.3°F11.3°C 47.9°F8.8°C 85% 19.0 mph NE30.6 kmh NE -- 30.01 in1016.3 mb 0.00 in0.0 mm 0.00 in0.0 mm 0.00 in0.0 mm
05:00 PM 52.6°F11.4°C 48.1°F8.9°C 85% 15.0 mph NNE24.1 kmh NNE -- 30.01 in1016.3 mb 0.00 in0.0 mm 0.00 in0.0 mm 0.00 in0.0 mm
05:01 PM 52.8°F11.6°C 47.8°F8.8°C 83% 16.0 mph 25.7 kmh -- 30.00 in1015.9 mb 0.00 in0.0 mm 0.00 in0.0 mm 0.00 in0.0 mm
05:02 PM 52.8°F11.6°C 47.8°F8.8°C 83% 16.0 mph NNW25.7 kmh NNW -- 30.00 in1015.9 mb 0.00 in0.0 mm 0.00 in0.0 mm 0.00 in0.0 mm
05:03 PM 53.1°F11.7°C 48.0°F8.9°C 83% 17.0 mph NNE27.4 kmh NNE -- 29.99 in1015.6 mb 0.00 in0.0 mm 0.00 in0.0 mm 0.00 in0.0 mm
05:04 PM 53.2°F11.8°C 48.2°F9.0°C 83% 15.0 mph NNE24.1 kmh NNE -- 30.00 in1015.9 mb 0.00 in0.0 mm 0.00 in0.0 mm 0.00 in0.0 mm
05:05 PM 53.4°F11.9°C 47.7°F8.7°C 81% 16.0 mph NNE25.7 kmh NNE -- 30.00 in1015.9 mb 0.00 in0.0 mm 0.00 in0.0 mm 0.00 in0.0 mm
05:06 PM 53.2°F11.8°C 47.5°F8.6°C 81% 10.0 mph NNE16.1 kmh NNE -- 30.00 in1015.9 mb 0.00 in0.0 mm 0.00 in0.0 mm 0.00 in0.0 mm
05:07 PM 53.4°F11.9°C 47.7°F8.7°C 81% 16.0 mph 25.7 kmh -- 30.00 in1015.9 mb 0.00 in0.0 mm 0.00 in0.0 mm 0.00 in0.0 mm
05:08 PM 53.5°F11.9°C 47.7°F8.7°C 81% 13.0 mph NNE20.9 kmh NNE -- 30.00 in1015.9 mb 0.00 in0.0 mm 0.00 in0.0 mm 0.00 in0.0 mm
05:09 PM 53.5°F11.9°C 47.7°F8.7°C 81% 18.0 mph NNE29.0 kmh NNE -- 30.00 in1015.9 mb 0.00 in0.0 mm 0.00 in0.0 mm 0.00 in0.0 mm
05:10 PM 53.4°F11.9°C 47.3°F8.5°C 80% 17.0 mph NNW27.4 kmh NNW -- 30.00 in1015.9 mb 0.00 in0.0 mm 0.00 in0.0 mm 0.00 in0.0 mm
05:11 PM 53.4°F11.9°C 47.3°F8.5°C 80% 11.0 mph NNW17.7 kmh NNW -- 30.00 in1015.9 mb 0.00 in0.0 mm 0.00 in0.0 mm 0.00 in0.0 mm
05:12 PM 53.4°F11.9°C 47.3°F8.5°C 80% 11.0 mph WNW17.7 kmh WNW -- 30.01 in1016.3 mb 0.00 in0.0 mm 0.00 in0.0 mm 0.00 in0.0 mm
05:13 PM 53.5°F11.9°C 47.3°F8.5°C 80% 22.0 mph NNE35.4 kmh NNE -- 30.00 in1015.9 mb 0.00 in0.0 mm 0.00 in0.0 mm 0.00 in0.0 mm
05:14 PM 53.4°F11.9°C 47.0°F8.3°C 79% 16.0 mph 25.7 kmh -- 30.00 in1015.9 mb 0.00 in0.0 mm 0.00 in0.0 mm 0.00 in0.0 mm
05:15 PM 53.4°F11.9°C 47.0°F8.3°C 79% 19.0 mph NNE30.6 kmh NNE -- 30.00 in1015.9 mb 0.00 in0.0 mm 0.00 in0.0 mm 0.00 in0.0 mm
05:16 PM 53.4°F11.9°C 47.0°F8.3°C 79% 16.0 mph 25.7 kmh -- 30.00 in1015.9 mb 0.00 in0.0 mm 0.00 in0.0 mm 0.00 in0.0 mm
05:17 PM 53.4°F11.9°C 47.0°F8.3°C 79% 14.0 mph 22.5 kmh -- 30.00 in1015.9 mb 0.00 in0.0 mm 0.00 in0.0 mm 0.00 in0.0 mm
05:18 PM 53.1°F11.7°C 47.0°F8.3°C 80% 12.0 mph NNE19.3 kmh NNE -- 30.00 in1015.9 mb 0.00 in0.0 mm 0.00 in0.0 mm 0.00 in0.0 mm
05:19 PM 52.6°F11.4°C 46.5°F8.1°C 80% 21.0 mph NNE33.8 kmh NNE -- 30.00 in1015.9 mb 0.00 in0.0 mm 0.00 in0.0 mm 0.00 in0.0 mm
05:20 PM 52.3°F11.3°C 46.3°F7.9°C 80% 19.0 mph NNE30.6 kmh NNE -- 30.00 in1015.9 mb 0.00 in0.0 mm 0.00 in0.0 mm 0.00 in0.0 mm
05:21 PM 52.2°F11.2°C 46.1°F7.8°C 80% 17.0 mph NW27.4 kmh NW -- 29.99 in1015.6 mb 0.00 in0.0 mm 0.00 in0.0 mm 0.00 in0.0 mm
05:22 PM 52.3°F11.3°C 46.3°F7.9°C 80% 18.0 mph NNE29.0 kmh NNE -- 30.00 in1015.9 mb 0.00 in0.0 mm 0.00 in0.0 mm 0.00 in0.0 mm
05:23 PM 52.3°F11.3°C 46.0°F7.8°C 79% 21.0 mph 33.8 kmh -- 30.00 in1015.9 mb 0.00 in0.0 mm 0.00 in0.0 mm 0.00 in0.0 mm
05:24 PM 52.2°F11.2°C 45.8°F7.7°C 79% 16.0 mph NNE25.7 kmh NNE -- 30.00 in1015.9 mb 0.00 in0.0 mm 0.00 in0.0 mm 0.00 in0.0 mm
05:25 PM 51.9°F11.1°C 45.6°F7.6°C 79% 20.0 mph NNE32.2 kmh NNE -- 30.00 in1015.9 mb 0.00 in0.0 mm 0.00 in0.0 mm 0.00 in0.0 mm
05:26 PM 51.9°F11.1°C 45.9°F7.7°C 80% 14.0 mph 22.5 kmh -- 30.00 in1015.9 mb 0.00 in0.0 mm 0.00 in0.0 mm 0.00 in0.0 mm
05:27 PM 51.9°F11.1°C 45.9°F7.7°C 80% 15.0 mph NNW24.1 kmh NNW -- 30.00 in1015.9 mb 0.00 in0.0 mm 0.00 in0.0 mm 0.00 in0.0 mm
05:28 PM 52.2°F11.2°C 46.4°F8.0°C 81% 20.0 mph NNE32.2 kmh NNE -- 30.00 in1015.9 mb 0.00 in0.0 mm 0.00 in0.0 mm 0.00 in0.0 mm
05:29 PM 52.2°F11.2°C 46.4°F8.0°C 81% 18.0 mph NNW29.0 kmh NNW -- 30.00 in1015.9 mb 0.00 in0.0 mm 0.00 in0.0 mm 0.00 in0.0 mm
05:30 PM 51.9°F11.1°C 45.9°F7.7°C 80% 14.0 mph NNE22.5 kmh NNE -- 30.00 in1015.9 mb 0.00 in0.0 mm 0.00 in0.0 mm 0.00 in0.0 mm
05:31 PM 51.8°F11.0°C 46.1°F7.8°C 81% 18.0 mph 29.0 kmh -- 30.00 in1015.9 mb 0.00 in0.0 mm 0.00 in0.0 mm 0.00 in0.0 mm
05:32 PM 51.5°F10.8°C 45.7°F7.6°C 81% 24.0 mph NE38.6 kmh NE -- 30.01 in1016.3 mb 0.00 in0.0 mm 0.00 in0.0 mm 0.00 in0.0 mm
05:33 PM 51.4°F10.8°C 45.7°F7.6°C 81% 10.0 mph NNW16.1 kmh NNW -- 30.00 in1015.9 mb 0.00 in0.0 mm 0.00 in0.0 mm 0.00 in0.0 mm
05:34 PM 51.3°F10.7°C 45.6°F7.6°C 81% 17.0 mph NNW27.4 kmh NNW -- 30.00 in1015.9 mb 0.00 in0.0 mm 0.00 in0.0 mm 0.00 in0.0 mm
05:35 PM 51.0°F10.6°C 45.4°F7.4°C 81% 17.0 mph NNE27.4 kmh NNE -- 30.00 in1015.9 mb 0.00 in0.0 mm 0.00 in0.0 mm 0.00 in0.0 mm
05:36 PM 50.9°F10.5°C 45.2°F7.3°C 81% 15.0 mph 24.1 kmh -- 30.00 in1015.9 mb 0.00 in0.0 mm 0.00 in0.0 mm 0.00 in0.0 mm
05:37 PM 51.0°F10.6°C 45.4°F7.4°C 81% 15.0 mph NNE24.1 kmh NNE -- 30.00 in1015.9 mb 0.00 in0.0 mm 0.00 in0.0 mm 0.00 in0.0 mm
05:38 PM 51.3°F10.7°C 45.6°F7.6°C 81% 11.0 mph 17.7 kmh -- 30.00 in1015.9 mb 0.00 in0.0 mm 0.00 in0.0 mm 0.00 in0.0 mm
05:39 PM 51.5°F10.8°C 45.4°F7.4°C 80% 20.0 mph NE32.2 kmh NE -- 30.00 in1015.9 mb 0.00 in0.0 mm 0.00 in0.0 mm 0.00 in0.0 mm
05:40 PM 51.8°F11.0°C 45.4°F7.4°C 79% 16.0 mph 25.7 kmh -- 30.01 in1016.3 mb 0.00 in0.0 mm 0.00 in0.0 mm 0.00 in0.0 mm
05:41 PM 51.5°F10.8°C 45.4°F7.4°C 80% 19.0 mph NW30.6 kmh NW -- 30.00 in1015.9 mb 0.00 in0.0 mm 0.00 in0.0 mm 0.00 in0.0 mm
05:42 PM 51.4°F10.8°C 45.4°F7.4°C 80% 13.0 mph NNW20.9 kmh NNW -- 30.00 in1015.9 mb 0.00 in0.0 mm 0.00 in0.0 mm 0.00 in0.0 mm
05:43 PM 51.4°F10.8°C 45.4°F7.4°C 80% 10.0 mph 16.1 kmh -- 30.00 in1015.9 mb 0.00 in0.0 mm 0.00 in0.0 mm 0.00 in0.0 mm
05:44 PM 51.3°F10.7°C 45.2°F7.3°C 80% 12.0 mph NE19.3 kmh NE -- 30.01 in1016.3 mb 0.00 in0.0 mm 0.00 in0.0 mm 0.00 in0.0 mm
05:45 PM 51.3°F10.7°C 45.2°F7.3°C 80% 15.0 mph NNW24.1 kmh NNW -- 30.00 in1015.9 mb 0.00 in0.0 mm 0.00 in0.0 mm 0.00 in0.0 mm
05:46 PM 51.0°F10.6°C 45.1°F7.3°C 80% 17.0 mph 27.4 kmh -- 30.00 in1015.9 mb 0.00 in0.0 mm 0.00 in0.0 mm 0.00 in0.0 mm
05:47 PM 50.9°F10.5°C 44.9°F7.2°C 80% 11.0 mph NE17.7 kmh NE -- 30.00 in1015.9 mb 0.00 in0.0 mm 0.00 in0.0 mm 0.00 in0.0 mm
05:48 PM 50.9°F10.5°C 45.2°F7.3°C 81% 11.0 mph WNW17.7 kmh WNW -- 30.00 in1015.9 mb 0.00 in0.0 mm 0.00 in0.0 mm 0.00 in0.0 mm
05:49 PM 50.9°F10.5°C 45.2°F7.3°C 81% 19.0 mph 30.6 kmh -- 30.00 in1015.9 mb 0.00 in0.0 mm 0.00 in0.0 mm 0.00 in0.0 mm
05:50 PM 50.7°F10.4°C 45.0°F7.2°C 81% 16.0 mph NNE25.7 kmh NNE -- 30.00 in1015.9 mb 0.00 in0.0 mm 0.00 in0.0 mm 0.00 in0.0 mm
05:51 PM 50.7°F10.4°C 45.0°F7.2°C 81% 12.0 mph NE19.3 kmh NE -- 30.00 in1015.9 mb 0.00 in0.0 mm 0.00 in0.0 mm 0.00 in0.0 mm
05:52 PM 50.9°F10.5°C 45.2°F7.3°C 81% 12.0 mph NNW19.3 kmh NNW -- 30.00 in1015.9 mb 0.00 in0.0 mm 0.00 in0.0 mm 0.00 in0.0 mm
05:53 PM 50.9°F10.5°C 44.9°F7.2°C 80% 11.0 mph 17.7 kmh -- 30.00 in1015.9 mb 0.00 in0.0 mm 0.00 in0.0 mm 0.00 in0.0 mm
05:54 PM 50.9°F10.5°C 45.2°F7.3°C 81% 16.0 mph NNE25.7 kmh NNE -- 30.00 in1015.9 mb 0.00 in0.0 mm 0.00 in0.0 mm 0.00 in0.0 mm
05:55 PM 50.9°F10.5°C 45.2°F7.3°C 81% 13.0 mph 20.9 kmh -- 30.00 in1015.9 mb 0.00 in0.0 mm 0.00 in0.0 mm 0.00 in0.0 mm
05:56 PM 50.9°F10.5°C 45.2°F7.3°C 81% 13.0 mph NNE20.9 kmh NNE -- 30.00 in1015.9 mb 0.00 in0.0 mm 0.00 in0.0 mm 0.00 in0.0 mm
05:57 PM 50.9°F10.5°C 45.2°F7.3°C 81% 12.0 mph NNW19.3 kmh NNW -- 30.00 in1015.9 mb 0.00 in0.0 mm 0.00 in0.0 mm 0.00 in0.0 mm
05:58 PM 50.5°F10.3°C 44.9°F7.2°C 81% 15.0 mph NNW24.1 kmh NNW -- 30.00 in1015.9 mb 0.00 in0.0 mm 0.00 in0.0 mm 0.00 in0.0 mm
05:59 PM 50.3°F10.2°C 44.7°F7.1°C 81% 15.0 mph NNE24.1 kmh NNE -- 30.00 in1015.9 mb 0.00 in0.0 mm 0.00 in0.0 mm 0.00 in0.0 mm
06:00 PM 50.0°F10.0°C 45.0°F7.2°C 83% 16.0 mph NNE25.7 kmh NNE -- 30.00 in1015.9 mb 0.00 in0.0 mm 0.00 in0.0 mm 0.00 in0.0 mm
06:01 PM 49.8°F9.9°C 44.8°F7.1°C 83% 13.0 mph NNE20.9 kmh NNE -- 30.00 in1015.9 mb 0.00 in0.0 mm 0.00 in0.0 mm 0.00 in0.0 mm
06:02 PM 49.6°F9.8°C 44.6°F7.0°C 83% 17.0 mph NNE27.4 kmh NNE -- 30.00 in1015.9 mb 0.00 in0.0 mm 0.00 in0.0 mm 0.00 in0.0 mm
06:03 PM 49.6°F9.8°C 44.6°F7.0°C 83% 15.0 mph 24.1 kmh -- 30.00 in1015.9 mb 0.00 in0.0 mm 0.00 in0.0 mm 0.00 in0.0 mm
06:04 PM 49.6°F9.8°C 45.3°F7.4°C 85% 11.0 mph NNE17.7 kmh NNE -- 30.00 in1015.9 mb 0.00 in0.0 mm 0.00 in0.0 mm 0.00 in0.0 mm
06:05 PM 49.6°F9.8°C 45.3°F7.4°C 85% 16.0 mph NE25.7 kmh NE -- 30.00 in1015.9 mb 0.00 in0.0 mm 0.00 in0.0 mm 0.00 in0.0 mm
06:06 PM 49.4°F9.7°C 45.1°F7.3°C 85% 15.0 mph 24.1 kmh -- 30.00 in1015.9 mb 0.00 in0.0 mm 0.00 in0.0 mm 0.00 in0.0 mm
06:07 PM 49.4°F9.7°C 45.1°F7.3°C 85% 13.0 mph NNE20.9 kmh NNE -- 30.00 in1015.9 mb 0.00 in0.0 mm 0.00 in0.0 mm 0.00 in0.0 mm
06:08 PM 49.2°F9.6°C 44.9°F7.2°C 85% 13.0 mph NNE20.9 kmh NNE -- 30.00 in1015.9 mb 0.00 in0.0 mm 0.00 in0.0 mm 0.00 in0.0 mm
06:09 PM 49.2°F9.6°C 44.9°F7.2°C 85% 9.0 mph NNE14.5 kmh NNE -- 30.01 in1016.3 mb 0.00 in0.0 mm 0.00 in0.0 mm 0.00 in0.0 mm
06:10 PM 49.2°F9.6°C 44.9°F7.2°C 85% 16.0 mph NNE25.7 kmh NNE -- 30.01 in1016.3 mb 0.00 in0.0 mm 0.00 in0.0 mm 0.00 in0.0 mm
06:11 PM 49.2°F9.6°C 44.9°F7.2°C 85% 14.0 mph NNE22.5 kmh NNE -- 30.01 in1016.3 mb 0.00 in0.0 mm 0.00 in0.0 mm 0.00 in0.0 mm
06:12 PM 49.2°F9.6°C 45.2°F7.3°C 86% 12.0 mph NW19.3 kmh NW -- 30.01 in1016.3 mb 0.00 in0.0 mm 0.00 in0.0 mm 0.00 in0.0 mm
06:13 PM 49.2°F9.6°C 45.2°F7.3°C 86% 8.0 mph ENE12.9 kmh ENE -- 30.01 in1016.3 mb 0.00 in0.0 mm 0.00 in0.0 mm 0.00 in0.0 mm
06:14 PM 49.2°F9.6°C 45.2°F7.3°C 86% 7.0 mph NW11.3 kmh NW -- 30.01 in1016.3 mb 0.00 in0.0 mm 0.00 in0.0 mm 0.00 in0.0 mm
06:15 PM 49.0°F9.4°C 44.9°F7.2°C 86% 13.0 mph NNE20.9 kmh NNE -- 30.01 in1016.3 mb 0.00 in0.0 mm 0.00 in0.0 mm 0.00 in0.0 mm
06:16 PM 49.0°F9.4°C 44.9°F7.2°C 86% 9.0 mph NE14.5 kmh NE -- 30.01 in1016.3 mb 0.00 in0.0 mm 0.00 in0.0 mm 0.00 in0.0 mm
06:17 PM 49.0°F9.4°C 44.9°F7.2°C 86% 12.0 mph 19.3 kmh -- 30.01 in1016.3 mb 0.00 in0.0 mm 0.00 in0.0 mm 0.00 in0.0 mm
06:18 PM 49.0°F9.4°C 44.9°F7.2°C 86% 7.0 mph NNE11.3 kmh NNE -- 30.01 in1016.3 mb 0.00 in0.0 mm 0.00 in0.0 mm 0.00 in0.0 mm
06:19 PM 48.9°F9.4°C 44.9°F7.2°C 86% 12.0 mph NNE19.3 kmh NNE -- 30.00 in1015.9 mb 0.00 in0.0 mm 0.00 in0.0 mm 0.00 in0.0 mm
06:20 PM 48.9°F9.4°C 44.9°F7.2°C 86% 13.0 mph NNE20.9 kmh NNE -- 30.00 in1015.9 mb 0.00 in0.0 mm 0.00 in0.0 mm 0.00 in0.0 mm
06:21 PM 48.9°F9.4°C 44.9°F7.2°C 86% 7.0 mph NNE11.3 kmh NNE -- 30.01 in1016.3 mb 0.00 in0.0 mm 0.00 in0.0 mm 0.00 in0.0 mm
06:22 PM 48.9°F9.4°C 44.9°F7.2°C 86% 4.0 mph NNE6.4 kmh NNE -- 30.01 in1016.3 mb 0.00 in0.0 mm 0.00 in0.0 mm 0.00 in0.0 mm
06:23 PM 48.9°F9.4°C 44.9°F7.2°C 86% 13.0 mph 20.9 kmh -- 30.02 in1016.6 mb 0.00 in0.0 mm 0.00 in0.0 mm 0.00 in0.0 mm
06:24 PM 48.9°F9.4°C 44.9°F7.2°C 86% 9.0 mph 14.5 kmh -- 30.02 in1016.6 mb 0.00 in0.0 mm 0.00 in0.0 mm 0.00 in0.0 mm
06:25 PM 48.9°F9.4°C 44.9°F7.2°C 86% 14.0 mph NE22.5 kmh NE -- 30.02 in1016.6 mb 0.00 in0.0 mm 0.00 in0.0 mm 0.00 in0.0 mm
06:26 PM 48.6°F9.2°C 44.5°F6.9°C 86% 15.0 mph NNE24.1 kmh NNE -- 30.02 in1016.6 mb 0.00 in0.0 mm 0.00 in0.0 mm 0.00 in0.0 mm
06:27 PM 48.5°F9.2°C 44.5°F6.9°C 86% 16.0 mph NNW25.7 kmh NNW -- 30.02 in1016.6 mb 0.00 in0.0 mm 0.00 in0.0 mm 0.00 in0.0 mm
06:28 PM 48.5°F9.2°C 44.5°F6.9°C 86% 13.0 mph NNW20.9 kmh NNW -- 30.02 in1016.6 mb 0.00 in0.0 mm 0.00 in0.0 mm 0.00 in0.0 mm
06:29 PM 48.5°F9.2°C 44.5°F6.9°C 86% 9.0 mph 14.5 kmh -- 30.02 in1016.6 mb 0.00 in0.0 mm 0.00 in0.0 mm 0.00 in0.0 mm
06:30 PM 48.5°F9.2°C 44.5°F6.9°C 86% 11.0 mph NNE17.7 kmh NNE -- 30.02 in1016.6 mb 0.00 in0.0 mm 0.00 in0.0 mm 0.00 in0.0 mm
06:31 PM 48.5°F9.2°C 44.5°F6.9°C 86% 9.0 mph NNE14.5 kmh NNE -- 30.03 in1016.9 mb 0.00 in0.0 mm 0.00 in0.0 mm 0.00 in0.0 mm
06:32 PM 48.5°F9.2°C 44.5°F6.9°C 86% 8.0 mph NNE12.9 kmh NNE -- 30.03 in1016.9 mb 0.00 in0.0 mm 0.00 in0.0 mm 0.00 in0.0 mm
06:33 PM 48.5°F9.2°C 44.5°F6.9°C 86% 11.0 mph 17.7 kmh -- 30.03 in1016.9 mb 0.00 in0.0 mm 0.00 in0.0 mm 0.00 in0.0 mm
06:34 PM 48.4°F9.1°C 44.3°F6.8°C 86% 16.0 mph 25.7 kmh -- 30.03 in1016.9 mb 0.00 in0.0 mm 0.00 in0.0 mm 0.00 in0.0 mm
06:35 PM 48.4°F9.1°C 45.0°F7.2°C 88% 15.0 mph NNE24.1 kmh NNE -- 30.03 in1016.9 mb 0.00 in0.0 mm 0.00 in0.0 mm 0.00 in0.0 mm
06:36 PM 48.2°F9.0°C 44.8°F7.1°C 88% 12.0 mph WNW19.3 kmh WNW -- 30.02 in1016.6 mb 0.00 in0.0 mm 0.00 in0.0 mm 0.00 in0.0 mm
06:37 PM 48.2°F9.0°C 44.8°F7.1°C 88% 12.0 mph NW19.3 kmh NW -- 30.03 in1016.9 mb 0.00 in0.0 mm 0.00 in0.0 mm 0.00 in0.0 mm
06:38 PM 48.2°F9.0°C 44.8°F7.1°C 88% 17.0 mph NNE27.4 kmh NNE -- 30.03 in1016.9 mb 0.00 in0.0 mm 0.00 in0.0 mm 0.00 in0.0 mm
06:39 PM 48.0°F8.9°C 44.6°F7.0°C 88% 13.0 mph NNW20.9 kmh NNW -- 30.02 in1016.6 mb 0.00 in0.0 mm 0.00 in0.0 mm 0.00 in0.0 mm
06:40 PM 48.0°F8.9°C 44.6°F7.0°C 88% 11.0 mph NNE17.7 kmh NNE -- 30.02 in1016.6 mb 0.00 in0.0 mm 0.00 in0.0 mm 0.00 in0.0 mm
06:41 PM 48.0°F8.9°C 44.6°F7.0°C 88% 17.0 mph NNE27.4 kmh NNE -- 30.03 in1016.9 mb 0.00 in0.0 mm 0.00 in0.0 mm 0.00 in0.0 mm
06:42 PM 48.0°F8.9°C 44.6°F7.0°C 88% 11.0 mph NNW17.7 kmh NNW -- 30.03 in1016.9 mb 0.00 in0.0 mm 0.00 in0.0 mm 0.00 in0.0 mm
06:43 PM 48.0°F8.9°C 44.6°F7.0°C 88% 14.0 mph NE22.5 kmh NE -- 30.03 in1016.9 mb 0.00 in0.0 mm 0.00 in0.0 mm 0.00 in0.0 mm
06:44 PM 48.0°F8.9°C 44.6°F7.0°C 88% 10.0 mph NNW16.1 kmh NNW -- 30.03 in1016.9 mb 0.00 in0.0 mm 0.00 in0.0 mm 0.00 in0.0 mm
06:45 PM 48.0°F8.9°C 44.6°F7.0°C 88% 11.0 mph NNE17.7 kmh NNE -- 30.02 in1016.6 mb 0.00 in0.0 mm 0.00 in0.0 mm 0.00 in0.0 mm
06:46 PM 48.0°F8.9°C 44.6°F7.0°C 88% 15.0 mph NNE24.1 kmh NNE -- 30.02 in1016.6 mb 0.00 in0.0 mm 0.00 in0.0 mm 0.00 in0.0 mm
06:47 PM 47.7°F8.7°C 44.2°F6.8°C 88% 20.0 mph NNW32.2 kmh NNW -- 30.02 in1016.6 mb 0.00 in0.0 mm 0.00 in0.0 mm 0.00 in0.0 mm
06:48 PM 47.7°F8.7°C 44.2°F6.8°C 88% 17.0 mph NNE27.4 kmh NNE -- 30.02 in1016.6 mb 0.00 in0.0 mm 0.00 in0.0 mm 0.00 in0.0 mm
06:49 PM 47.7°F8.7°C 44.2°F6.8°C 88% 15.0 mph 24.1 kmh -- 30.02 in1016.6 mb 0.00 in0.0 mm 0.00 in0.0 mm 0.00 in0.0 mm
06:50 PM 47.7°F8.7°C 44.2°F6.8°C 88% 12.0 mph 19.3 kmh -- 30.02 in1016.6 mb 0.00 in0.0 mm 0.00 in0.0 mm 0.00 in0.0 mm
06:51 PM 47.7°F8.7°C 44.2°F6.8°C 88% 13.0 mph NNE20.9 kmh NNE -- 30.02 in1016.6 mb 0.00 in0.0 mm 0.00 in0.0 mm 0.00 in0.0 mm
06:52 PM 47.7°F8.7°C 44.2°F6.8°C 88% 10.0 mph 16.1 kmh -- 30.02 in1016.6 mb 0.00 in0.0 mm 0.00 in0.0 mm 0.00 in0.0 mm
06:53 PM 47.7°F8.7°C 44.2°F6.8°C 88% 9.0 mph NNW14.5 kmh NNW -- 30.02 in1016.6 mb 0.00 in0.0 mm 0.00 in0.0 mm 0.00 in0.0 mm
06:54 PM 47.7°F8.7°C 44.2°F6.8°C 88% 17.0 mph NNE27.4 kmh NNE -- 30.02 in1016.6 mb 0.00 in0.0 mm 0.00 in0.0 mm 0.00 in0.0 mm
06:55 PM 47.7°F8.7°C 44.2°F6.8°C 88% 12.0 mph WNW19.3 kmh WNW -- 30.02 in1016.6 mb 0.00 in0.0 mm 0.00 in0.0 mm 0.00 in0.0 mm
06:56 PM 47.7°F8.7°C 44.2°F6.8°C 88% 17.0 mph 27.4 kmh -- 30.02 in1016.6 mb 0.00 in0.0 mm 0.00 in0.0 mm 0.00 in0.0 mm
06:57 PM 47.6°F8.7°C 44.2°F6.8°C 88% 17.0 mph 27.4 kmh -- 30.01 in1016.3 mb 0.00 in0.0 mm 0.00 in0.0 mm 0.00 in0.0 mm
06:58 PM 47.6°F8.7°C 44.2°F6.8°C 88% 10.0 mph NNE16.1 kmh NNE -- 30.01 in1016.3 mb 0.00 in0.0 mm 0.00 in0.0 mm 0.00 in0.0 mm
06:59 PM 47.6°F8.7°C 44.2°F6.8°C 88% 15.0 mph NNE24.1 kmh NNE -- 30.01 in1016.3 mb 0.00 in0.0 mm 0.00 in0.0 mm 0.00 in0.0 mm
07:00 PM 47.6°F8.7°C 44.2°F6.8°C 88% 8.0 mph NE12.9 kmh NE -- 30.02 in1016.6 mb 0.00 in0.0 mm 0.00 in0.0 mm 0.00 in0.0 mm
07:01 PM 47.6°F8.7°C 44.2°F6.8°C 88% 14.0 mph 22.5 kmh -- 30.01 in1016.3 mb 0.00 in0.0 mm 0.00 in0.0 mm 0.00 in0.0 mm
07:02 PM 47.6°F8.7°C 44.2°F6.8°C 88% 22.0 mph NE35.4 kmh NE -- 30.01 in1016.3 mb 0.00 in0.0 mm 0.00 in0.0 mm 0.00 in0.0 mm
07:03 PM 47.5°F8.6°C 44.1°F6.7°C 88% 10.0 mph NNE16.1 kmh NNE -- 30.02 in1016.6 mb 0.00 in0.0 mm 0.00 in0.0 mm 0.00 in0.0 mm
07:04 PM 47.5°F8.6°C 44.1°F6.7°C 88% 10.0 mph NNE16.1 kmh NNE -- 30.01 in1016.3 mb 0.00 in0.0 mm 0.00 in0.0 mm 0.00 in0.0 mm
07:05 PM 47.5°F8.6°C 44.1°F6.7°C 88% 15.0 mph NNE24.1 kmh NNE -- 30.02 in1016.6 mb 0.00 in0.0 mm 0.00 in0.0 mm 0.00 in0.0 mm
07:06 PM 47.5°F8.6°C 44.1°F6.7°C 88% 14.0 mph 22.5 kmh -- 30.01 in1016.3 mb 0.00 in0.0 mm 0.00 in0.0 mm 0.00 in0.0 mm
07:07 PM 47.5°F8.6°C 44.7°F7.1°C 90% 16.0 mph NNW25.7 kmh NNW -- 30.02 in1016.6 mb 0.00 in0.0 mm 0.00 in0.0 mm 0.00 in0.0 mm
07:08 PM 47.3°F8.5°C 44.5°F6.9°C 90% 8.0 mph NNE12.9 kmh NNE -- 30.02 in1016.6 mb 0.00 in0.0 mm 0.00 in0.0 mm 0.00 in0.0 mm
07:09 PM 47.3°F8.5°C 44.5°F6.9°C 90% 14.0 mph NNW22.5 kmh NNW -- 30.03 in1016.9 mb 0.00 in0.0 mm 0.00 in0.0 mm 0.00 in0.0 mm
07:10 PM 47.1°F8.4°C 44.3°F6.8°C 90% 10.0 mph NNE16.1 kmh NNE -- 30.02 in1016.6 mb 0.00 in0.0 mm 0.00 in0.0 mm 0.00 in0.0 mm
07:11 PM 47.1°F8.4°C 44.3°F6.8°C 90% 9.0 mph NNE14.5 kmh NNE -- 30.03 in1016.9 mb 0.00 in0.0 mm 0.00 in0.0 mm 0.00 in0.0 mm
07:12 PM 47.1°F8.4°C 44.3°F6.8°C 90% 12.0 mph NE19.3 kmh NE -- 30.03 in1016.9 mb 0.00 in0.0 mm 0.00 in0.0 mm 0.00 in0.0 mm
07:13 PM 47.1°F8.4°C 44.6°F7.0°C 91% 8.0 mph NW12.9 kmh NW -- 30.04 in1017.3 mb 0.00 in0.0 mm 0.00 in0.0 mm 0.00 in0.0 mm
07:14 PM 47.1°F8.4°C 44.6°F7.0°C 91% 18.0 mph 29.0 kmh -- 30.04 in1017.3 mb 0.00 in0.0 mm 0.00 in0.0 mm 0.00 in0.0 mm
07:15 PM 47.1°F8.4°C 44.6°F7.0°C 91% 17.0 mph 27.4 kmh -- 30.04 in1017.3 mb 0.00 in0.0 mm 0.00 in0.0 mm 0.00 in0.0 mm
07:16 PM 47.1°F8.4°C 44.6°F7.0°C 91% 13.0 mph NNE20.9 kmh NNE -- 30.04 in1017.3 mb 0.00 in0.0 mm 0.00 in0.0 mm 0.00 in0.0 mm
07:17 PM 47.1°F8.4°C 44.6°F7.0°C 91% 15.0 mph 24.1 kmh -- 30.04 in1017.3 mb 0.00 in0.0 mm 0.00 in0.0 mm 0.00 in0.0 mm
07:18 PM 47.1°F8.4°C 44.6°F7.0°C 91% 8.0 mph NNW12.9 kmh NNW -- 30.04 in1017.3 mb 0.00 in0.0 mm 0.00 in0.0 mm 0.00 in0.0 mm
07:19 PM 47.1°F8.4°C 44.6°F7.0°C 91% 8.0 mph NNE12.9 kmh NNE -- 30.04 in1017.3 mb 0.00 in0.0 mm 0.00 in0.0 mm 0.00 in0.0 mm
07:20 PM 47.1°F8.4°C 44.6°F7.0°C 91% 15.0 mph NNE24.1 kmh NNE -- 30.04 in1017.3 mb 0.00 in0.0 mm 0.00 in0.0 mm 0.00 in0.0 mm
07:21 PM 47.1°F8.4°C 44.3°F6.8°C 90% 13.0 mph NNE20.9 kmh NNE -- 30.03 in1016.9 mb 0.00 in0.0 mm 0.00 in0.0 mm 0.00 in0.0 mm
07:22 PM 47.1°F8.4°C 44.3°F6.8°C 90% 13.0 mph 20.9 kmh -- 30.03 in1016.9 mb 0.00 in0.0 mm 0.00 in0.0 mm 0.00 in0.0 mm
07:23 PM 47.1°F8.4°C 44.3°F6.8°C 90% 13.0 mph NNW20.9 kmh NNW -- 30.02 in1016.6 mb 0.00 in0.0 mm 0.00 in0.0 mm 0.00 in0.0 mm
07:24 PM 47.3°F8.5°C 44.5°F6.9°C 90% 17.0 mph NNW27.4 kmh NNW -- 30.02 in1016.6 mb 0.00 in0.0 mm 0.00 in0.0 mm 0.00 in0.0 mm
07:25 PM 47.3°F8.5°C 44.5°F6.9°C 90% 9.0 mph NE14.5 kmh NE -- 30.02 in1016.6 mb 0.00 in0.0 mm 0.00 in0.0 mm 0.00 in0.0 mm
07:26 PM 47.3°F8.5°C 44.5°F6.9°C 90% 11.0 mph NE17.7 kmh NE -- 30.02 in1016.6 mb 0.00 in0.0 mm 0.00 in0.0 mm 0.00 in0.0 mm
07:27 PM 47.3°F8.5°C 44.5°F6.9°C 90% 12.0 mph NNE19.3 kmh NNE -- 30.02 in1016.6 mb 0.00 in0.0 mm 0.00 in0.0 mm 0.00 in0.0 mm
07:28 PM 47.3°F8.5°C 44.5°F6.9°C 90% 10.0 mph NE16.1 kmh NE -- 30.02 in1016.6 mb 0.00 in0.0 mm 0.00 in0.0 mm 0.00 in0.0 mm
07:29 PM 47.3°F8.5°C 44.5°F6.9°C 90% 12.0 mph NNE19.3 kmh NNE -- 30.03 in1016.9 mb 0.00 in0.0 mm 0.00 in0.0 mm 0.00 in0.0 mm
07:30 PM 47.3°F8.5°C 44.5°F6.9°C 90% 11.0 mph 17.7 kmh -- 30.03 in1016.9 mb 0.00 in0.0 mm 0.00 in0.0 mm 0.00 in0.0 mm
07:31 PM 47.3°F8.5°C 44.5°F6.9°C 90% 8.0 mph E12.9 kmh E -- 30.03 in1016.9 mb 0.00 in0.0 mm 0.00 in0.0 mm 0.00 in0.0 mm
07:32 PM 47.1°F8.4°C 44.3°F6.8°C 90% 16.0 mph NNW25.7 kmh NNW -- 30.03 in1016.9 mb 0.00 in0.0 mm 0.00 in0.0 mm 0.00 in0.0 mm
07:33 PM 47.1°F8.4°C 44.3°F6.8°C 90% 11.0 mph NNE17.7 kmh NNE -- 30.04 in1017.3 mb 0.00 in0.0 mm 0.00 in0.0 mm 0.00 in0.0 mm
07:34 PM 47.1°F8.4°C 44.3°F6.8°C 90% 10.0 mph NNW16.1 kmh NNW -- 30.04 in1017.3 mb 0.00 in0.0 mm 0.00 in0.0 mm 0.00 in0.0 mm
07:35 PM 47.1°F8.4°C 44.3°F6.8°C 90% 7.0 mph 11.3 kmh -- 30.04 in1017.3 mb 0.00 in0.0 mm 0.00 in0.0 mm 0.00 in0.0 mm
07:36 PM 47.1°F8.4°C 44.3°F6.8°C 90% 9.0 mph 14.5 kmh -- 30.04 in1017.3 mb 0.00 in0.0 mm 0.00 in0.0 mm 0.00 in0.0 mm
07:37 PM 47.1°F8.4°C 44.3°F6.8°C 90% 8.0 mph NNE12.9 kmh NNE -- 30.05 in1017.6 mb 0.00 in0.0 mm 0.00 in0.0 mm 0.00 in0.0 mm
07:38 PM 47.1°F8.4°C 44.6°F7.0°C 91% 11.0 mph NNE17.7 kmh NNE -- 30.05 in1017.6 mb 0.00 in0.0 mm 0.00 in0.0 mm 0.00 in0.0 mm
07:39 PM 46.7°F8.2°C 44.2°F6.8°C 91% 16.0 mph NNE25.7 kmh NNE -- 30.03 in1016.9 mb 0.00 in0.0 mm 0.00 in0.0 mm 0.00 in0.0 mm
07:40 PM 46.7°F8.2°C 44.8°F7.1°C 93% 15.0 mph NNE24.1 kmh NNE -- 30.03 in1016.9 mb 0.00 in0.0 mm 0.00 in0.0 mm 0.00 in0.0 mm
07:41 PM 46.5°F8.1°C 44.6°F7.0°C 93% 16.0 mph NNE25.7 kmh NNE -- 30.03 in1016.9 mb 0.00 in0.0 mm 0.00 in0.0 mm 0.00 in0.0 mm
07:42 PM 46.5°F8.1°C 44.6°F7.0°C 93% 10.0 mph NE16.1 kmh NE -- 30.03 in1016.9 mb 0.00 in0.0 mm 0.00 in0.0 mm 0.00 in0.0 mm
07:43 PM 46.5°F8.1°C 44.6°F7.0°C 93% 9.0 mph NE14.5 kmh NE -- 30.03 in1016.9 mb 0.00 in0.0 mm 0.00 in0.0 mm 0.00 in0.0 mm
07:44 PM 46.4°F8.0°C 44.5°F6.9°C 93% 9.0 mph NW14.5 kmh NW -- 30.03 in1016.9 mb 0.00 in0.0 mm 0.00 in0.0 mm 0.00 in0.0 mm
07:45 PM 46.4°F8.0°C 44.5°F6.9°C 93% 13.0 mph WNW20.9 kmh WNW -- 30.02 in1016.6 mb 0.00 in0.0 mm 0.00 in0.0 mm 0.00 in0.0 mm
07:46 PM 46.1°F7.8°C 44.1°F6.7°C 93% 11.0 mph 17.7 kmh -- 30.02 in1016.6 mb 0.00 in0.0 mm 0.00 in0.0 mm 0.00 in0.0 mm
07:47 PM 46.1°F7.8°C 44.1°F6.7°C 93% 16.0 mph NE25.7 kmh NE -- 30.02 in1016.6 mb 0.00 in0.0 mm 0.00 in0.0 mm 0.00 in0.0 mm
07:48 PM 46.1°F7.8°C 44.7°F7.1°C 95% 10.0 mph NNW16.1 kmh NNW -- 30.02 in1016.6 mb 0.00 in0.0 mm 0.00 in0.0 mm 0.00 in0.0 mm
07:49 PM 45.9°F7.7°C 44.5°F6.9°C 95% 14.0 mph NNW22.5 kmh NNW -- 30.01 in1016.3 mb 0.00 in0.0 mm 0.00 in0.0 mm 0.00 in0.0 mm
07:50 PM 45.9°F7.7°C 44.5°F6.9°C 95% 13.0 mph NNE20.9 kmh NNE -- 30.01 in1016.3 mb 0.00 in0.0 mm 0.00 in0.0 mm 0.00 in0.0 mm
07:51 PM 45.9°F7.7°C 44.5°F6.9°C 95% 12.0 mph NNW19.3 kmh NNW -- 30.02 in1016.6 mb 0.00 in0.0 mm 0.00 in0.0 mm 0.00 in0.0 mm
07:52 PM 45.9°F7.7°C 44.5°F6.9°C 95% 13.0 mph NNE20.9 kmh NNE -- 30.02 in1016.6 mb 0.00 in0.0 mm 0.00 in0.0 mm 0.00 in0.0 mm
07:53 PM 45.7°F7.6°C 44.3°F6.8°C 95% 13.0 mph NE20.9 kmh NE -- 30.02 in1016.6 mb 0.00 in0.0 mm 0.00 in0.0 mm 0.00 in0.0 mm
07:54 PM 45.7°F7.6°C 44.3°F6.8°C 95% 9.0 mph NW14.5 kmh NW -- 30.02 in1016.6 mb 0.00 in0.0 mm 0.00 in0.0 mm 0.00 in0.0 mm
07:55 PM 45.7°F7.6°C 44.3°F6.8°C 95% 13.0 mph NNW20.9 kmh NNW -- 30.03 in1016.9 mb 0.00 in0.0 mm 0.00 in0.0 mm 0.00 in0.0 mm
07:56 PM 45.7°F7.6°C 44.3°F6.8°C 95% 13.0 mph NNE20.9 kmh NNE -- 30.02 in1016.6 mb 0.00 in0.0 mm 0.00 in0.0 mm 0.00 in0.0 mm
07:57 PM 45.5°F7.5°C 44.1°F6.7°C 95% 15.0 mph NE24.1 kmh NE -- 30.02 in1016.6 mb 0.00 in0.0 mm 0.00 in0.0 mm 0.00 in0.0 mm
07:58 PM 45.5°F7.5°C 44.1°F6.7°C 95% 10.0 mph NNE16.1 kmh NNE -- 30.03 in1016.9 mb 0.00 in0.0 mm 0.00 in0.0 mm 0.00 in0.0 mm
07:59 PM 45.5°F7.5°C 44.4°F6.9°C 96% 16.0 mph NNE25.7 kmh NNE -- 30.03 in1016.9 mb 0.00 in0.0 mm 0.00 in0.0 mm 0.00 in0.0 mm
08:00 PM 45.5°F7.5°C 44.4°F6.9°C 96% 10.0 mph 16.1 kmh -- 30.03 in1016.9 mb 0.00 in0.0 mm 0.00 in0.0 mm 0.00 in0.0 mm
08:01 PM 45.5°F7.5°C 44.4°F6.9°C 96% 12.0 mph NNW19.3 kmh NNW -- 30.04 in1017.3 mb 0.00 in0.0 mm 0.00 in0.0 mm 0.00 in0.0 mm
08:02 PM 45.2°F7.3°C 44.1°F6.7°C 96% 14.0 mph NNE22.5 kmh NNE -- 30.04 in1017.3 mb 0.00 in0.0 mm 0.00 in0.0 mm 0.00 in0.0 mm
08:03 PM 45.2°F7.3°C 44.1°F6.7°C 96% 13.0 mph NNE20.9 kmh NNE -- 30.03 in1016.9 mb 0.00 in0.0 mm 0.00 in0.0 mm 0.00 in0.0 mm
08:04 PM 45.2°F7.3°C 44.1°F6.7°C 96% 9.0 mph NE14.5 kmh NE -- 30.03 in1016.9 mb 0.00 in0.0 mm 0.00 in0.0 mm 0.00 in0.0 mm
08:05 PM 45.2°F7.3°C 44.1°F6.7°C 96% 9.0 mph NNE14.5 kmh NNE -- 30.03 in1016.9 mb 0.00 in0.0 mm 0.00 in0.0 mm 0.00 in0.0 mm
08:06 PM 45.2°F7.3°C 44.1°F6.7°C 96% 15.0 mph ENE24.1 kmh ENE -- 30.03 in1016.9 mb 0.00 in0.0 mm 0.00 in0.0 mm 0.00 in0.0 mm
08:07 PM 45.2°F7.3°C 44.1°F6.7°C 96% 16.0 mph NNE25.7 kmh NNE -- 30.03 in1016.9 mb 0.00 in0.0 mm 0.00 in0.0 mm 0.00 in0.0 mm
08:08 PM 45.2°F7.3°C 44.1°F6.7°C 96% 15.0 mph NE24.1 kmh NE -- 30.03 in1016.9 mb 0.00 in0.0 mm 0.00 in0.0 mm 0.00 in0.0 mm
08:09 PM 45.2°F7.3°C 44.1°F6.7°C 96% 8.0 mph NNE12.9 kmh NNE -- 30.04 in1017.3 mb 0.00 in0.0 mm 0.00 in0.0 mm 0.00 in0.0 mm
08:10 PM 45.2°F7.3°C 43.8°F6.6°C 95% 15.0 mph 24.1 kmh -- 30.04 in1017.3 mb 0.00 in0.0 mm 0.00 in0.0 mm 0.00 in0.0 mm
08:11 PM 45.2°F7.3°C 43.8°F6.6°C 95% 8.0 mph W12.9 kmh W -- 30.04 in1017.3 mb 0.00 in0.0 mm 0.00 in0.0 mm 0.00 in0.0 mm
08:12 PM 45.2°F7.3°C 43.8°F6.6°C 95% 10.0 mph NNW16.1 kmh NNW -- <